<?xml version="1.0" encoding="UTF-8" standalone="no" ?>
<gpx xmlns="http://www.topografix.com/GPX/1/1" xmlns:xsi="http://www.w3.org/2001/XMLSchema-instance" xsi:schemaLocation="http://www.topografix.com/GPX/1/1 http://www.topografix.com/GPX/1/1/gpx.xsd" version="1.1" creator="VisuGPX - https://www.visugpx.com">
  <metadata>
    <name>La coche</name>
    <desc><![CDATA[la coche par pas de la fosse
]]></desc>
  </metadata>
  <trk>
    <name><![CDATA[PAS FOS COMPLET]]></name>
    <trkseg>
      <trkpt lat="45.55393" lon="5.91825">
        <ele>433.69</ele>
        <time>2011-09-02T15:35:02Z</time>
      </trkpt>
      <trkpt lat="45.55391" lon="5.9183">
        <ele>433.69</ele>
        <time>2011-09-02T15:35:03Z</time>
      </trkpt>
      <trkpt lat="45.55412" lon="5.91846">
        <ele>433.21</ele>
        <time>2011-09-02T15:35:04Z</time>
      </trkpt>
      <trkpt lat="45.55411" lon="5.91853">
        <ele>433.21</ele>
        <time>2011-09-02T15:35:05Z</time>
      </trkpt>
      <trkpt lat="45.55408" lon="5.91867">
        <ele>432.73</ele>
        <time>2011-09-02T15:35:07Z</time>
      </trkpt>
      <trkpt lat="45.55406" lon="5.91875">
        <ele>432.25</ele>
        <time>2011-09-02T15:35:08Z</time>
      </trkpt>
      <trkpt lat="45.55404" lon="5.91882">
        <ele>430.81</ele>
        <time>2011-09-02T15:35:09Z</time>
      </trkpt>
      <trkpt lat="45.55402" lon="5.91888">
        <ele>430.33</ele>
        <time>2011-09-02T15:35:10Z</time>
      </trkpt>
      <trkpt lat="45.55398" lon="5.91892">
        <ele>430.33</ele>
        <time>2011-09-02T15:35:11Z</time>
      </trkpt>
      <trkpt lat="45.55393" lon="5.91892">
        <ele>430.33</ele>
        <time>2011-09-02T15:35:12Z</time>
      </trkpt>
      <trkpt lat="45.55388" lon="5.91891">
        <ele>429.85</ele>
        <time>2011-09-02T15:35:13Z</time>
      </trkpt>
      <trkpt lat="45.55383" lon="5.9189">
        <ele>429.85</ele>
        <time>2011-09-02T15:35:14Z</time>
      </trkpt>
      <trkpt lat="45.55377" lon="5.91889">
        <ele>429.85</ele>
        <time>2011-09-02T15:35:15Z</time>
      </trkpt>
      <trkpt lat="45.55271" lon="5.91893">
        <ele>429.37</ele>
        <time>2011-09-02T15:35:32Z</time>
      </trkpt>
      <trkpt lat="45.55189" lon="5.9194">
        <ele>426.48</ele>
        <time>2011-09-02T15:35:44Z</time>
      </trkpt>
      <trkpt lat="45.55154" lon="5.91973">
        <ele>425.52</ele>
        <time>2011-09-02T15:35:49Z</time>
      </trkpt>
      <trkpt lat="45.55146" lon="5.91977">
        <ele>425.04</ele>
        <time>2011-09-02T15:35:50Z</time>
      </trkpt>
      <trkpt lat="45.55138" lon="5.91981">
        <ele>424.56</ele>
        <time>2011-09-02T15:35:51Z</time>
      </trkpt>
      <trkpt lat="45.55129" lon="5.91983">
        <ele>423.6</ele>
        <time>2011-09-02T15:35:52Z</time>
      </trkpt>
      <trkpt lat="45.55121" lon="5.91984">
        <ele>423.6</ele>
        <time>2011-09-02T15:35:53Z</time>
      </trkpt>
      <trkpt lat="45.55114" lon="5.91986">
        <ele>423.6</ele>
        <time>2011-09-02T15:35:54Z</time>
      </trkpt>
      <trkpt lat="45.55109" lon="5.91991">
        <ele>423.12</ele>
        <time>2011-09-02T15:35:55Z</time>
      </trkpt>
      <trkpt lat="45.55106" lon="5.91996">
        <ele>422.64</ele>
        <time>2011-09-02T15:35:56Z</time>
      </trkpt>
      <trkpt lat="45.55103" lon="5.92002">
        <ele>422.64</ele>
        <time>2011-09-02T15:35:57Z</time>
      </trkpt>
      <trkpt lat="45.55102" lon="5.9201">
        <ele>422.16</ele>
        <time>2011-09-02T15:35:58Z</time>
      </trkpt>
      <trkpt lat="45.55103" lon="5.92018">
        <ele>421.68</ele>
        <time>2011-09-02T15:35:59Z</time>
      </trkpt>
      <trkpt lat="45.55104" lon="5.92025">
        <ele>421.68</ele>
        <time>2011-09-02T15:36:00Z</time>
      </trkpt>
      <trkpt lat="45.55108" lon="5.92031">
        <ele>421.19</ele>
        <time>2011-09-02T15:36:01Z</time>
      </trkpt>
      <trkpt lat="45.55113" lon="5.92035">
        <ele>420.71</ele>
        <time>2011-09-02T15:36:02Z</time>
      </trkpt>
      <trkpt lat="45.55119" lon="5.92036">
        <ele>420.23</ele>
        <time>2011-09-02T15:36:03Z</time>
      </trkpt>
      <trkpt lat="45.55127" lon="5.92037">
        <ele>420.23</ele>
        <time>2011-09-02T15:36:04Z</time>
      </trkpt>
      <trkpt lat="45.55134" lon="5.92037">
        <ele>419.75</ele>
        <time>2011-09-02T15:36:05Z</time>
      </trkpt>
      <trkpt lat="45.55169" lon="5.92039">
        <ele>415.91</ele>
        <time>2011-09-02T15:36:09Z</time>
      </trkpt>
      <trkpt lat="45.5521" lon="5.92048">
        <ele>412.54</ele>
        <time>2011-09-02T15:36:13Z</time>
      </trkpt>
      <trkpt lat="45.55244" lon="5.9206">
        <ele>409.66</ele>
        <time>2011-09-02T15:36:16Z</time>
      </trkpt>
      <trkpt lat="45.55277" lon="5.92075">
        <ele>406.29</ele>
        <time>2011-09-02T15:36:19Z</time>
      </trkpt>
      <trkpt lat="45.55281" lon="5.92078">
        <ele>405.33</ele>
        <time>2011-09-02T15:36:20Z</time>
      </trkpt>
      <trkpt lat="45.5531" lon="5.92099">
        <ele>402.45</ele>
        <time>2011-09-02T15:36:23Z</time>
      </trkpt>
      <trkpt lat="45.55316" lon="5.92103">
        <ele>401.49</ele>
        <time>2011-09-02T15:36:24Z</time>
      </trkpt>
      <trkpt lat="45.55322" lon="5.92108">
        <ele>401.01</ele>
        <time>2011-09-02T15:36:25Z</time>
      </trkpt>
      <trkpt lat="45.55325" lon="5.92116">
        <ele>400.05</ele>
        <time>2011-09-02T15:36:26Z</time>
      </trkpt>
      <trkpt lat="45.55326" lon="5.92125">
        <ele>399.57</ele>
        <time>2011-09-02T15:36:27Z</time>
      </trkpt>
      <trkpt lat="45.55325" lon="5.92135">
        <ele>399.57</ele>
        <time>2011-09-02T15:36:28Z</time>
      </trkpt>
      <trkpt lat="45.55322" lon="5.92143">
        <ele>399.57</ele>
        <time>2011-09-02T15:36:29Z</time>
      </trkpt>
      <trkpt lat="45.55322" lon="5.92151">
        <ele>399.57</ele>
        <time>2011-09-02T15:36:30Z</time>
      </trkpt>
      <trkpt lat="45.55323" lon="5.92159">
        <ele>399.08</ele>
        <time>2011-09-02T15:36:31Z</time>
      </trkpt>
      <trkpt lat="45.55326" lon="5.92163">
        <ele>398.6</ele>
        <time>2011-09-02T15:36:32Z</time>
      </trkpt>
      <trkpt lat="45.5533" lon="5.92166">
        <ele>398.12</ele>
        <time>2011-09-02T15:36:33Z</time>
      </trkpt>
      <trkpt lat="45.55334" lon="5.92168">
        <ele>398.12</ele>
        <time>2011-09-02T15:36:34Z</time>
      </trkpt>
      <trkpt lat="45.55338" lon="5.92169">
        <ele>398.12</ele>
        <time>2011-09-02T15:36:35Z</time>
      </trkpt>
      <trkpt lat="45.5534" lon="5.92169">
        <ele>397.64</ele>
        <time>2011-09-02T15:36:36Z</time>
      </trkpt>
      <trkpt lat="45.55343" lon="5.92169">
        <ele>397.64</ele>
        <time>2011-09-02T15:36:37Z</time>
      </trkpt>
      <trkpt lat="45.55359" lon="5.92169">
        <ele>397.64</ele>
        <time>2011-09-02T15:36:47Z</time>
      </trkpt>
      <trkpt lat="45.55359" lon="5.92169">
        <ele>397.64</ele>
        <time>2011-09-02T15:37:21Z</time>
      </trkpt>
      <trkpt lat="45.55357" lon="5.92169">
        <ele>398.12</ele>
        <time>2011-09-02T15:37:42Z</time>
      </trkpt>
      <trkpt lat="45.55357" lon="5.92168">
        <ele>397.64</ele>
        <time>2011-09-02T15:37:50Z</time>
      </trkpt>
      <trkpt lat="45.55361" lon="5.92169">
        <ele>397.64</ele>
        <time>2011-09-02T15:37:53Z</time>
      </trkpt>
      <trkpt lat="45.55385" lon="5.92174">
        <ele>395.72</ele>
        <time>2011-09-02T15:38:00Z</time>
      </trkpt>
      <trkpt lat="45.55448" lon="5.92172">
        <ele>392.84</ele>
        <time>2011-09-02T15:38:11Z</time>
      </trkpt>
      <trkpt lat="45.55491" lon="5.92175">
        <ele>389.47</ele>
        <time>2011-09-02T15:38:19Z</time>
      </trkpt>
      <trkpt lat="45.55502" lon="5.92173">
        <ele>388.51</ele>
        <time>2011-09-02T15:38:21Z</time>
      </trkpt>
      <trkpt lat="45.55506" lon="5.9217">
        <ele>388.99</ele>
        <time>2011-09-02T15:38:22Z</time>
      </trkpt>
      <trkpt lat="45.5551" lon="5.92164">
        <ele>388.51</ele>
        <time>2011-09-02T15:38:23Z</time>
      </trkpt>
      <trkpt lat="45.55512" lon="5.92159">
        <ele>388.51</ele>
        <time>2011-09-02T15:38:24Z</time>
      </trkpt>
      <trkpt lat="45.55513" lon="5.92153">
        <ele>388.51</ele>
        <time>2011-09-02T15:38:25Z</time>
      </trkpt>
      <trkpt lat="45.55516" lon="5.92124">
        <ele>390.91</ele>
        <time>2011-09-02T15:38:32Z</time>
      </trkpt>
      <trkpt lat="45.55513" lon="5.92122">
        <ele>390.91</ele>
        <time>2011-09-02T15:38:33Z</time>
      </trkpt>
      <trkpt lat="45.55511" lon="5.92122">
        <ele>390.43</ele>
        <time>2011-09-02T15:38:34Z</time>
      </trkpt>
      <trkpt lat="45.55509" lon="5.92122">
        <ele>390.43</ele>
        <time>2011-09-02T15:38:35Z</time>
      </trkpt>
      <trkpt lat="45.55506" lon="5.92124">
        <ele>390.91</ele>
        <time>2011-09-02T15:38:46Z</time>
      </trkpt>
      <trkpt lat="45.55506" lon="5.92124">
        <ele>390.91</ele>
        <time>2011-09-02T15:39:08Z</time>
      </trkpt>
      <trkpt lat="45.55506" lon="5.92124">
        <ele>390.43</ele>
        <time>2011-09-02T15:39:20Z</time>
      </trkpt>
      <trkpt lat="45.55506" lon="5.92126">
        <ele>389.95</ele>
        <time>2011-09-02T15:39:21Z</time>
      </trkpt>
      <trkpt lat="45.55505" lon="5.92129">
        <ele>389.95</ele>
        <time>2011-09-02T15:39:22Z</time>
      </trkpt>
      <trkpt lat="45.55505" lon="5.92132">
        <ele>390.43</ele>
        <time>2011-09-02T15:39:23Z</time>
      </trkpt>
      <trkpt lat="45.55505" lon="5.92135">
        <ele>389.95</ele>
        <time>2011-09-02T15:39:24Z</time>
      </trkpt>
      <trkpt lat="45.55504" lon="5.92138">
        <ele>389.47</ele>
        <time>2011-09-02T15:39:25Z</time>
      </trkpt>
      <trkpt lat="45.55504" lon="5.92142">
        <ele>389.47</ele>
        <time>2011-09-02T15:39:26Z</time>
      </trkpt>
      <trkpt lat="45.55504" lon="5.92145">
        <ele>389.47</ele>
        <time>2011-09-02T15:39:27Z</time>
      </trkpt>
      <trkpt lat="45.55504" lon="5.92148">
        <ele>388.99</ele>
        <time>2011-09-02T15:39:28Z</time>
      </trkpt>
      <trkpt lat="45.55496" lon="5.92172">
        <ele>388.99</ele>
        <time>2011-09-02T15:39:37Z</time>
      </trkpt>
      <trkpt lat="45.55494" lon="5.92172">
        <ele>388.99</ele>
        <time>2011-09-02T15:39:38Z</time>
      </trkpt>
      <trkpt lat="45.55464" lon="5.92182">
        <ele>390.91</ele>
        <time>2011-09-02T15:39:51Z</time>
      </trkpt>
      <trkpt lat="45.55464" lon="5.92185">
        <ele>390.91</ele>
        <time>2011-09-02T15:39:52Z</time>
      </trkpt>
      <trkpt lat="45.55463" lon="5.92187">
        <ele>391.39</ele>
        <time>2011-09-02T15:39:53Z</time>
      </trkpt>
      <trkpt lat="45.55463" lon="5.9219">
        <ele>390.91</ele>
        <time>2011-09-02T15:39:54Z</time>
      </trkpt>
      <trkpt lat="45.55462" lon="5.92193">
        <ele>391.39</ele>
        <time>2011-09-02T15:39:55Z</time>
      </trkpt>
      <trkpt lat="45.55473" lon="5.92234">
        <ele>392.36</ele>
        <time>2011-09-02T15:40:08Z</time>
      </trkpt>
      <trkpt lat="45.55513" lon="5.92259">
        <ele>391.39</ele>
        <time>2011-09-02T15:40:21Z</time>
      </trkpt>
      <trkpt lat="45.55526" lon="5.92266">
        <ele>390.43</ele>
        <time>2011-09-02T15:40:24Z</time>
      </trkpt>
      <trkpt lat="45.55531" lon="5.92269">
        <ele>390.43</ele>
        <time>2011-09-02T15:40:25Z</time>
      </trkpt>
      <trkpt lat="45.5555" lon="5.92283">
        <ele>389.47</ele>
        <time>2011-09-02T15:40:29Z</time>
      </trkpt>
      <trkpt lat="45.55554" lon="5.92287">
        <ele>389.95</ele>
        <time>2011-09-02T15:40:30Z</time>
      </trkpt>
      <trkpt lat="45.5558" lon="5.92322">
        <ele>392.36</ele>
        <time>2011-09-02T15:40:41Z</time>
      </trkpt>
      <trkpt lat="45.55594" lon="5.92341">
        <ele>395.72</ele>
        <time>2011-09-02T15:40:52Z</time>
      </trkpt>
      <trkpt lat="45.55615" lon="5.92358">
        <ele>398.12</ele>
        <time>2011-09-02T15:41:05Z</time>
      </trkpt>
      <trkpt lat="45.55634" lon="5.92371">
        <ele>401.49</ele>
        <time>2011-09-02T15:41:18Z</time>
      </trkpt>
      <trkpt lat="45.55648" lon="5.9238">
        <ele>403.41</ele>
        <time>2011-09-02T15:41:28Z</time>
      </trkpt>
      <trkpt lat="45.5565" lon="5.92381">
        <ele>403.89</ele>
        <time>2011-09-02T15:41:29Z</time>
      </trkpt>
      <trkpt lat="45.55672" lon="5.92396">
        <ele>407.26</ele>
        <time>2011-09-02T15:41:41Z</time>
      </trkpt>
      <trkpt lat="45.55687" lon="5.92414">
        <ele>408.7</ele>
        <time>2011-09-02T15:41:54Z</time>
      </trkpt>
      <trkpt lat="45.5569" lon="5.92419">
        <ele>409.18</ele>
        <time>2011-09-02T15:41:57Z</time>
      </trkpt>
      <trkpt lat="45.5569" lon="5.92421">
        <ele>409.18</ele>
        <time>2011-09-02T15:41:58Z</time>
      </trkpt>
      <trkpt lat="45.55691" lon="5.92423">
        <ele>409.18</ele>
        <time>2011-09-02T15:41:59Z</time>
      </trkpt>
      <trkpt lat="45.55692" lon="5.92424">
        <ele>409.18</ele>
        <time>2011-09-02T15:42:00Z</time>
      </trkpt>
      <trkpt lat="45.55693" lon="5.92426">
        <ele>409.18</ele>
        <time>2011-09-02T15:42:02Z</time>
      </trkpt>
      <trkpt lat="45.55694" lon="5.92427">
        <ele>409.18</ele>
        <time>2011-09-02T15:42:03Z</time>
      </trkpt>
      <trkpt lat="45.55704" lon="5.92457">
        <ele>410.14</ele>
        <time>2011-09-02T15:42:15Z</time>
      </trkpt>
      <trkpt lat="45.55706" lon="5.92492">
        <ele>411.58</ele>
        <time>2011-09-02T15:42:30Z</time>
      </trkpt>
      <trkpt lat="45.55697" lon="5.92509">
        <ele>413.02</ele>
        <time>2011-09-02T15:42:39Z</time>
      </trkpt>
      <trkpt lat="45.55696" lon="5.92509">
        <ele>413.02</ele>
        <time>2011-09-02T15:42:40Z</time>
      </trkpt>
      <trkpt lat="45.55673" lon="5.92518">
        <ele>416.39</ele>
        <time>2011-09-02T15:42:55Z</time>
      </trkpt>
      <trkpt lat="45.55671" lon="5.92519">
        <ele>416.87</ele>
        <time>2011-09-02T15:42:56Z</time>
      </trkpt>
      <trkpt lat="45.5566" lon="5.92528">
        <ele>418.31</ele>
        <time>2011-09-02T15:43:04Z</time>
      </trkpt>
      <trkpt lat="45.55659" lon="5.92529">
        <ele>418.31</ele>
        <time>2011-09-02T15:43:05Z</time>
      </trkpt>
      <trkpt lat="45.55658" lon="5.9253">
        <ele>418.79</ele>
        <time>2011-09-02T15:43:06Z</time>
      </trkpt>
      <trkpt lat="45.55632" lon="5.92563">
        <ele>421.68</ele>
        <time>2011-09-02T15:43:25Z</time>
      </trkpt>
      <trkpt lat="45.5561" lon="5.92595">
        <ele>424.08</ele>
        <time>2011-09-02T15:43:44Z</time>
      </trkpt>
      <trkpt lat="45.55602" lon="5.926">
        <ele>425.04</ele>
        <time>2011-09-02T15:43:49Z</time>
      </trkpt>
      <trkpt lat="45.556" lon="5.92599">
        <ele>425.52</ele>
        <time>2011-09-02T15:43:50Z</time>
      </trkpt>
      <trkpt lat="45.55599" lon="5.92598">
        <ele>425.52</ele>
        <time>2011-09-02T15:43:51Z</time>
      </trkpt>
      <trkpt lat="45.55597" lon="5.92597">
        <ele>426.48</ele>
        <time>2011-09-02T15:43:52Z</time>
      </trkpt>
      <trkpt lat="45.55596" lon="5.92597">
        <ele>426.48</ele>
        <time>2011-09-02T15:43:53Z</time>
      </trkpt>
      <trkpt lat="45.55594" lon="5.92597">
        <ele>426.48</ele>
        <time>2011-09-02T15:43:54Z</time>
      </trkpt>
      <trkpt lat="45.55592" lon="5.92597">
        <ele>426.48</ele>
        <time>2011-09-02T15:43:55Z</time>
      </trkpt>
      <trkpt lat="45.55573" lon="5.92602">
        <ele>428.4</ele>
        <time>2011-09-02T15:44:06Z</time>
      </trkpt>
      <trkpt lat="45.55553" lon="5.92599">
        <ele>431.77</ele>
        <time>2011-09-02T15:44:17Z</time>
      </trkpt>
      <trkpt lat="45.55548" lon="5.92601">
        <ele>432.73</ele>
        <time>2011-09-02T15:44:20Z</time>
      </trkpt>
      <trkpt lat="45.55522" lon="5.92602">
        <ele>435.61</ele>
        <time>2011-09-02T15:44:37Z</time>
      </trkpt>
      <trkpt lat="45.555" lon="5.92594">
        <ele>439.46</ele>
        <time>2011-09-02T15:44:53Z</time>
      </trkpt>
      <trkpt lat="45.55483" lon="5.92578">
        <ele>441.86</ele>
        <time>2011-09-02T15:45:07Z</time>
      </trkpt>
      <trkpt lat="45.55458" lon="5.92554">
        <ele>444.27</ele>
        <time>2011-09-02T15:45:22Z</time>
      </trkpt>
      <trkpt lat="45.55423" lon="5.92533">
        <ele>446.67</ele>
        <time>2011-09-02T15:45:39Z</time>
      </trkpt>
      <trkpt lat="45.55397" lon="5.92513">
        <ele>448.59</ele>
        <time>2011-09-02T15:45:55Z</time>
      </trkpt>
      <trkpt lat="45.55383" lon="5.9251">
        <ele>449.55</ele>
        <time>2011-09-02T15:46:02Z</time>
      </trkpt>
      <trkpt lat="45.5536" lon="5.92489">
        <ele>449.55</ele>
        <time>2011-09-02T15:46:15Z</time>
      </trkpt>
      <trkpt lat="45.55352" lon="5.92479">
        <ele>448.59</ele>
        <time>2011-09-02T15:46:20Z</time>
      </trkpt>
      <trkpt lat="45.55333" lon="5.92459">
        <ele>448.59</ele>
        <time>2011-09-02T15:46:32Z</time>
      </trkpt>
      <trkpt lat="45.55305" lon="5.92449">
        <ele>448.59</ele>
        <time>2011-09-02T15:46:46Z</time>
      </trkpt>
      <trkpt lat="45.55275" lon="5.92435">
        <ele>448.59</ele>
        <time>2011-09-02T15:47:00Z</time>
      </trkpt>
      <trkpt lat="45.55249" lon="5.92429">
        <ele>451</ele>
        <time>2011-09-02T15:47:14Z</time>
      </trkpt>
      <trkpt lat="45.5523" lon="5.92453">
        <ele>451.96</ele>
        <time>2011-09-02T15:47:26Z</time>
      </trkpt>
      <trkpt lat="45.55211" lon="5.92498">
        <ele>452.92</ele>
        <time>2011-09-02T15:47:40Z</time>
      </trkpt>
      <trkpt lat="45.55186" lon="5.92557">
        <ele>455.8</ele>
        <time>2011-09-02T15:47:57Z</time>
      </trkpt>
      <trkpt lat="45.55192" lon="5.92587">
        <ele>453.88</ele>
        <time>2011-09-02T15:48:07Z</time>
      </trkpt>
      <trkpt lat="45.55199" lon="5.92599">
        <ele>453.4</ele>
        <time>2011-09-02T15:48:09Z</time>
      </trkpt>
      <trkpt lat="45.55205" lon="5.92612">
        <ele>452.44</ele>
        <time>2011-09-02T15:48:11Z</time>
      </trkpt>
      <trkpt lat="45.55209" lon="5.92626">
        <ele>451</ele>
        <time>2011-09-02T15:48:13Z</time>
      </trkpt>
      <trkpt lat="45.55213" lon="5.92641">
        <ele>450.03</ele>
        <time>2011-09-02T15:48:15Z</time>
      </trkpt>
      <trkpt lat="45.55214" lon="5.92647">
        <ele>449.55</ele>
        <time>2011-09-02T15:48:16Z</time>
      </trkpt>
      <trkpt lat="45.55214" lon="5.92653">
        <ele>449.07</ele>
        <time>2011-09-02T15:48:17Z</time>
      </trkpt>
      <trkpt lat="45.55207" lon="5.92678">
        <ele>448.11</ele>
        <time>2011-09-02T15:48:21Z</time>
      </trkpt>
      <trkpt lat="45.55206" lon="5.92684">
        <ele>447.63</ele>
        <time>2011-09-02T15:48:22Z</time>
      </trkpt>
      <trkpt lat="45.55206" lon="5.9269">
        <ele>448.11</ele>
        <time>2011-09-02T15:48:23Z</time>
      </trkpt>
      <trkpt lat="45.55206" lon="5.92697">
        <ele>446.67</ele>
        <time>2011-09-02T15:48:24Z</time>
      </trkpt>
      <trkpt lat="45.55208" lon="5.92704">
        <ele>446.19</ele>
        <time>2011-09-02T15:48:25Z</time>
      </trkpt>
      <trkpt lat="45.5521" lon="5.92712">
        <ele>445.71</ele>
        <time>2011-09-02T15:48:26Z</time>
      </trkpt>
      <trkpt lat="45.55212" lon="5.9272">
        <ele>445.23</ele>
        <time>2011-09-02T15:48:27Z</time>
      </trkpt>
      <trkpt lat="45.55215" lon="5.92726">
        <ele>444.27</ele>
        <time>2011-09-02T15:48:28Z</time>
      </trkpt>
      <trkpt lat="45.55218" lon="5.92731">
        <ele>444.27</ele>
        <time>2011-09-02T15:48:29Z</time>
      </trkpt>
      <trkpt lat="45.55222" lon="5.92735">
        <ele>443.31</ele>
        <time>2011-09-02T15:48:30Z</time>
      </trkpt>
      <trkpt lat="45.55226" lon="5.92739">
        <ele>443.31</ele>
        <time>2011-09-02T15:48:31Z</time>
      </trkpt>
      <trkpt lat="45.55228" lon="5.92743">
        <ele>442.82</ele>
        <time>2011-09-02T15:48:32Z</time>
      </trkpt>
      <trkpt lat="45.55228" lon="5.92746">
        <ele>442.82</ele>
        <time>2011-09-02T15:48:33Z</time>
      </trkpt>
      <trkpt lat="45.55226" lon="5.9275">
        <ele>441.38</ele>
        <time>2011-09-02T15:48:34Z</time>
      </trkpt>
      <trkpt lat="45.55222" lon="5.92753">
        <ele>440.9</ele>
        <time>2011-09-02T15:48:35Z</time>
      </trkpt>
      <trkpt lat="45.55217" lon="5.92756">
        <ele>440.42</ele>
        <time>2011-09-02T15:48:36Z</time>
      </trkpt>
      <trkpt lat="45.55211" lon="5.92757">
        <ele>439.94</ele>
        <time>2011-09-02T15:48:37Z</time>
      </trkpt>
      <trkpt lat="45.55204" lon="5.92757">
        <ele>439.46</ele>
        <time>2011-09-02T15:48:38Z</time>
      </trkpt>
      <trkpt lat="45.55197" lon="5.92757">
        <ele>438.98</ele>
        <time>2011-09-02T15:48:39Z</time>
      </trkpt>
      <trkpt lat="45.55177" lon="5.9276">
        <ele>438.98</ele>
        <time>2011-09-02T15:48:42Z</time>
      </trkpt>
      <trkpt lat="45.55166" lon="5.92764">
        <ele>438.5</ele>
        <time>2011-09-02T15:48:44Z</time>
      </trkpt>
      <trkpt lat="45.55162" lon="5.92767">
        <ele>438.02</ele>
        <time>2011-09-02T15:48:45Z</time>
      </trkpt>
      <trkpt lat="45.55159" lon="5.9277">
        <ele>437.06</ele>
        <time>2011-09-02T15:48:46Z</time>
      </trkpt>
      <trkpt lat="45.55149" lon="5.92778">
        <ele>435.13</ele>
        <time>2011-09-02T15:48:49Z</time>
      </trkpt>
      <trkpt lat="45.55145" lon="5.9278">
        <ele>434.17</ele>
        <time>2011-09-02T15:48:50Z</time>
      </trkpt>
      <trkpt lat="45.55142" lon="5.92783">
        <ele>433.69</ele>
        <time>2011-09-02T15:48:51Z</time>
      </trkpt>
      <trkpt lat="45.55138" lon="5.92786">
        <ele>433.21</ele>
        <time>2011-09-02T15:48:52Z</time>
      </trkpt>
      <trkpt lat="45.55133" lon="5.92792">
        <ele>431.77</ele>
        <time>2011-09-02T15:48:53Z</time>
      </trkpt>
      <trkpt lat="45.55127" lon="5.92798">
        <ele>431.29</ele>
        <time>2011-09-02T15:48:54Z</time>
      </trkpt>
      <trkpt lat="45.55121" lon="5.92804">
        <ele>430.81</ele>
        <time>2011-09-02T15:48:55Z</time>
      </trkpt>
      <trkpt lat="45.55115" lon="5.9281">
        <ele>429.37</ele>
        <time>2011-09-02T15:48:56Z</time>
      </trkpt>
      <trkpt lat="45.55108" lon="5.92815">
        <ele>428.4</ele>
        <time>2011-09-02T15:48:57Z</time>
      </trkpt>
      <trkpt lat="45.55089" lon="5.92828">
        <ele>426.48</ele>
        <time>2011-09-02T15:49:00Z</time>
      </trkpt>
      <trkpt lat="45.5507" lon="5.9284">
        <ele>424.56</ele>
        <time>2011-09-02T15:49:03Z</time>
      </trkpt>
      <trkpt lat="45.55064" lon="5.92842">
        <ele>424.56</ele>
        <time>2011-09-02T15:49:04Z</time>
      </trkpt>
      <trkpt lat="45.55059" lon="5.92845">
        <ele>424.08</ele>
        <time>2011-09-02T15:49:05Z</time>
      </trkpt>
      <trkpt lat="45.55054" lon="5.92848">
        <ele>423.12</ele>
        <time>2011-09-02T15:49:06Z</time>
      </trkpt>
      <trkpt lat="45.5505" lon="5.92853">
        <ele>422.64</ele>
        <time>2011-09-02T15:49:07Z</time>
      </trkpt>
      <trkpt lat="45.55047" lon="5.92858">
        <ele>421.68</ele>
        <time>2011-09-02T15:49:08Z</time>
      </trkpt>
      <trkpt lat="45.55045" lon="5.92864">
        <ele>421.68</ele>
        <time>2011-09-02T15:49:09Z</time>
      </trkpt>
      <trkpt lat="45.55038" lon="5.92873">
        <ele>420.23</ele>
        <time>2011-09-02T15:49:11Z</time>
      </trkpt>
      <trkpt lat="45.55034" lon="5.92878">
        <ele>419.27</ele>
        <time>2011-09-02T15:49:12Z</time>
      </trkpt>
      <trkpt lat="45.55029" lon="5.92882">
        <ele>418.31</ele>
        <time>2011-09-02T15:49:13Z</time>
      </trkpt>
      <trkpt lat="45.55021" lon="5.92896">
        <ele>417.83</ele>
        <time>2011-09-02T15:49:16Z</time>
      </trkpt>
      <trkpt lat="45.55021" lon="5.92905">
        <ele>417.35</ele>
        <time>2011-09-02T15:49:18Z</time>
      </trkpt>
      <trkpt lat="45.55027" lon="5.9291">
        <ele>416.39</ele>
        <time>2011-09-02T15:49:23Z</time>
      </trkpt>
      <trkpt lat="45.55039" lon="5.92915">
        <ele>414.95</ele>
        <time>2011-09-02T15:49:29Z</time>
      </trkpt>
      <trkpt lat="45.55042" lon="5.92916">
        <ele>413.98</ele>
        <time>2011-09-02T15:49:30Z</time>
      </trkpt>
      <trkpt lat="45.55052" lon="5.9292">
        <ele>412.54</ele>
        <time>2011-09-02T15:49:33Z</time>
      </trkpt>
      <trkpt lat="45.55056" lon="5.92924">
        <ele>411.58</ele>
        <time>2011-09-02T15:49:34Z</time>
      </trkpt>
      <trkpt lat="45.55058" lon="5.9293">
        <ele>411.58</ele>
        <time>2011-09-02T15:49:35Z</time>
      </trkpt>
      <trkpt lat="45.55074" lon="5.92954">
        <ele>411.58</ele>
        <time>2011-09-02T15:49:40Z</time>
      </trkpt>
      <trkpt lat="45.55117" lon="5.93015">
        <ele>410.14</ele>
        <time>2011-09-02T15:49:50Z</time>
      </trkpt>
      <trkpt lat="45.5517" lon="5.9308">
        <ele>412.06</ele>
        <time>2011-09-02T15:50:00Z</time>
      </trkpt>
      <trkpt lat="45.55174" lon="5.93085">
        <ele>413.02</ele>
        <time>2011-09-02T15:50:01Z</time>
      </trkpt>
      <trkpt lat="45.55179" lon="5.93088">
        <ele>412.54</ele>
        <time>2011-09-02T15:50:02Z</time>
      </trkpt>
      <trkpt lat="45.55193" lon="5.93097">
        <ele>413.5</ele>
        <time>2011-09-02T15:50:04Z</time>
      </trkpt>
      <trkpt lat="45.55204" lon="5.93107">
        <ele>413.98</ele>
        <time>2011-09-02T15:50:06Z</time>
      </trkpt>
      <trkpt lat="45.55208" lon="5.93113">
        <ele>413.98</ele>
        <time>2011-09-02T15:50:07Z</time>
      </trkpt>
      <trkpt lat="45.5522" lon="5.93129">
        <ele>416.39</ele>
        <time>2011-09-02T15:50:11Z</time>
      </trkpt>
      <trkpt lat="45.55223" lon="5.93133">
        <ele>416.87</ele>
        <time>2011-09-02T15:50:12Z</time>
      </trkpt>
      <trkpt lat="45.55226" lon="5.93136">
        <ele>416.87</ele>
        <time>2011-09-02T15:50:13Z</time>
      </trkpt>
      <trkpt lat="45.55243" lon="5.93163">
        <ele>418.79</ele>
        <time>2011-09-02T15:50:22Z</time>
      </trkpt>
      <trkpt lat="45.55259" lon="5.93191">
        <ele>420.71</ele>
        <time>2011-09-02T15:50:33Z</time>
      </trkpt>
      <trkpt lat="45.55281" lon="5.93236">
        <ele>420.71</ele>
        <time>2011-09-02T15:50:46Z</time>
      </trkpt>
      <trkpt lat="45.55298" lon="5.93267">
        <ele>420.23</ele>
        <time>2011-09-02T15:50:53Z</time>
      </trkpt>
      <trkpt lat="45.553" lon="5.93273">
        <ele>420.23</ele>
        <time>2011-09-02T15:50:54Z</time>
      </trkpt>
      <trkpt lat="45.55301" lon="5.93279">
        <ele>419.75</ele>
        <time>2011-09-02T15:50:55Z</time>
      </trkpt>
      <trkpt lat="45.55302" lon="5.93284">
        <ele>420.23</ele>
        <time>2011-09-02T15:50:56Z</time>
      </trkpt>
      <trkpt lat="45.55302" lon="5.9329">
        <ele>419.75</ele>
        <time>2011-09-02T15:50:57Z</time>
      </trkpt>
      <trkpt lat="45.55302" lon="5.93296">
        <ele>419.27</ele>
        <time>2011-09-02T15:50:58Z</time>
      </trkpt>
      <trkpt lat="45.553" lon="5.93337">
        <ele>422.16</ele>
        <time>2011-09-02T15:51:07Z</time>
      </trkpt>
      <trkpt lat="45.553" lon="5.93379">
        <ele>421.68</ele>
        <time>2011-09-02T15:51:15Z</time>
      </trkpt>
      <trkpt lat="45.55306" lon="5.93423">
        <ele>421.19</ele>
        <time>2011-09-02T15:51:28Z</time>
      </trkpt>
      <trkpt lat="45.55306" lon="5.93422">
        <ele>421.19</ele>
        <time>2011-09-02T15:51:45Z</time>
      </trkpt>
      <trkpt lat="45.55306" lon="5.93422">
        <ele>421.68</ele>
        <time>2011-09-02T15:52:20Z</time>
      </trkpt>
      <trkpt lat="45.55306" lon="5.93422">
        <ele>421.19</ele>
        <time>2011-09-02T15:52:40Z</time>
      </trkpt>
      <trkpt lat="45.55305" lon="5.93422">
        <ele>421.19</ele>
        <time>2011-09-02T15:52:52Z</time>
      </trkpt>
      <trkpt lat="45.55306" lon="5.93425">
        <ele>420.71</ele>
        <time>2011-09-02T15:52:54Z</time>
      </trkpt>
      <trkpt lat="45.5531" lon="5.9345">
        <ele>419.27</ele>
        <time>2011-09-02T15:53:03Z</time>
      </trkpt>
      <trkpt lat="45.55319" lon="5.93494">
        <ele>415.43</ele>
        <time>2011-09-02T15:53:16Z</time>
      </trkpt>
      <trkpt lat="45.55315" lon="5.93508">
        <ele>415.43</ele>
        <time>2011-09-02T15:53:23Z</time>
      </trkpt>
      <trkpt lat="45.55298" lon="5.93499">
        <ele>417.35</ele>
        <time>2011-09-02T15:53:31Z</time>
      </trkpt>
      <trkpt lat="45.55279" lon="5.9349">
        <ele>420.23</ele>
        <time>2011-09-02T15:53:44Z</time>
      </trkpt>
      <trkpt lat="45.55275" lon="5.93489">
        <ele>420.71</ele>
        <time>2011-09-02T15:53:47Z</time>
      </trkpt>
      <trkpt lat="45.5527" lon="5.93482">
        <ele>422.64</ele>
        <time>2011-09-02T15:53:53Z</time>
      </trkpt>
      <trkpt lat="45.55267" lon="5.93475">
        <ele>423.6</ele>
        <time>2011-09-02T15:53:57Z</time>
      </trkpt>
      <trkpt lat="45.55251" lon="5.9346">
        <ele>426.96</ele>
        <time>2011-09-02T15:54:11Z</time>
      </trkpt>
      <trkpt lat="45.55246" lon="5.93458">
        <ele>428.4</ele>
        <time>2011-09-02T15:54:16Z</time>
      </trkpt>
      <trkpt lat="45.55229" lon="5.9345">
        <ele>431.77</ele>
        <time>2011-09-02T15:54:29Z</time>
      </trkpt>
      <trkpt lat="45.55211" lon="5.93446">
        <ele>435.61</ele>
        <time>2011-09-02T15:54:43Z</time>
      </trkpt>
      <trkpt lat="45.5521" lon="5.93445">
        <ele>436.1</ele>
        <time>2011-09-02T15:54:45Z</time>
      </trkpt>
      <trkpt lat="45.55205" lon="5.93449">
        <ele>436.1</ele>
        <time>2011-09-02T15:54:49Z</time>
      </trkpt>
      <trkpt lat="45.55188" lon="5.93451">
        <ele>438.02</ele>
        <time>2011-09-02T15:55:02Z</time>
      </trkpt>
      <trkpt lat="45.55182" lon="5.93448">
        <ele>439.94</ele>
        <time>2011-09-02T15:55:08Z</time>
      </trkpt>
      <trkpt lat="45.55166" lon="5.9344">
        <ele>442.82</ele>
        <time>2011-09-02T15:55:21Z</time>
      </trkpt>
      <trkpt lat="45.55152" lon="5.93429">
        <ele>445.23</ele>
        <time>2011-09-02T15:55:33Z</time>
      </trkpt>
      <trkpt lat="45.5514" lon="5.93401">
        <ele>448.11</ele>
        <time>2011-09-02T15:55:50Z</time>
      </trkpt>
      <trkpt lat="45.55136" lon="5.93396">
        <ele>449.55</ele>
        <time>2011-09-02T15:55:54Z</time>
      </trkpt>
      <trkpt lat="45.55111" lon="5.93403">
        <ele>451</ele>
        <time>2011-09-02T15:56:09Z</time>
      </trkpt>
      <trkpt lat="45.551" lon="5.93407">
        <ele>451.96</ele>
        <time>2011-09-02T15:56:17Z</time>
      </trkpt>
      <trkpt lat="45.55091" lon="5.93406">
        <ele>453.4</ele>
        <time>2011-09-02T15:56:31Z</time>
      </trkpt>
      <trkpt lat="45.55082" lon="5.93407">
        <ele>456.28</ele>
        <time>2011-09-02T15:56:45Z</time>
      </trkpt>
      <trkpt lat="45.55073" lon="5.93402">
        <ele>459.65</ele>
        <time>2011-09-02T15:56:58Z</time>
      </trkpt>
      <trkpt lat="45.55064" lon="5.93402">
        <ele>461.57</ele>
        <time>2011-09-02T15:57:13Z</time>
      </trkpt>
      <trkpt lat="45.55063" lon="5.934">
        <ele>461.57</ele>
        <time>2011-09-02T15:57:31Z</time>
      </trkpt>
      <trkpt lat="45.55063" lon="5.934">
        <ele>461.09</ele>
        <time>2011-09-02T15:57:59Z</time>
      </trkpt>
      <trkpt lat="45.55059" lon="5.93401">
        <ele>461.57</ele>
        <time>2011-09-02T15:58:16Z</time>
      </trkpt>
      <trkpt lat="45.55058" lon="5.93401">
        <ele>460.61</ele>
        <time>2011-09-02T15:58:31Z</time>
      </trkpt>
      <trkpt lat="45.55052" lon="5.93402">
        <ele>461.09</ele>
        <time>2011-09-02T15:58:33Z</time>
      </trkpt>
      <trkpt lat="45.55034" lon="5.93411">
        <ele>460.13</ele>
        <time>2011-09-02T15:58:39Z</time>
      </trkpt>
      <trkpt lat="45.55013" lon="5.93425">
        <ele>457.24</ele>
        <time>2011-09-02T15:58:45Z</time>
      </trkpt>
      <trkpt lat="45.55009" lon="5.93427">
        <ele>457.24</ele>
        <time>2011-09-02T15:58:46Z</time>
      </trkpt>
      <trkpt lat="45.54998" lon="5.93429">
        <ele>456.28</ele>
        <time>2011-09-02T15:58:48Z</time>
      </trkpt>
      <trkpt lat="45.54945" lon="5.93443">
        <ele>456.28</ele>
        <time>2011-09-02T15:58:59Z</time>
      </trkpt>
      <trkpt lat="45.54905" lon="5.93454">
        <ele>454.36</ele>
        <time>2011-09-02T15:59:11Z</time>
      </trkpt>
      <trkpt lat="45.54863" lon="5.93486">
        <ele>451.48</ele>
        <time>2011-09-02T15:59:23Z</time>
      </trkpt>
      <trkpt lat="45.54858" lon="5.93492">
        <ele>450.52</ele>
        <time>2011-09-02T15:59:25Z</time>
      </trkpt>
      <trkpt lat="45.54841" lon="5.93516">
        <ele>447.15</ele>
        <time>2011-09-02T15:59:30Z</time>
      </trkpt>
      <trkpt lat="45.54823" lon="5.93535">
        <ele>444.27</ele>
        <time>2011-09-02T15:59:34Z</time>
      </trkpt>
      <trkpt lat="45.54805" lon="5.93558">
        <ele>440.42</ele>
        <time>2011-09-02T15:59:38Z</time>
      </trkpt>
      <trkpt lat="45.54797" lon="5.9357">
        <ele>439.46</ele>
        <time>2011-09-02T15:59:40Z</time>
      </trkpt>
      <trkpt lat="45.54794" lon="5.93577">
        <ele>438.5</ele>
        <time>2011-09-02T15:59:41Z</time>
      </trkpt>
      <trkpt lat="45.54778" lon="5.93605">
        <ele>434.65</ele>
        <time>2011-09-02T15:59:45Z</time>
      </trkpt>
      <trkpt lat="45.54768" lon="5.93617">
        <ele>433.21</ele>
        <time>2011-09-02T15:59:47Z</time>
      </trkpt>
      <trkpt lat="45.54763" lon="5.93624">
        <ele>431.29</ele>
        <time>2011-09-02T15:59:48Z</time>
      </trkpt>
      <trkpt lat="45.5476" lon="5.9363">
        <ele>430.33</ele>
        <time>2011-09-02T15:59:49Z</time>
      </trkpt>
      <trkpt lat="45.54758" lon="5.93637">
        <ele>428.89</ele>
        <time>2011-09-02T15:59:50Z</time>
      </trkpt>
      <trkpt lat="45.54754" lon="5.93646">
        <ele>427.92</ele>
        <time>2011-09-02T15:59:52Z</time>
      </trkpt>
      <trkpt lat="45.54751" lon="5.93647">
        <ele>427.44</ele>
        <time>2011-09-02T15:59:53Z</time>
      </trkpt>
      <trkpt lat="45.54747" lon="5.93648">
        <ele>426.48</ele>
        <time>2011-09-02T15:59:54Z</time>
      </trkpt>
      <trkpt lat="45.54744" lon="5.93649">
        <ele>426.48</ele>
        <time>2011-09-02T15:59:55Z</time>
      </trkpt>
      <trkpt lat="45.5474" lon="5.93649">
        <ele>426</ele>
        <time>2011-09-02T15:59:56Z</time>
      </trkpt>
      <trkpt lat="45.54736" lon="5.93649">
        <ele>426</ele>
        <time>2011-09-02T15:59:57Z</time>
      </trkpt>
      <trkpt lat="45.54732" lon="5.93648">
        <ele>426</ele>
        <time>2011-09-02T15:59:58Z</time>
      </trkpt>
      <trkpt lat="45.54729" lon="5.93646">
        <ele>426</ele>
        <time>2011-09-02T15:59:59Z</time>
      </trkpt>
      <trkpt lat="45.54683" lon="5.93644">
        <ele>426.96</ele>
        <time>2011-09-02T16:00:12Z</time>
      </trkpt>
      <trkpt lat="45.54639" lon="5.93635">
        <ele>428.4</ele>
        <time>2011-09-02T16:00:25Z</time>
      </trkpt>
      <trkpt lat="45.54605" lon="5.93628">
        <ele>430.33</ele>
        <time>2011-09-02T16:00:38Z</time>
      </trkpt>
      <trkpt lat="45.54572" lon="5.93622">
        <ele>432.73</ele>
        <time>2011-09-02T16:00:50Z</time>
      </trkpt>
      <trkpt lat="45.54543" lon="5.93617">
        <ele>435.13</ele>
        <time>2011-09-02T16:01:03Z</time>
      </trkpt>
      <trkpt lat="45.54506" lon="5.93612">
        <ele>438.5</ele>
        <time>2011-09-02T16:01:19Z</time>
      </trkpt>
      <trkpt lat="45.54472" lon="5.93605">
        <ele>441.38</ele>
        <time>2011-09-02T16:01:35Z</time>
      </trkpt>
      <trkpt lat="45.54449" lon="5.93593">
        <ele>443.79</ele>
        <time>2011-09-02T16:01:48Z</time>
      </trkpt>
      <trkpt lat="45.54421" lon="5.93575">
        <ele>446.19</ele>
        <time>2011-09-02T16:02:04Z</time>
      </trkpt>
      <trkpt lat="45.54401" lon="5.93561">
        <ele>448.59</ele>
        <time>2011-09-02T16:02:17Z</time>
      </trkpt>
      <trkpt lat="45.54373" lon="5.93556">
        <ele>450.03</ele>
        <time>2011-09-02T16:02:30Z</time>
      </trkpt>
      <trkpt lat="45.5434" lon="5.93552">
        <ele>451.96</ele>
        <time>2011-09-02T16:02:45Z</time>
      </trkpt>
      <trkpt lat="45.54308" lon="5.93545">
        <ele>455.8</ele>
        <time>2011-09-02T16:03:01Z</time>
      </trkpt>
      <trkpt lat="45.54277" lon="5.93538">
        <ele>458.21</ele>
        <time>2011-09-02T16:03:17Z</time>
      </trkpt>
      <trkpt lat="45.54259" lon="5.93531">
        <ele>460.13</ele>
        <time>2011-09-02T16:03:27Z</time>
      </trkpt>
      <trkpt lat="45.54257" lon="5.9353">
        <ele>460.13</ele>
        <time>2011-09-02T16:03:28Z</time>
      </trkpt>
      <trkpt lat="45.54255" lon="5.93529">
        <ele>460.61</ele>
        <time>2011-09-02T16:03:29Z</time>
      </trkpt>
      <trkpt lat="45.54229" lon="5.93505">
        <ele>463.01</ele>
        <time>2011-09-02T16:03:45Z</time>
      </trkpt>
      <trkpt lat="45.54207" lon="5.93477">
        <ele>465.42</ele>
        <time>2011-09-02T16:04:00Z</time>
      </trkpt>
      <trkpt lat="45.54188" lon="5.93451">
        <ele>468.78</ele>
        <time>2011-09-02T16:04:14Z</time>
      </trkpt>
      <trkpt lat="45.54166" lon="5.93419">
        <ele>472.14</ele>
        <time>2011-09-02T16:04:30Z</time>
      </trkpt>
      <trkpt lat="45.54143" lon="5.93388">
        <ele>475.03</ele>
        <time>2011-09-02T16:04:47Z</time>
      </trkpt>
      <trkpt lat="45.54118" lon="5.93366">
        <ele>477.91</ele>
        <time>2011-09-02T16:05:03Z</time>
      </trkpt>
      <trkpt lat="45.54085" lon="5.93352">
        <ele>480.8</ele>
        <time>2011-09-02T16:05:22Z</time>
      </trkpt>
      <trkpt lat="45.54054" lon="5.9334">
        <ele>484.16</ele>
        <time>2011-09-02T16:05:40Z</time>
      </trkpt>
      <trkpt lat="45.54023" lon="5.93327">
        <ele>487.53</ele>
        <time>2011-09-02T16:05:58Z</time>
      </trkpt>
      <trkpt lat="45.53993" lon="5.93325">
        <ele>490.41</ele>
        <time>2011-09-02T16:06:16Z</time>
      </trkpt>
      <trkpt lat="45.53976" lon="5.93356">
        <ele>493.29</ele>
        <time>2011-09-02T16:06:31Z</time>
      </trkpt>
      <trkpt lat="45.53958" lon="5.93349">
        <ele>495.22</ele>
        <time>2011-09-02T16:06:44Z</time>
      </trkpt>
      <trkpt lat="45.53966" lon="5.933">
        <ele>496.66</ele>
        <time>2011-09-02T16:07:00Z</time>
      </trkpt>
      <trkpt lat="45.53987" lon="5.93267">
        <ele>499.06</ele>
        <time>2011-09-02T16:07:14Z</time>
      </trkpt>
      <trkpt lat="45.54016" lon="5.93246">
        <ele>501.95</ele>
        <time>2011-09-02T16:07:29Z</time>
      </trkpt>
      <trkpt lat="45.54042" lon="5.93242">
        <ele>503.39</ele>
        <time>2011-09-02T16:07:42Z</time>
      </trkpt>
      <trkpt lat="45.54068" lon="5.93243">
        <ele>504.83</ele>
        <time>2011-09-02T16:07:56Z</time>
      </trkpt>
      <trkpt lat="45.54068" lon="5.93234">
        <ele>506.75</ele>
        <time>2011-09-02T16:08:00Z</time>
      </trkpt>
      <trkpt lat="45.54067" lon="5.93231">
        <ele>506.75</ele>
        <time>2011-09-02T16:08:01Z</time>
      </trkpt>
      <trkpt lat="45.54065" lon="5.93229">
        <ele>506.75</ele>
        <time>2011-09-02T16:08:02Z</time>
      </trkpt>
      <trkpt lat="45.54054" lon="5.93222">
        <ele>507.23</ele>
        <time>2011-09-02T16:08:08Z</time>
      </trkpt>
      <trkpt lat="45.54051" lon="5.93221">
        <ele>507.23</ele>
        <time>2011-09-02T16:08:09Z</time>
      </trkpt>
      <trkpt lat="45.54049" lon="5.93221">
        <ele>508.19</ele>
        <time>2011-09-02T16:08:10Z</time>
      </trkpt>
      <trkpt lat="45.54017" lon="5.93209">
        <ele>511.08</ele>
        <time>2011-09-02T16:08:27Z</time>
      </trkpt>
      <trkpt lat="45.53982" lon="5.93197">
        <ele>513.48</ele>
        <time>2011-09-02T16:08:45Z</time>
      </trkpt>
      <trkpt lat="45.53957" lon="5.93179">
        <ele>516.85</ele>
        <time>2011-09-02T16:08:59Z</time>
      </trkpt>
      <trkpt lat="45.53929" lon="5.93152">
        <ele>519.25</ele>
        <time>2011-09-02T16:09:16Z</time>
      </trkpt>
      <trkpt lat="45.53907" lon="5.93132">
        <ele>522.13</ele>
        <time>2011-09-02T16:09:30Z</time>
      </trkpt>
      <trkpt lat="45.53886" lon="5.93113">
        <ele>524.54</ele>
        <time>2011-09-02T16:09:44Z</time>
      </trkpt>
      <trkpt lat="45.53862" lon="5.93087">
        <ele>527.42</ele>
        <time>2011-09-02T16:10:00Z</time>
      </trkpt>
      <trkpt lat="45.5384" lon="5.93066">
        <ele>530.3</ele>
        <time>2011-09-02T16:10:15Z</time>
      </trkpt>
      <trkpt lat="45.53838" lon="5.93066">
        <ele>530.3</ele>
        <time>2011-09-02T16:10:16Z</time>
      </trkpt>
      <trkpt lat="45.53836" lon="5.93066">
        <ele>529.82</ele>
        <time>2011-09-02T16:10:17Z</time>
      </trkpt>
      <trkpt lat="45.53811" lon="5.93085">
        <ele>533.19</ele>
        <time>2011-09-02T16:10:34Z</time>
      </trkpt>
      <trkpt lat="45.53786" lon="5.93101">
        <ele>534.63</ele>
        <time>2011-09-02T16:10:50Z</time>
      </trkpt>
      <trkpt lat="45.5378" lon="5.93081">
        <ele>536.55</ele>
        <time>2011-09-02T16:10:57Z</time>
      </trkpt>
      <trkpt lat="45.53781" lon="5.9308">
        <ele>536.55</ele>
        <time>2011-09-02T16:10:58Z</time>
      </trkpt>
      <trkpt lat="45.53783" lon="5.93078">
        <ele>536.55</ele>
        <time>2011-09-02T16:10:59Z</time>
      </trkpt>
      <trkpt lat="45.53785" lon="5.93076">
        <ele>536.55</ele>
        <time>2011-09-02T16:11:00Z</time>
      </trkpt>
      <trkpt lat="45.53787" lon="5.93075">
        <ele>536.55</ele>
        <time>2011-09-02T16:11:01Z</time>
      </trkpt>
      <trkpt lat="45.53788" lon="5.93073">
        <ele>536.55</ele>
        <time>2011-09-02T16:11:02Z</time>
      </trkpt>
      <trkpt lat="45.53806" lon="5.93036">
        <ele>538.48</ele>
        <time>2011-09-02T16:11:16Z</time>
      </trkpt>
      <trkpt lat="45.53824" lon="5.93003">
        <ele>540.4</ele>
        <time>2011-09-02T16:11:31Z</time>
      </trkpt>
      <trkpt lat="45.53853" lon="5.92985">
        <ele>543.28</ele>
        <time>2011-09-02T16:11:48Z</time>
      </trkpt>
      <trkpt lat="45.53887" lon="5.92972">
        <ele>546.17</ele>
        <time>2011-09-02T16:12:06Z</time>
      </trkpt>
      <trkpt lat="45.53923" lon="5.92973">
        <ele>549.53</ele>
        <time>2011-09-02T16:12:23Z</time>
      </trkpt>
      <trkpt lat="45.53962" lon="5.92962">
        <ele>551.93</ele>
        <time>2011-09-02T16:12:42Z</time>
      </trkpt>
      <trkpt lat="45.53998" lon="5.92963">
        <ele>554.82</ele>
        <time>2011-09-02T16:13:00Z</time>
      </trkpt>
      <trkpt lat="45.54025" lon="5.92954">
        <ele>556.26</ele>
        <time>2011-09-02T16:13:15Z</time>
      </trkpt>
      <trkpt lat="45.54019" lon="5.92918">
        <ele>557.7</ele>
        <time>2011-09-02T16:13:28Z</time>
      </trkpt>
      <trkpt lat="45.53989" lon="5.9291">
        <ele>560.11</ele>
        <time>2011-09-02T16:13:43Z</time>
      </trkpt>
      <trkpt lat="45.53959" lon="5.92905">
        <ele>562.99</ele>
        <time>2011-09-02T16:13:58Z</time>
      </trkpt>
      <trkpt lat="45.53926" lon="5.9289">
        <ele>565.87</ele>
        <time>2011-09-02T16:14:15Z</time>
      </trkpt>
      <trkpt lat="45.53899" lon="5.92875">
        <ele>569.24</ele>
        <time>2011-09-02T16:14:30Z</time>
      </trkpt>
      <trkpt lat="45.53871" lon="5.92856">
        <ele>571.64</ele>
        <time>2011-09-02T16:14:47Z</time>
      </trkpt>
      <trkpt lat="45.5384" lon="5.92846">
        <ele>574.04</ele>
        <time>2011-09-02T16:15:03Z</time>
      </trkpt>
      <trkpt lat="45.53806" lon="5.92838">
        <ele>576.93</ele>
        <time>2011-09-02T16:15:22Z</time>
      </trkpt>
      <trkpt lat="45.53774" lon="5.92829">
        <ele>579.81</ele>
        <time>2011-09-02T16:15:39Z</time>
      </trkpt>
      <trkpt lat="45.53746" lon="5.92818">
        <ele>582.7</ele>
        <time>2011-09-02T16:15:54Z</time>
      </trkpt>
      <trkpt lat="45.53712" lon="5.92807">
        <ele>585.58</ele>
        <time>2011-09-02T16:16:12Z</time>
      </trkpt>
      <trkpt lat="45.5368" lon="5.92797">
        <ele>588.95</ele>
        <time>2011-09-02T16:16:29Z</time>
      </trkpt>
      <trkpt lat="45.53649" lon="5.92793">
        <ele>591.35</ele>
        <time>2011-09-02T16:16:44Z</time>
      </trkpt>
      <trkpt lat="45.53619" lon="5.92793">
        <ele>594.71</ele>
        <time>2011-09-02T16:16:59Z</time>
      </trkpt>
      <trkpt lat="45.53583" lon="5.92793">
        <ele>595.67</ele>
        <time>2011-09-02T16:17:15Z</time>
      </trkpt>
      <trkpt lat="45.53533" lon="5.92801">
        <ele>597.12</ele>
        <time>2011-09-02T16:17:32Z</time>
      </trkpt>
      <trkpt lat="45.53491" lon="5.92826">
        <ele>598.08</ele>
        <time>2011-09-02T16:17:45Z</time>
      </trkpt>
      <trkpt lat="45.53421" lon="5.92833">
        <ele>599.04</ele>
        <time>2011-09-02T16:18:01Z</time>
      </trkpt>
      <trkpt lat="45.53388" lon="5.92846">
        <ele>598.56</ele>
        <time>2011-09-02T16:18:09Z</time>
      </trkpt>
      <trkpt lat="45.53321" lon="5.92856">
        <ele>597.6</ele>
        <time>2011-09-02T16:18:20Z</time>
      </trkpt>
      <trkpt lat="45.53281" lon="5.92862">
        <ele>599.52</ele>
        <time>2011-09-02T16:18:29Z</time>
      </trkpt>
      <trkpt lat="45.53267" lon="5.92861">
        <ele>599.52</ele>
        <time>2011-09-02T16:18:32Z</time>
      </trkpt>
      <trkpt lat="45.53262" lon="5.92861">
        <ele>599.52</ele>
        <time>2011-09-02T16:18:33Z</time>
      </trkpt>
      <trkpt lat="45.53257" lon="5.92861">
        <ele>600</ele>
        <time>2011-09-02T16:18:34Z</time>
      </trkpt>
      <trkpt lat="45.53186" lon="5.92852">
        <ele>598.56</ele>
        <time>2011-09-02T16:18:47Z</time>
      </trkpt>
      <trkpt lat="45.53134" lon="5.92825">
        <ele>598.08</ele>
        <time>2011-09-02T16:18:56Z</time>
      </trkpt>
      <trkpt lat="45.53066" lon="5.92779">
        <ele>598.08</ele>
        <time>2011-09-02T16:19:09Z</time>
      </trkpt>
      <trkpt lat="45.52986" lon="5.9273">
        <ele>600</ele>
        <time>2011-09-02T16:19:26Z</time>
      </trkpt>
      <trkpt lat="45.52943" lon="5.92709">
        <ele>601.92</ele>
        <time>2011-09-02T16:19:39Z</time>
      </trkpt>
      <trkpt lat="45.52902" lon="5.92697">
        <ele>603.85</ele>
        <time>2011-09-02T16:19:53Z</time>
      </trkpt>
      <trkpt lat="45.5286" lon="5.92685">
        <ele>606.25</ele>
        <time>2011-09-02T16:20:10Z</time>
      </trkpt>
      <trkpt lat="45.52823" lon="5.92661">
        <ele>608.17</ele>
        <time>2011-09-02T16:20:26Z</time>
      </trkpt>
      <trkpt lat="45.5279" lon="5.92641">
        <ele>610.57</ele>
        <time>2011-09-02T16:20:41Z</time>
      </trkpt>
      <trkpt lat="45.52751" lon="5.92626">
        <ele>612.02</ele>
        <time>2011-09-02T16:20:56Z</time>
      </trkpt>
      <trkpt lat="45.52706" lon="5.926">
        <ele>614.9</ele>
        <time>2011-09-02T16:21:15Z</time>
      </trkpt>
      <trkpt lat="45.5267" lon="5.92583">
        <ele>617.78</ele>
        <time>2011-09-02T16:21:31Z</time>
      </trkpt>
      <trkpt lat="45.52642" lon="5.92572">
        <ele>621.15</ele>
        <time>2011-09-02T16:21:44Z</time>
      </trkpt>
      <trkpt lat="45.52615" lon="5.92561">
        <ele>624.03</ele>
        <time>2011-09-02T16:21:57Z</time>
      </trkpt>
      <trkpt lat="45.52585" lon="5.92554">
        <ele>626.44</ele>
        <time>2011-09-02T16:22:12Z</time>
      </trkpt>
      <trkpt lat="45.52547" lon="5.9255">
        <ele>628.84</ele>
        <time>2011-09-02T16:22:30Z</time>
      </trkpt>
      <trkpt lat="45.52515" lon="5.92544">
        <ele>632.2</ele>
        <time>2011-09-02T16:22:48Z</time>
      </trkpt>
      <trkpt lat="45.5249" lon="5.92536">
        <ele>634.61</ele>
        <time>2011-09-02T16:23:02Z</time>
      </trkpt>
      <trkpt lat="45.52461" lon="5.92526">
        <ele>637.49</ele>
        <time>2011-09-02T16:23:18Z</time>
      </trkpt>
      <trkpt lat="45.5245" lon="5.92524">
        <ele>638.45</ele>
        <time>2011-09-02T16:23:24Z</time>
      </trkpt>
      <trkpt lat="45.52417" lon="5.92527">
        <ele>641.82</ele>
        <time>2011-09-02T16:23:41Z</time>
      </trkpt>
      <trkpt lat="45.52383" lon="5.92527">
        <ele>642.78</ele>
        <time>2011-09-02T16:23:56Z</time>
      </trkpt>
      <trkpt lat="45.52332" lon="5.92524">
        <ele>644.7</ele>
        <time>2011-09-02T16:24:13Z</time>
      </trkpt>
      <trkpt lat="45.52288" lon="5.92522">
        <ele>646.14</ele>
        <time>2011-09-02T16:24:30Z</time>
      </trkpt>
      <trkpt lat="45.52253" lon="5.92521">
        <ele>648.07</ele>
        <time>2011-09-02T16:24:45Z</time>
      </trkpt>
      <trkpt lat="45.52227" lon="5.92494">
        <ele>648.55</ele>
        <time>2011-09-02T16:24:58Z</time>
      </trkpt>
      <trkpt lat="45.52207" lon="5.92458">
        <ele>650.47</ele>
        <time>2011-09-02T16:25:12Z</time>
      </trkpt>
      <trkpt lat="45.52188" lon="5.92435">
        <ele>653.83</ele>
        <time>2011-09-02T16:25:25Z</time>
      </trkpt>
      <trkpt lat="45.52183" lon="5.92429">
        <ele>654.31</ele>
        <time>2011-09-02T16:25:29Z</time>
      </trkpt>
      <trkpt lat="45.52163" lon="5.92408">
        <ele>657.2</ele>
        <time>2011-09-02T16:25:45Z</time>
      </trkpt>
      <trkpt lat="45.52142" lon="5.92397">
        <ele>659.12</ele>
        <time>2011-09-02T16:25:59Z</time>
      </trkpt>
      <trkpt lat="45.52121" lon="5.92388">
        <ele>662.01</ele>
        <time>2011-09-02T16:26:13Z</time>
      </trkpt>
      <trkpt lat="45.52099" lon="5.92385">
        <ele>664.89</ele>
        <time>2011-09-02T16:26:28Z</time>
      </trkpt>
      <trkpt lat="45.52079" lon="5.92383">
        <ele>667.77</ele>
        <time>2011-09-02T16:26:42Z</time>
      </trkpt>
      <trkpt lat="45.52049" lon="5.9238">
        <ele>671.14</ele>
        <time>2011-09-02T16:27:02Z</time>
      </trkpt>
      <trkpt lat="45.52021" lon="5.92379">
        <ele>674.5</ele>
        <time>2011-09-02T16:27:20Z</time>
      </trkpt>
      <trkpt lat="45.51997" lon="5.92375">
        <ele>676.91</ele>
        <time>2011-09-02T16:27:35Z</time>
      </trkpt>
      <trkpt lat="45.51965" lon="5.92373">
        <ele>679.79</ele>
        <time>2011-09-02T16:27:53Z</time>
      </trkpt>
      <trkpt lat="45.51958" lon="5.92374">
        <ele>679.79</ele>
        <time>2011-09-02T16:27:57Z</time>
      </trkpt>
      <trkpt lat="45.51957" lon="5.92374">
        <ele>679.79</ele>
        <time>2011-09-02T16:27:58Z</time>
      </trkpt>
      <trkpt lat="45.51934" lon="5.92378">
        <ele>681.71</ele>
        <time>2011-09-02T16:28:11Z</time>
      </trkpt>
      <trkpt lat="45.51901" lon="5.9239">
        <ele>684.6</ele>
        <time>2011-09-02T16:28:29Z</time>
      </trkpt>
      <trkpt lat="45.51899" lon="5.92391">
        <ele>685.08</ele>
        <time>2011-09-02T16:28:30Z</time>
      </trkpt>
      <trkpt lat="45.51865" lon="5.92398">
        <ele>686.52</ele>
        <time>2011-09-02T16:28:45Z</time>
      </trkpt>
      <trkpt lat="45.51836" lon="5.92401">
        <ele>688.44</ele>
        <time>2011-09-02T16:28:59Z</time>
      </trkpt>
      <trkpt lat="45.51811" lon="5.92404">
        <ele>691.33</ele>
        <time>2011-09-02T16:29:12Z</time>
      </trkpt>
      <trkpt lat="45.51777" lon="5.92402">
        <ele>692.29</ele>
        <time>2011-09-02T16:29:28Z</time>
      </trkpt>
      <trkpt lat="45.51734" lon="5.92389">
        <ele>693.73</ele>
        <time>2011-09-02T16:29:46Z</time>
      </trkpt>
      <trkpt lat="45.51701" lon="5.92366">
        <ele>695.17</ele>
        <time>2011-09-02T16:30:00Z</time>
      </trkpt>
      <trkpt lat="45.51653" lon="5.92322">
        <ele>695.65</ele>
        <time>2011-09-02T16:30:15Z</time>
      </trkpt>
      <trkpt lat="45.51613" lon="5.92275">
        <ele>695.17</ele>
        <time>2011-09-02T16:30:27Z</time>
      </trkpt>
      <trkpt lat="45.51583" lon="5.9223">
        <ele>694.21</ele>
        <time>2011-09-02T16:30:36Z</time>
      </trkpt>
      <trkpt lat="45.51579" lon="5.92226">
        <ele>693.25</ele>
        <time>2011-09-02T16:30:37Z</time>
      </trkpt>
      <trkpt lat="45.51521" lon="5.92183">
        <ele>696.13</ele>
        <time>2011-09-02T16:30:52Z</time>
      </trkpt>
      <trkpt lat="45.51491" lon="5.92174">
        <ele>697.57</ele>
        <time>2011-09-02T16:31:05Z</time>
      </trkpt>
      <trkpt lat="45.51463" lon="5.92158">
        <ele>699.5</ele>
        <time>2011-09-02T16:31:18Z</time>
      </trkpt>
      <trkpt lat="45.51452" lon="5.92129">
        <ele>700.94</ele>
        <time>2011-09-02T16:31:30Z</time>
      </trkpt>
      <trkpt lat="45.51443" lon="5.92093">
        <ele>702.86</ele>
        <time>2011-09-02T16:31:42Z</time>
      </trkpt>
      <trkpt lat="45.51428" lon="5.92063">
        <ele>703.82</ele>
        <time>2011-09-02T16:31:52Z</time>
      </trkpt>
      <trkpt lat="45.51424" lon="5.92059">
        <ele>704.78</ele>
        <time>2011-09-02T16:32:05Z</time>
      </trkpt>
      <trkpt lat="45.51424" lon="5.92059">
        <ele>705.26</ele>
        <time>2011-09-02T16:32:32Z</time>
      </trkpt>
      <trkpt lat="45.51424" lon="5.92058">
        <ele>704.3</ele>
        <time>2011-09-02T16:32:52Z</time>
      </trkpt>
      <trkpt lat="45.51424" lon="5.92058">
        <ele>704.3</ele>
        <time>2011-09-02T16:33:23Z</time>
      </trkpt>
      <trkpt lat="45.51424" lon="5.92058">
        <ele>704.78</ele>
        <time>2011-09-02T16:33:54Z</time>
      </trkpt>
      <trkpt lat="45.51424" lon="5.92059">
        <ele>705.26</ele>
        <time>2011-09-02T16:34:23Z</time>
      </trkpt>
      <trkpt lat="45.51424" lon="5.9206">
        <ele>704.78</ele>
        <time>2011-09-02T16:34:55Z</time>
      </trkpt>
      <trkpt lat="45.51425" lon="5.9206">
        <ele>705.26</ele>
        <time>2011-09-02T16:35:28Z</time>
      </trkpt>
      <trkpt lat="45.51425" lon="5.9206">
        <ele>705.26</ele>
        <time>2011-09-02T16:35:59Z</time>
      </trkpt>
      <trkpt lat="45.51425" lon="5.9206">
        <ele>705.75</ele>
        <time>2011-09-02T16:36:31Z</time>
      </trkpt>
      <trkpt lat="45.51424" lon="5.9206">
        <ele>705.75</ele>
        <time>2011-09-02T16:36:40Z</time>
      </trkpt>
      <trkpt lat="45.51424" lon="5.92061">
        <ele>705.75</ele>
        <time>2011-09-02T16:36:41Z</time>
      </trkpt>
      <trkpt lat="45.51423" lon="5.92063">
        <ele>705.75</ele>
        <time>2011-09-02T16:36:42Z</time>
      </trkpt>
      <trkpt lat="45.51423" lon="5.92066">
        <ele>705.75</ele>
        <time>2011-09-02T16:36:43Z</time>
      </trkpt>
      <trkpt lat="45.51424" lon="5.92071">
        <ele>705.26</ele>
        <time>2011-09-02T16:36:45Z</time>
      </trkpt>
      <trkpt lat="45.51425" lon="5.92073">
        <ele>705.26</ele>
        <time>2011-09-02T16:36:46Z</time>
      </trkpt>
      <trkpt lat="45.51426" lon="5.92075">
        <ele>706.71</ele>
        <time>2011-09-02T16:36:47Z</time>
      </trkpt>
      <trkpt lat="45.51428" lon="5.92077">
        <ele>706.23</ele>
        <time>2011-09-02T16:36:48Z</time>
      </trkpt>
      <trkpt lat="45.51429" lon="5.92079">
        <ele>706.23</ele>
        <time>2011-09-02T16:36:49Z</time>
      </trkpt>
      <trkpt lat="45.51429" lon="5.92082">
        <ele>706.71</ele>
        <time>2011-09-02T16:36:50Z</time>
      </trkpt>
      <trkpt lat="45.51441" lon="5.92126">
        <ele>708.15</ele>
        <time>2011-09-02T16:37:05Z</time>
      </trkpt>
      <trkpt lat="45.51444" lon="5.92173">
        <ele>710.07</ele>
        <time>2011-09-02T16:37:19Z</time>
      </trkpt>
      <trkpt lat="45.51457" lon="5.92222">
        <ele>711.51</ele>
        <time>2011-09-02T16:37:34Z</time>
      </trkpt>
      <trkpt lat="45.51479" lon="5.92258">
        <ele>714.4</ele>
        <time>2011-09-02T16:37:47Z</time>
      </trkpt>
      <trkpt lat="45.51507" lon="5.92292">
        <ele>716.32</ele>
        <time>2011-09-02T16:38:00Z</time>
      </trkpt>
      <trkpt lat="45.51537" lon="5.92329">
        <ele>719.2</ele>
        <time>2011-09-02T16:38:14Z</time>
      </trkpt>
      <trkpt lat="45.51566" lon="5.92366">
        <ele>722.09</ele>
        <time>2011-09-02T16:38:29Z</time>
      </trkpt>
      <trkpt lat="45.51594" lon="5.924">
        <ele>724.49</ele>
        <time>2011-09-02T16:38:43Z</time>
      </trkpt>
      <trkpt lat="45.51622" lon="5.92432">
        <ele>725.93</ele>
        <time>2011-09-02T16:38:56Z</time>
      </trkpt>
      <trkpt lat="45.51653" lon="5.92469">
        <ele>729.3</ele>
        <time>2011-09-02T16:39:12Z</time>
      </trkpt>
      <trkpt lat="45.5168" lon="5.92502">
        <ele>731.22</ele>
        <time>2011-09-02T16:39:26Z</time>
      </trkpt>
      <trkpt lat="45.51711" lon="5.92535">
        <ele>733.62</ele>
        <time>2011-09-02T16:39:40Z</time>
      </trkpt>
      <trkpt lat="45.51746" lon="5.92561">
        <ele>736.03</ele>
        <time>2011-09-02T16:39:54Z</time>
      </trkpt>
      <trkpt lat="45.51785" lon="5.92567">
        <ele>738.91</ele>
        <time>2011-09-02T16:40:08Z</time>
      </trkpt>
      <trkpt lat="45.51828" lon="5.92575">
        <ele>741.79</ele>
        <time>2011-09-02T16:40:23Z</time>
      </trkpt>
      <trkpt lat="45.51867" lon="5.92579">
        <ele>744.2</ele>
        <time>2011-09-02T16:40:37Z</time>
      </trkpt>
      <trkpt lat="45.51906" lon="5.92593">
        <ele>747.56</ele>
        <time>2011-09-02T16:40:52Z</time>
      </trkpt>
      <trkpt lat="45.51951" lon="5.9259">
        <ele>749.49</ele>
        <time>2011-09-02T16:41:07Z</time>
      </trkpt>
      <trkpt lat="45.51988" lon="5.9259">
        <ele>752.37</ele>
        <time>2011-09-02T16:41:22Z</time>
      </trkpt>
      <trkpt lat="45.52022" lon="5.92599">
        <ele>755.73</ele>
        <time>2011-09-02T16:41:37Z</time>
      </trkpt>
      <trkpt lat="45.52049" lon="5.92608">
        <ele>756.69</ele>
        <time>2011-09-02T16:41:48Z</time>
      </trkpt>
      <trkpt lat="45.5209" lon="5.92636">
        <ele>760.06</ele>
        <time>2011-09-02T16:42:04Z</time>
      </trkpt>
      <trkpt lat="45.52087" lon="5.92656">
        <ele>761.98</ele>
        <time>2011-09-02T16:42:14Z</time>
      </trkpt>
      <trkpt lat="45.52084" lon="5.92653">
        <ele>762.46</ele>
        <time>2011-09-02T16:42:16Z</time>
      </trkpt>
      <trkpt lat="45.52079" lon="5.9265">
        <ele>762.46</ele>
        <time>2011-09-02T16:42:17Z</time>
      </trkpt>
      <trkpt lat="45.5203" lon="5.92613">
        <ele>765.35</ele>
        <time>2011-09-02T16:42:33Z</time>
      </trkpt>
      <trkpt lat="45.51992" lon="5.9261">
        <ele>768.23</ele>
        <time>2011-09-02T16:42:46Z</time>
      </trkpt>
      <trkpt lat="45.51954" lon="5.9262">
        <ele>770.63</ele>
        <time>2011-09-02T16:43:00Z</time>
      </trkpt>
      <trkpt lat="45.51918" lon="5.92637">
        <ele>774</ele>
        <time>2011-09-02T16:43:15Z</time>
      </trkpt>
      <trkpt lat="45.51883" lon="5.92635">
        <ele>776.88</ele>
        <time>2011-09-02T16:43:30Z</time>
      </trkpt>
      <trkpt lat="45.51853" lon="5.92633">
        <ele>779.29</ele>
        <time>2011-09-02T16:43:43Z</time>
      </trkpt>
      <trkpt lat="45.51821" lon="5.92651">
        <ele>782.17</ele>
        <time>2011-09-02T16:43:58Z</time>
      </trkpt>
      <trkpt lat="45.51788" lon="5.92646">
        <ele>784.57</ele>
        <time>2011-09-02T16:44:12Z</time>
      </trkpt>
      <trkpt lat="45.51755" lon="5.92649">
        <ele>787.46</ele>
        <time>2011-09-02T16:44:27Z</time>
      </trkpt>
      <trkpt lat="45.51726" lon="5.92664">
        <ele>789.38</ele>
        <time>2011-09-02T16:44:41Z</time>
      </trkpt>
      <trkpt lat="45.51703" lon="5.92655">
        <ele>792.26</ele>
        <time>2011-09-02T16:44:53Z</time>
      </trkpt>
      <trkpt lat="45.51678" lon="5.92629">
        <ele>794.67</ele>
        <time>2011-09-02T16:45:09Z</time>
      </trkpt>
      <trkpt lat="45.51645" lon="5.92613">
        <ele>797.55</ele>
        <time>2011-09-02T16:45:26Z</time>
      </trkpt>
      <trkpt lat="45.51614" lon="5.92603">
        <ele>800.92</ele>
        <time>2011-09-02T16:45:42Z</time>
      </trkpt>
      <trkpt lat="45.51588" lon="5.92587">
        <ele>802.36</ele>
        <time>2011-09-02T16:45:55Z</time>
      </trkpt>
      <trkpt lat="45.51561" lon="5.9256">
        <ele>804.76</ele>
        <time>2011-09-02T16:46:11Z</time>
      </trkpt>
      <trkpt lat="45.5153" lon="5.92554">
        <ele>807.16</ele>
        <time>2011-09-02T16:46:26Z</time>
      </trkpt>
      <trkpt lat="45.51506" lon="5.92548">
        <ele>809.09</ele>
        <time>2011-09-02T16:46:40Z</time>
      </trkpt>
      <trkpt lat="45.51481" lon="5.92535">
        <ele>811.49</ele>
        <time>2011-09-02T16:46:55Z</time>
      </trkpt>
      <trkpt lat="45.51459" lon="5.92531">
        <ele>813.89</ele>
        <time>2011-09-02T16:47:07Z</time>
      </trkpt>
      <trkpt lat="45.51431" lon="5.92509">
        <ele>815.82</ele>
        <time>2011-09-02T16:47:24Z</time>
      </trkpt>
      <trkpt lat="45.51401" lon="5.92494">
        <ele>818.22</ele>
        <time>2011-09-02T16:47:39Z</time>
      </trkpt>
      <trkpt lat="45.51361" lon="5.92468">
        <ele>820.62</ele>
        <time>2011-09-02T16:47:57Z</time>
      </trkpt>
      <trkpt lat="45.51331" lon="5.92484">
        <ele>823.51</ele>
        <time>2011-09-02T16:48:11Z</time>
      </trkpt>
      <trkpt lat="45.513" lon="5.92551">
        <ele>826.87</ele>
        <time>2011-09-02T16:48:33Z</time>
      </trkpt>
      <trkpt lat="45.51286" lon="5.92585">
        <ele>828.31</ele>
        <time>2011-09-02T16:48:46Z</time>
      </trkpt>
      <trkpt lat="45.51285" lon="5.92592">
        <ele>828.31</ele>
        <time>2011-09-02T16:48:57Z</time>
      </trkpt>
      <trkpt lat="45.51285" lon="5.92593">
        <ele>828.79</ele>
        <time>2011-09-02T16:49:35Z</time>
      </trkpt>
      <trkpt lat="45.51285" lon="5.92593">
        <ele>828.79</ele>
        <time>2011-09-02T16:50:09Z</time>
      </trkpt>
      <trkpt lat="45.51284" lon="5.92593">
        <ele>828.79</ele>
        <time>2011-09-02T16:50:13Z</time>
      </trkpt>
      <trkpt lat="45.51279" lon="5.92594">
        <ele>829.27</ele>
        <time>2011-09-02T16:50:17Z</time>
      </trkpt>
      <trkpt lat="45.51292" lon="5.92592">
        <ele>830.24</ele>
        <time>2011-09-02T16:50:28Z</time>
      </trkpt>
      <trkpt lat="45.51294" lon="5.92591">
        <ele>831.2</ele>
        <time>2011-09-02T16:50:30Z</time>
      </trkpt>
      <trkpt lat="45.51298" lon="5.92595">
        <ele>830.72</ele>
        <time>2011-09-02T16:50:34Z</time>
      </trkpt>
      <trkpt lat="45.51302" lon="5.92593">
        <ele>831.2</ele>
        <time>2011-09-02T16:50:38Z</time>
      </trkpt>
      <trkpt lat="45.51322" lon="5.92591">
        <ele>832.64</ele>
        <time>2011-09-02T16:50:51Z</time>
      </trkpt>
      <trkpt lat="45.51339" lon="5.92603">
        <ele>835.04</ele>
        <time>2011-09-02T16:51:05Z</time>
      </trkpt>
      <trkpt lat="45.51345" lon="5.92608">
        <ele>836</ele>
        <time>2011-09-02T16:51:10Z</time>
      </trkpt>
      <trkpt lat="45.51366" lon="5.92621">
        <ele>838.89</ele>
        <time>2011-09-02T16:51:26Z</time>
      </trkpt>
      <trkpt lat="45.51386" lon="5.92636">
        <ele>841.77</ele>
        <time>2011-09-02T16:51:41Z</time>
      </trkpt>
      <trkpt lat="45.51388" lon="5.92638">
        <ele>842.25</ele>
        <time>2011-09-02T16:51:43Z</time>
      </trkpt>
      <trkpt lat="45.51394" lon="5.92656">
        <ele>842.73</ele>
        <time>2011-09-02T16:51:53Z</time>
      </trkpt>
      <trkpt lat="45.514" lon="5.92656">
        <ele>844.18</ele>
        <time>2011-09-02T16:51:59Z</time>
      </trkpt>
      <trkpt lat="45.51404" lon="5.92649">
        <ele>844.66</ele>
        <time>2011-09-02T16:52:05Z</time>
      </trkpt>
      <trkpt lat="45.51411" lon="5.9265">
        <ele>846.58</ele>
        <time>2011-09-02T16:52:17Z</time>
      </trkpt>
      <trkpt lat="45.51419" lon="5.9265">
        <ele>848.98</ele>
        <time>2011-09-02T16:52:32Z</time>
      </trkpt>
      <trkpt lat="45.51422" lon="5.92654">
        <ele>849.94</ele>
        <time>2011-09-02T16:52:49Z</time>
      </trkpt>
      <trkpt lat="45.51428" lon="5.9266">
        <ele>851.87</ele>
        <time>2011-09-02T16:52:58Z</time>
      </trkpt>
      <trkpt lat="45.51435" lon="5.92669">
        <ele>853.31</ele>
        <time>2011-09-02T16:53:06Z</time>
      </trkpt>
      <trkpt lat="45.51444" lon="5.92679">
        <ele>855.23</ele>
        <time>2011-09-02T16:53:17Z</time>
      </trkpt>
      <trkpt lat="45.51452" lon="5.92684">
        <ele>857.63</ele>
        <time>2011-09-02T16:53:39Z</time>
      </trkpt>
      <trkpt lat="45.51458" lon="5.92683">
        <ele>859.08</ele>
        <time>2011-09-02T16:53:51Z</time>
      </trkpt>
      <trkpt lat="45.51464" lon="5.92683">
        <ele>861.48</ele>
        <time>2011-09-02T16:54:07Z</time>
      </trkpt>
      <trkpt lat="45.51471" lon="5.92679">
        <ele>863.88</ele>
        <time>2011-09-02T16:54:20Z</time>
      </trkpt>
      <trkpt lat="45.51482" lon="5.92684">
        <ele>866.29</ele>
        <time>2011-09-02T16:54:34Z</time>
      </trkpt>
      <trkpt lat="45.5149" lon="5.92691">
        <ele>869.17</ele>
        <time>2011-09-02T16:54:50Z</time>
      </trkpt>
      <trkpt lat="45.51495" lon="5.92704">
        <ele>871.57</ele>
        <time>2011-09-02T16:55:05Z</time>
      </trkpt>
      <trkpt lat="45.51497" lon="5.92712">
        <ele>872.53</ele>
        <time>2011-09-02T16:55:23Z</time>
      </trkpt>
      <trkpt lat="45.51497" lon="5.92712">
        <ele>872.53</ele>
        <time>2011-09-02T16:55:49Z</time>
      </trkpt>
      <trkpt lat="45.51497" lon="5.92716">
        <ele>872.53</ele>
        <time>2011-09-02T16:55:55Z</time>
      </trkpt>
      <trkpt lat="45.51498" lon="5.9272">
        <ele>872.53</ele>
        <time>2011-09-02T16:55:57Z</time>
      </trkpt>
      <trkpt lat="45.51518" lon="5.92749">
        <ele>872.05</ele>
        <time>2011-09-02T16:56:10Z</time>
      </trkpt>
      <trkpt lat="45.51527" lon="5.92761">
        <ele>869.17</ele>
        <time>2011-09-02T16:56:15Z</time>
      </trkpt>
      <trkpt lat="45.51529" lon="5.92765">
        <ele>869.17</ele>
        <time>2011-09-02T16:56:16Z</time>
      </trkpt>
      <trkpt lat="45.5154" lon="5.92777">
        <ele>865.8</ele>
        <time>2011-09-02T16:56:20Z</time>
      </trkpt>
      <trkpt lat="45.51578" lon="5.92807">
        <ele>867.73</ele>
        <time>2011-09-02T16:56:30Z</time>
      </trkpt>
      <trkpt lat="45.51585" lon="5.92814">
        <ele>869.17</ele>
        <time>2011-09-02T16:56:44Z</time>
      </trkpt>
      <trkpt lat="45.51583" lon="5.92801">
        <ele>868.21</ele>
        <time>2011-09-02T16:57:05Z</time>
      </trkpt>
      <trkpt lat="45.51585" lon="5.92793">
        <ele>868.69</ele>
        <time>2011-09-02T16:57:23Z</time>
      </trkpt>
      <trkpt lat="45.51597" lon="5.92786">
        <ele>870.13</ele>
        <time>2011-09-02T16:57:31Z</time>
      </trkpt>
      <trkpt lat="45.516" lon="5.92786">
        <ele>871.09</ele>
        <time>2011-09-02T16:57:33Z</time>
      </trkpt>
      <trkpt lat="45.5161" lon="5.92791">
        <ele>874.94</ele>
        <time>2011-09-02T16:57:44Z</time>
      </trkpt>
      <trkpt lat="45.51613" lon="5.92791">
        <ele>875.42</ele>
        <time>2011-09-02T16:57:48Z</time>
      </trkpt>
      <trkpt lat="45.51618" lon="5.92791">
        <ele>876.38</ele>
        <time>2011-09-02T16:57:54Z</time>
      </trkpt>
      <trkpt lat="45.51625" lon="5.92792">
        <ele>878.3</ele>
        <time>2011-09-02T16:58:02Z</time>
      </trkpt>
      <trkpt lat="45.51634" lon="5.92799">
        <ele>879.74</ele>
        <time>2011-09-02T16:58:18Z</time>
      </trkpt>
      <trkpt lat="45.51634" lon="5.928">
        <ele>879.74</ele>
        <time>2011-09-02T16:58:19Z</time>
      </trkpt>
      <trkpt lat="45.5165" lon="5.92806">
        <ele>881.19</ele>
        <time>2011-09-02T16:58:29Z</time>
      </trkpt>
      <trkpt lat="45.51671" lon="5.92804">
        <ele>877.82</ele>
        <time>2011-09-02T16:58:37Z</time>
      </trkpt>
      <trkpt lat="45.51679" lon="5.92802">
        <ele>876.38</ele>
        <time>2011-09-02T16:58:39Z</time>
      </trkpt>
      <trkpt lat="45.51709" lon="5.92801">
        <ele>878.3</ele>
        <time>2011-09-02T16:58:45Z</time>
      </trkpt>
      <trkpt lat="45.51715" lon="5.92807">
        <ele>879.74</ele>
        <time>2011-09-02T16:58:48Z</time>
      </trkpt>
      <trkpt lat="45.51715" lon="5.92811">
        <ele>879.74</ele>
        <time>2011-09-02T16:58:49Z</time>
      </trkpt>
      <trkpt lat="45.51716" lon="5.92815">
        <ele>880.22</ele>
        <time>2011-09-02T16:58:50Z</time>
      </trkpt>
      <trkpt lat="45.51717" lon="5.92817">
        <ele>880.22</ele>
        <time>2011-09-02T16:58:51Z</time>
      </trkpt>
      <trkpt lat="45.51719" lon="5.92818">
        <ele>880.71</ele>
        <time>2011-09-02T16:58:52Z</time>
      </trkpt>
      <trkpt lat="45.5172" lon="5.92819">
        <ele>881.19</ele>
        <time>2011-09-02T16:58:53Z</time>
      </trkpt>
      <trkpt lat="45.51721" lon="5.92819">
        <ele>881.19</ele>
        <time>2011-09-02T16:58:54Z</time>
      </trkpt>
      <trkpt lat="45.51723" lon="5.92819">
        <ele>882.15</ele>
        <time>2011-09-02T16:58:55Z</time>
      </trkpt>
      <trkpt lat="45.51725" lon="5.92819">
        <ele>882.15</ele>
        <time>2011-09-02T16:58:56Z</time>
      </trkpt>
      <trkpt lat="45.51726" lon="5.92819">
        <ele>882.15</ele>
        <time>2011-09-02T16:58:57Z</time>
      </trkpt>
      <trkpt lat="45.51728" lon="5.92819">
        <ele>882.15</ele>
        <time>2011-09-02T16:58:58Z</time>
      </trkpt>
      <trkpt lat="45.51729" lon="5.92818">
        <ele>883.11</ele>
        <time>2011-09-02T16:58:59Z</time>
      </trkpt>
      <trkpt lat="45.51731" lon="5.92817">
        <ele>883.11</ele>
        <time>2011-09-02T16:59:00Z</time>
      </trkpt>
      <trkpt lat="45.51752" lon="5.92808">
        <ele>885.03</ele>
        <time>2011-09-02T16:59:13Z</time>
      </trkpt>
      <trkpt lat="45.51774" lon="5.92811">
        <ele>882.15</ele>
        <time>2011-09-02T16:59:23Z</time>
      </trkpt>
      <trkpt lat="45.51795" lon="5.92791">
        <ele>884.07</ele>
        <time>2011-09-02T16:59:34Z</time>
      </trkpt>
      <trkpt lat="45.51819" lon="5.92771">
        <ele>884.07</ele>
        <time>2011-09-02T16:59:45Z</time>
      </trkpt>
      <trkpt lat="45.51851" lon="5.92771">
        <ele>883.11</ele>
        <time>2011-09-02T16:59:56Z</time>
      </trkpt>
      <trkpt lat="45.51868" lon="5.92776">
        <ele>883.11</ele>
        <time>2011-09-02T17:00:07Z</time>
      </trkpt>
      <trkpt lat="45.51869" lon="5.92779">
        <ele>882.63</ele>
        <time>2011-09-02T17:00:31Z</time>
      </trkpt>
      <trkpt lat="45.5187" lon="5.9278">
        <ele>882.15</ele>
        <time>2011-09-02T17:00:32Z</time>
      </trkpt>
      <trkpt lat="45.51872" lon="5.9278">
        <ele>881.67</ele>
        <time>2011-09-02T17:00:33Z</time>
      </trkpt>
      <trkpt lat="45.51874" lon="5.9278">
        <ele>882.15</ele>
        <time>2011-09-02T17:00:34Z</time>
      </trkpt>
      <trkpt lat="45.51876" lon="5.9278">
        <ele>882.63</ele>
        <time>2011-09-02T17:00:35Z</time>
      </trkpt>
      <trkpt lat="45.51879" lon="5.9278">
        <ele>882.63</ele>
        <time>2011-09-02T17:00:36Z</time>
      </trkpt>
      <trkpt lat="45.51891" lon="5.92781">
        <ele>884.55</ele>
        <time>2011-09-02T17:00:43Z</time>
      </trkpt>
      <trkpt lat="45.51897" lon="5.92781">
        <ele>886.47</ele>
        <time>2011-09-02T17:00:46Z</time>
      </trkpt>
      <trkpt lat="45.51899" lon="5.92781">
        <ele>886.47</ele>
        <time>2011-09-02T17:00:47Z</time>
      </trkpt>
      <trkpt lat="45.519" lon="5.9278">
        <ele>886.95</ele>
        <time>2011-09-02T17:00:48Z</time>
      </trkpt>
      <trkpt lat="45.51902" lon="5.92779">
        <ele>885.99</ele>
        <time>2011-09-02T17:00:49Z</time>
      </trkpt>
      <trkpt lat="45.51904" lon="5.92778">
        <ele>886.47</ele>
        <time>2011-09-02T17:00:50Z</time>
      </trkpt>
      <trkpt lat="45.51905" lon="5.92776">
        <ele>885.99</ele>
        <time>2011-09-02T17:00:51Z</time>
      </trkpt>
      <trkpt lat="45.51908" lon="5.92776">
        <ele>885.99</ele>
        <time>2011-09-02T17:00:52Z</time>
      </trkpt>
      <trkpt lat="45.51909" lon="5.92776">
        <ele>886.47</ele>
        <time>2011-09-02T17:00:53Z</time>
      </trkpt>
      <trkpt lat="45.5191" lon="5.92776">
        <ele>886.47</ele>
        <time>2011-09-02T17:00:54Z</time>
      </trkpt>
      <trkpt lat="45.51939" lon="5.92775">
        <ele>885.03</ele>
        <time>2011-09-02T17:01:05Z</time>
      </trkpt>
      <trkpt lat="45.51965" lon="5.92772">
        <ele>885.03</ele>
        <time>2011-09-02T17:01:16Z</time>
      </trkpt>
      <trkpt lat="45.51968" lon="5.92765">
        <ele>885.99</ele>
        <time>2011-09-02T17:01:21Z</time>
      </trkpt>
      <trkpt lat="45.51972" lon="5.92759">
        <ele>886.47</ele>
        <time>2011-09-02T17:01:35Z</time>
      </trkpt>
      <trkpt lat="45.51972" lon="5.92759">
        <ele>886.95</ele>
        <time>2011-09-02T17:02:08Z</time>
      </trkpt>
      <trkpt lat="45.51972" lon="5.92759">
        <ele>886.95</ele>
        <time>2011-09-02T17:02:47Z</time>
      </trkpt>
      <trkpt lat="45.51973" lon="5.92759">
        <ele>886.47</ele>
        <time>2011-09-02T17:03:26Z</time>
      </trkpt>
      <trkpt lat="45.51972" lon="5.92759">
        <ele>886.47</ele>
        <time>2011-09-02T17:04:00Z</time>
      </trkpt>
      <trkpt lat="45.51972" lon="5.92759">
        <ele>886.95</ele>
        <time>2011-09-02T17:04:38Z</time>
      </trkpt>
      <trkpt lat="45.51973" lon="5.92759">
        <ele>886.47</ele>
        <time>2011-09-02T17:05:12Z</time>
      </trkpt>
      <trkpt lat="45.51973" lon="5.9276">
        <ele>886.95</ele>
        <time>2011-09-02T17:05:31Z</time>
      </trkpt>
      <trkpt lat="45.51974" lon="5.92761">
        <ele>886.47</ele>
        <time>2011-09-02T17:05:39Z</time>
      </trkpt>
      <trkpt lat="45.51975" lon="5.92763">
        <ele>886.47</ele>
        <time>2011-09-02T17:05:40Z</time>
      </trkpt>
      <trkpt lat="45.51976" lon="5.92764">
        <ele>885.99</ele>
        <time>2011-09-02T17:05:41Z</time>
      </trkpt>
      <trkpt lat="45.51977" lon="5.92766">
        <ele>885.51</ele>
        <time>2011-09-02T17:05:42Z</time>
      </trkpt>
      <trkpt lat="45.51981" lon="5.92769">
        <ele>884.07</ele>
        <time>2011-09-02T17:05:50Z</time>
      </trkpt>
      <trkpt lat="45.51982" lon="5.92769">
        <ele>883.59</ele>
        <time>2011-09-02T17:05:51Z</time>
      </trkpt>
      <trkpt lat="45.51984" lon="5.92773">
        <ele>881.19</ele>
        <time>2011-09-02T17:06:02Z</time>
      </trkpt>
      <trkpt lat="45.51985" lon="5.92775">
        <ele>879.74</ele>
        <time>2011-09-02T17:06:15Z</time>
      </trkpt>
      <trkpt lat="45.51987" lon="5.92775">
        <ele>878.78</ele>
        <time>2011-09-02T17:06:25Z</time>
      </trkpt>
      <trkpt lat="45.51992" lon="5.92774">
        <ele>876.38</ele>
        <time>2011-09-02T17:06:39Z</time>
      </trkpt>
      <trkpt lat="45.51994" lon="5.92774">
        <ele>875.42</ele>
        <time>2011-09-02T17:06:42Z</time>
      </trkpt>
      <trkpt lat="45.51996" lon="5.92774">
        <ele>874.94</ele>
        <time>2011-09-02T17:06:43Z</time>
      </trkpt>
      <trkpt lat="45.51998" lon="5.92774">
        <ele>873.98</ele>
        <time>2011-09-02T17:06:44Z</time>
      </trkpt>
      <trkpt lat="45.52003" lon="5.92772">
        <ele>873.01</ele>
        <time>2011-09-02T17:06:46Z</time>
      </trkpt>
      <trkpt lat="45.52018" lon="5.9278">
        <ele>869.17</ele>
        <time>2011-09-02T17:06:51Z</time>
      </trkpt>
      <trkpt lat="45.52028" lon="5.92788">
        <ele>867.25</ele>
        <time>2011-09-02T17:06:54Z</time>
      </trkpt>
      <trkpt lat="45.52042" lon="5.92802">
        <ele>863.4</ele>
        <time>2011-09-02T17:06:59Z</time>
      </trkpt>
      <trkpt lat="45.5205" lon="5.92811">
        <ele>860.04</ele>
        <time>2011-09-02T17:07:02Z</time>
      </trkpt>
      <trkpt lat="45.52056" lon="5.92826">
        <ele>856.19</ele>
        <time>2011-09-02T17:07:07Z</time>
      </trkpt>
      <trkpt lat="45.52066" lon="5.92842">
        <ele>852.35</ele>
        <time>2011-09-02T17:07:13Z</time>
      </trkpt>
      <trkpt lat="45.52087" lon="5.9284">
        <ele>851.38</ele>
        <time>2011-09-02T17:07:23Z</time>
      </trkpt>
      <trkpt lat="45.52087" lon="5.9284">
        <ele>851.87</ele>
        <time>2011-09-02T17:07:48Z</time>
      </trkpt>
      <trkpt lat="45.52087" lon="5.9284">
        <ele>851.87</ele>
        <time>2011-09-02T17:08:13Z</time>
      </trkpt>
      <trkpt lat="45.52087" lon="5.9284">
        <ele>851.87</ele>
        <time>2011-09-02T17:08:36Z</time>
      </trkpt>
      <trkpt lat="45.52086" lon="5.9284">
        <ele>852.35</ele>
        <time>2011-09-02T17:08:55Z</time>
      </trkpt>
      <trkpt lat="45.52089" lon="5.9284">
        <ele>851.38</ele>
        <time>2011-09-02T17:09:03Z</time>
      </trkpt>
      <trkpt lat="45.52094" lon="5.92844">
        <ele>849.94</ele>
        <time>2011-09-02T17:09:06Z</time>
      </trkpt>
      <trkpt lat="45.52099" lon="5.92853">
        <ele>848.02</ele>
        <time>2011-09-02T17:09:09Z</time>
      </trkpt>
      <trkpt lat="45.52107" lon="5.92858">
        <ele>844.66</ele>
        <time>2011-09-02T17:09:12Z</time>
      </trkpt>
      <trkpt lat="45.52118" lon="5.92864">
        <ele>840.81</ele>
        <time>2011-09-02T17:09:16Z</time>
      </trkpt>
      <trkpt lat="45.52123" lon="5.9287">
        <ele>839.85</ele>
        <time>2011-09-02T17:09:18Z</time>
      </trkpt>
      <trkpt lat="45.5214" lon="5.92895">
        <ele>842.25</ele>
        <time>2011-09-02T17:09:24Z</time>
      </trkpt>
      <trkpt lat="45.52146" lon="5.929">
        <ele>842.73</ele>
        <time>2011-09-02T17:09:27Z</time>
      </trkpt>
      <trkpt lat="45.5215" lon="5.92918">
        <ele>845.14</ele>
        <time>2011-09-02T17:09:34Z</time>
      </trkpt>
      <trkpt lat="45.52157" lon="5.92922">
        <ele>846.1</ele>
        <time>2011-09-02T17:09:38Z</time>
      </trkpt>
      <trkpt lat="45.52169" lon="5.92929">
        <ele>846.58</ele>
        <time>2011-09-02T17:09:44Z</time>
      </trkpt>
      <trkpt lat="45.52203" lon="5.92941">
        <ele>846.1</ele>
        <time>2011-09-02T17:09:57Z</time>
      </trkpt>
      <trkpt lat="45.5223" lon="5.92934">
        <ele>843.21</ele>
        <time>2011-09-02T17:10:08Z</time>
      </trkpt>
      <trkpt lat="45.52254" lon="5.92953">
        <ele>844.18</ele>
        <time>2011-09-02T17:10:20Z</time>
      </trkpt>
      <trkpt lat="45.52261" lon="5.92962">
        <ele>847.54</ele>
        <time>2011-09-02T17:10:37Z</time>
      </trkpt>
      <trkpt lat="45.5227" lon="5.92962">
        <ele>847.54</ele>
        <time>2011-09-02T17:10:52Z</time>
      </trkpt>
      <trkpt lat="45.52277" lon="5.9296">
        <ele>847.54</ele>
        <time>2011-09-02T17:10:57Z</time>
      </trkpt>
      <trkpt lat="45.52305" lon="5.92961">
        <ele>847.06</ele>
        <time>2011-09-02T17:11:12Z</time>
      </trkpt>
      <trkpt lat="45.5233" lon="5.9296">
        <ele>847.54</ele>
        <time>2011-09-02T17:11:24Z</time>
      </trkpt>
      <trkpt lat="45.52363" lon="5.92961">
        <ele>848.98</ele>
        <time>2011-09-02T17:11:36Z</time>
      </trkpt>
      <trkpt lat="45.52368" lon="5.92961">
        <ele>849.94</ele>
        <time>2011-09-02T17:11:38Z</time>
      </trkpt>
      <trkpt lat="45.52382" lon="5.92951">
        <ele>851.87</ele>
        <time>2011-09-02T17:11:51Z</time>
      </trkpt>
      <trkpt lat="45.52382" lon="5.92951">
        <ele>851.38</ele>
        <time>2011-09-02T17:12:13Z</time>
      </trkpt>
      <trkpt lat="45.52385" lon="5.92952">
        <ele>851.87</ele>
        <time>2011-09-02T17:12:42Z</time>
      </trkpt>
      <trkpt lat="45.52386" lon="5.92952">
        <ele>851.87</ele>
        <time>2011-09-02T17:12:46Z</time>
      </trkpt>
      <trkpt lat="45.52395" lon="5.9295">
        <ele>850.9</ele>
        <time>2011-09-02T17:12:51Z</time>
      </trkpt>
      <trkpt lat="45.52423" lon="5.92946">
        <ele>847.54</ele>
        <time>2011-09-02T17:13:02Z</time>
      </trkpt>
      <trkpt lat="45.52446" lon="5.92952">
        <ele>848.02</ele>
        <time>2011-09-02T17:13:12Z</time>
      </trkpt>
      <trkpt lat="45.52446" lon="5.92952">
        <ele>848.02</ele>
        <time>2011-09-02T17:13:17Z</time>
      </trkpt>
      <trkpt lat="45.52449" lon="5.92951">
        <ele>847.54</ele>
        <time>2011-09-02T17:13:19Z</time>
      </trkpt>
      <trkpt lat="45.52456" lon="5.92954">
        <ele>849.94</ele>
        <time>2011-09-02T17:13:23Z</time>
      </trkpt>
      <trkpt lat="45.52459" lon="5.92958">
        <ele>850.9</ele>
        <time>2011-09-02T17:13:25Z</time>
      </trkpt>
      <trkpt lat="45.52461" lon="5.92959">
        <ele>851.38</ele>
        <time>2011-09-02T17:13:27Z</time>
      </trkpt>
      <trkpt lat="45.5247" lon="5.92961">
        <ele>852.35</ele>
        <time>2011-09-02T17:13:42Z</time>
      </trkpt>
      <trkpt lat="45.52472" lon="5.92961">
        <ele>852.35</ele>
        <time>2011-09-02T17:13:46Z</time>
      </trkpt>
      <trkpt lat="45.52493" lon="5.92958">
        <ele>850.9</ele>
        <time>2011-09-02T17:13:58Z</time>
      </trkpt>
      <trkpt lat="45.52497" lon="5.92971">
        <ele>848.98</ele>
        <time>2011-09-02T17:14:03Z</time>
      </trkpt>
      <trkpt lat="45.52504" lon="5.92994">
        <ele>850.42</ele>
        <time>2011-09-02T17:14:09Z</time>
      </trkpt>
      <trkpt lat="45.52508" lon="5.93006">
        <ele>852.83</ele>
        <time>2011-09-02T17:14:14Z</time>
      </trkpt>
      <trkpt lat="45.52509" lon="5.93008">
        <ele>853.79</ele>
        <time>2011-09-02T17:14:31Z</time>
      </trkpt>
      <trkpt lat="45.52511" lon="5.9301">
        <ele>854.27</ele>
        <time>2011-09-02T17:14:33Z</time>
      </trkpt>
      <trkpt lat="45.52515" lon="5.93018">
        <ele>856.67</ele>
        <time>2011-09-02T17:14:46Z</time>
      </trkpt>
      <trkpt lat="45.52519" lon="5.93027">
        <ele>860.04</ele>
        <time>2011-09-02T17:15:02Z</time>
      </trkpt>
      <trkpt lat="45.5252" lon="5.93032">
        <ele>861</ele>
        <time>2011-09-02T17:15:16Z</time>
      </trkpt>
      <trkpt lat="45.52522" lon="5.93041">
        <ele>861.96</ele>
        <time>2011-09-02T17:15:35Z</time>
      </trkpt>
      <trkpt lat="45.52527" lon="5.93053">
        <ele>865.32</ele>
        <time>2011-09-02T17:15:47Z</time>
      </trkpt>
      <trkpt lat="45.52529" lon="5.93062">
        <ele>868.69</ele>
        <time>2011-09-02T17:16:02Z</time>
      </trkpt>
      <trkpt lat="45.52536" lon="5.9307">
        <ele>871.09</ele>
        <time>2011-09-02T17:16:17Z</time>
      </trkpt>
      <trkpt lat="45.5256" lon="5.9308">
        <ele>869.65</ele>
        <time>2011-09-02T17:16:31Z</time>
      </trkpt>
      <trkpt lat="45.52578" lon="5.93076">
        <ele>870.61</ele>
        <time>2011-09-02T17:16:37Z</time>
      </trkpt>
      <trkpt lat="45.52582" lon="5.93074">
        <ele>871.57</ele>
        <time>2011-09-02T17:16:39Z</time>
      </trkpt>
      <trkpt lat="45.52584" lon="5.93073">
        <ele>871.57</ele>
        <time>2011-09-02T17:16:40Z</time>
      </trkpt>
      <trkpt lat="45.52591" lon="5.93061">
        <ele>868.69</ele>
        <time>2011-09-02T17:16:46Z</time>
      </trkpt>
      <trkpt lat="45.52607" lon="5.93059">
        <ele>866.77</ele>
        <time>2011-09-02T17:16:51Z</time>
      </trkpt>
      <trkpt lat="45.52621" lon="5.93065">
        <ele>862.92</ele>
        <time>2011-09-02T17:16:55Z</time>
      </trkpt>
      <trkpt lat="45.52642" lon="5.93084">
        <ele>859.56</ele>
        <time>2011-09-02T17:17:01Z</time>
      </trkpt>
      <trkpt lat="45.52652" lon="5.93085">
        <ele>858.59</ele>
        <time>2011-09-02T17:17:03Z</time>
      </trkpt>
      <trkpt lat="45.52668" lon="5.931">
        <ele>858.11</ele>
        <time>2011-09-02T17:17:12Z</time>
      </trkpt>
      <trkpt lat="45.52679" lon="5.93106">
        <ele>854.27</ele>
        <time>2011-09-02T17:17:17Z</time>
      </trkpt>
      <trkpt lat="45.52684" lon="5.9311">
        <ele>853.31</ele>
        <time>2011-09-02T17:17:19Z</time>
      </trkpt>
      <trkpt lat="45.52702" lon="5.93108">
        <ele>849.94</ele>
        <time>2011-09-02T17:17:26Z</time>
      </trkpt>
      <trkpt lat="45.52703" lon="5.93108">
        <ele>849.46</ele>
        <time>2011-09-02T17:17:27Z</time>
      </trkpt>
      <trkpt lat="45.5271" lon="5.93108">
        <ele>846.1</ele>
        <time>2011-09-02T17:17:31Z</time>
      </trkpt>
      <trkpt lat="45.52719" lon="5.93107">
        <ele>842.73</ele>
        <time>2011-09-02T17:17:35Z</time>
      </trkpt>
      <trkpt lat="45.52728" lon="5.93109">
        <ele>839.37</ele>
        <time>2011-09-02T17:17:38Z</time>
      </trkpt>
      <trkpt lat="45.5273" lon="5.93109">
        <ele>839.37</ele>
        <time>2011-09-02T17:17:39Z</time>
      </trkpt>
      <trkpt lat="45.52739" lon="5.9311">
        <ele>836</ele>
        <time>2011-09-02T17:17:43Z</time>
      </trkpt>
      <trkpt lat="45.52745" lon="5.93112">
        <ele>834.08</ele>
        <time>2011-09-02T17:17:47Z</time>
      </trkpt>
      <trkpt lat="45.52747" lon="5.9312">
        <ele>832.64</ele>
        <time>2011-09-02T17:17:52Z</time>
      </trkpt>
      <trkpt lat="45.52754" lon="5.93118">
        <ele>829.27</ele>
        <time>2011-09-02T17:17:57Z</time>
      </trkpt>
      <trkpt lat="45.5276" lon="5.9311">
        <ele>825.91</ele>
        <time>2011-09-02T17:18:01Z</time>
      </trkpt>
      <trkpt lat="45.52762" lon="5.93108">
        <ele>825.43</ele>
        <time>2011-09-02T17:18:02Z</time>
      </trkpt>
      <trkpt lat="45.52764" lon="5.93106">
        <ele>825.43</ele>
        <time>2011-09-02T17:18:17Z</time>
      </trkpt>
      <trkpt lat="45.52764" lon="5.93106">
        <ele>825.43</ele>
        <time>2011-09-02T17:18:52Z</time>
      </trkpt>
      <trkpt lat="45.52764" lon="5.93107">
        <ele>825.43</ele>
        <time>2011-09-02T17:19:31Z</time>
      </trkpt>
      <trkpt lat="45.52764" lon="5.93107">
        <ele>824.47</ele>
        <time>2011-09-02T17:20:09Z</time>
      </trkpt>
      <trkpt lat="45.52774" lon="5.93104">
        <ele>821.1</ele>
        <time>2011-09-02T17:20:13Z</time>
      </trkpt>
      <trkpt lat="45.52793" lon="5.93105">
        <ele>819.18</ele>
        <time>2011-09-02T17:20:17Z</time>
      </trkpt>
      <trkpt lat="45.52836" lon="5.93113">
        <ele>817.74</ele>
        <time>2011-09-02T17:20:31Z</time>
      </trkpt>
      <trkpt lat="45.52865" lon="5.93124">
        <ele>814.85</ele>
        <time>2011-09-02T17:20:37Z</time>
      </trkpt>
      <trkpt lat="45.52887" lon="5.93131">
        <ele>812.93</ele>
        <time>2011-09-02T17:20:41Z</time>
      </trkpt>
      <trkpt lat="45.52898" lon="5.93137">
        <ele>812.45</ele>
        <time>2011-09-02T17:20:43Z</time>
      </trkpt>
      <trkpt lat="45.52911" lon="5.93144">
        <ele>811.01</ele>
        <time>2011-09-02T17:20:46Z</time>
      </trkpt>
      <trkpt lat="45.52924" lon="5.93151">
        <ele>809.57</ele>
        <time>2011-09-02T17:20:49Z</time>
      </trkpt>
      <trkpt lat="45.52929" lon="5.93153">
        <ele>808.61</ele>
        <time>2011-09-02T17:20:50Z</time>
      </trkpt>
      <trkpt lat="45.52933" lon="5.93157">
        <ele>808.61</ele>
        <time>2011-09-02T17:20:51Z</time>
      </trkpt>
      <trkpt lat="45.52937" lon="5.9316">
        <ele>808.13</ele>
        <time>2011-09-02T17:20:52Z</time>
      </trkpt>
      <trkpt lat="45.52941" lon="5.93163">
        <ele>807.16</ele>
        <time>2011-09-02T17:20:53Z</time>
      </trkpt>
      <trkpt lat="45.52943" lon="5.93165">
        <ele>806.68</ele>
        <time>2011-09-02T17:20:54Z</time>
      </trkpt>
      <trkpt lat="45.52945" lon="5.93166">
        <ele>806.68</ele>
        <time>2011-09-02T17:20:55Z</time>
      </trkpt>
      <trkpt lat="45.52947" lon="5.93167">
        <ele>806.68</ele>
        <time>2011-09-02T17:20:56Z</time>
      </trkpt>
      <trkpt lat="45.52948" lon="5.93168">
        <ele>806.68</ele>
        <time>2011-09-02T17:20:57Z</time>
      </trkpt>
      <trkpt lat="45.52949" lon="5.93168">
        <ele>806.2</ele>
        <time>2011-09-02T17:21:10Z</time>
      </trkpt>
      <trkpt lat="45.5295" lon="5.93168">
        <ele>805.72</ele>
        <time>2011-09-02T17:21:13Z</time>
      </trkpt>
      <trkpt lat="45.52955" lon="5.93169">
        <ele>803.8</ele>
        <time>2011-09-02T17:21:15Z</time>
      </trkpt>
      <trkpt lat="45.52966" lon="5.93173">
        <ele>799.95</ele>
        <time>2011-09-02T17:21:18Z</time>
      </trkpt>
      <trkpt lat="45.52972" lon="5.93177">
        <ele>798.03</ele>
        <time>2011-09-02T17:21:20Z</time>
      </trkpt>
      <trkpt lat="45.52976" lon="5.93178">
        <ele>797.07</ele>
        <time>2011-09-02T17:21:21Z</time>
      </trkpt>
      <trkpt lat="45.52983" lon="5.93181">
        <ele>796.11</ele>
        <time>2011-09-02T17:21:23Z</time>
      </trkpt>
      <trkpt lat="45.52986" lon="5.93182">
        <ele>796.11</ele>
        <time>2011-09-02T17:21:24Z</time>
      </trkpt>
      <trkpt lat="45.5299" lon="5.93182">
        <ele>796.11</ele>
        <time>2011-09-02T17:21:25Z</time>
      </trkpt>
      <trkpt lat="45.52994" lon="5.93181">
        <ele>795.15</ele>
        <time>2011-09-02T17:21:26Z</time>
      </trkpt>
      <trkpt lat="45.52998" lon="5.9318">
        <ele>794.67</ele>
        <time>2011-09-02T17:21:27Z</time>
      </trkpt>
      <trkpt lat="45.53001" lon="5.93179">
        <ele>794.19</ele>
        <time>2011-09-02T17:21:28Z</time>
      </trkpt>
      <trkpt lat="45.53005" lon="5.93177">
        <ele>792.74</ele>
        <time>2011-09-02T17:21:29Z</time>
      </trkpt>
      <trkpt lat="45.53009" lon="5.93176">
        <ele>792.26</ele>
        <time>2011-09-02T17:21:30Z</time>
      </trkpt>
      <trkpt lat="45.53012" lon="5.93176">
        <ele>791.3</ele>
        <time>2011-09-02T17:21:31Z</time>
      </trkpt>
      <trkpt lat="45.53015" lon="5.93174">
        <ele>789.86</ele>
        <time>2011-09-02T17:21:32Z</time>
      </trkpt>
      <trkpt lat="45.53018" lon="5.93173">
        <ele>788.9</ele>
        <time>2011-09-02T17:21:33Z</time>
      </trkpt>
      <trkpt lat="45.5302" lon="5.93171">
        <ele>787.46</ele>
        <time>2011-09-02T17:21:34Z</time>
      </trkpt>
      <trkpt lat="45.53042" lon="5.93169">
        <ele>783.61</ele>
        <time>2011-09-02T17:21:41Z</time>
      </trkpt>
      <trkpt lat="45.53047" lon="5.93172">
        <ele>782.65</ele>
        <time>2011-09-02T17:21:43Z</time>
      </trkpt>
      <trkpt lat="45.5305" lon="5.93173">
        <ele>781.69</ele>
        <time>2011-09-02T17:21:45Z</time>
      </trkpt>
      <trkpt lat="45.53056" lon="5.93172">
        <ele>780.25</ele>
        <time>2011-09-02T17:22:00Z</time>
      </trkpt>
      <trkpt lat="45.5306" lon="5.93173">
        <ele>778.81</ele>
        <time>2011-09-02T17:22:07Z</time>
      </trkpt>
      <trkpt lat="45.5307" lon="5.93173">
        <ele>776.4</ele>
        <time>2011-09-02T17:22:18Z</time>
      </trkpt>
      <trkpt lat="45.53076" lon="5.93173">
        <ele>774.96</ele>
        <time>2011-09-02T17:22:25Z</time>
      </trkpt>
      <trkpt lat="45.53084" lon="5.93171">
        <ele>771.6</ele>
        <time>2011-09-02T17:22:34Z</time>
      </trkpt>
      <trkpt lat="45.5309" lon="5.93167">
        <ele>767.75</ele>
        <time>2011-09-02T17:22:37Z</time>
      </trkpt>
      <trkpt lat="45.53101" lon="5.93162">
        <ele>764.39</ele>
        <time>2011-09-02T17:22:42Z</time>
      </trkpt>
      <trkpt lat="45.53111" lon="5.9316">
        <ele>761.5</ele>
        <time>2011-09-02T17:22:46Z</time>
      </trkpt>
      <trkpt lat="45.53124" lon="5.93156">
        <ele>757.66</ele>
        <time>2011-09-02T17:22:52Z</time>
      </trkpt>
      <trkpt lat="45.53131" lon="5.93155">
        <ele>756.21</ele>
        <time>2011-09-02T17:22:55Z</time>
      </trkpt>
      <trkpt lat="45.53154" lon="5.93148">
        <ele>752.37</ele>
        <time>2011-09-02T17:23:03Z</time>
      </trkpt>
      <trkpt lat="45.53156" lon="5.93147">
        <ele>752.37</ele>
        <time>2011-09-02T17:23:04Z</time>
      </trkpt>
      <trkpt lat="45.53162" lon="5.93143">
        <ele>749</ele>
        <time>2011-09-02T17:23:08Z</time>
      </trkpt>
      <trkpt lat="45.53169" lon="5.93138">
        <ele>744.2</ele>
        <time>2011-09-02T17:23:12Z</time>
      </trkpt>
      <trkpt lat="45.53175" lon="5.93133">
        <ele>740.35</ele>
        <time>2011-09-02T17:23:15Z</time>
      </trkpt>
      <trkpt lat="45.53197" lon="5.93121">
        <ele>738.43</ele>
        <time>2011-09-02T17:23:23Z</time>
      </trkpt>
      <trkpt lat="45.53198" lon="5.93122">
        <ele>738.43</ele>
        <time>2011-09-02T17:23:24Z</time>
      </trkpt>
      <trkpt lat="45.53199" lon="5.93124">
        <ele>738.43</ele>
        <time>2011-09-02T17:23:25Z</time>
      </trkpt>
      <trkpt lat="45.53199" lon="5.93126">
        <ele>738.43</ele>
        <time>2011-09-02T17:23:26Z</time>
      </trkpt>
      <trkpt lat="45.532" lon="5.93128">
        <ele>738.43</ele>
        <time>2011-09-02T17:23:27Z</time>
      </trkpt>
      <trkpt lat="45.53203" lon="5.93132">
        <ele>738.91</ele>
        <time>2011-09-02T17:23:43Z</time>
      </trkpt>
      <trkpt lat="45.53204" lon="5.93133">
        <ele>738.43</ele>
        <time>2011-09-02T17:24:11Z</time>
      </trkpt>
      <trkpt lat="45.53204" lon="5.93133">
        <ele>738.43</ele>
        <time>2011-09-02T17:24:46Z</time>
      </trkpt>
      <trkpt lat="45.53204" lon="5.93133">
        <ele>737.95</ele>
        <time>2011-09-02T17:25:20Z</time>
      </trkpt>
      <trkpt lat="45.53204" lon="5.93133">
        <ele>737.95</ele>
        <time>2011-09-02T17:25:47Z</time>
      </trkpt>
      <trkpt lat="45.53204" lon="5.93133">
        <ele>737.95</ele>
        <time>2011-09-02T17:26:17Z</time>
      </trkpt>
      <trkpt lat="45.53207" lon="5.93136">
        <ele>738.43</ele>
        <time>2011-09-02T17:26:44Z</time>
      </trkpt>
      <trkpt lat="45.53212" lon="5.93137">
        <ele>738.43</ele>
        <time>2011-09-02T17:26:47Z</time>
      </trkpt>
      <trkpt lat="45.53238" lon="5.93142">
        <ele>739.39</ele>
        <time>2011-09-02T17:27:00Z</time>
      </trkpt>
      <trkpt lat="45.53267" lon="5.93146">
        <ele>741.79</ele>
        <time>2011-09-02T17:27:13Z</time>
      </trkpt>
      <trkpt lat="45.53288" lon="5.93139">
        <ele>744.2</ele>
        <time>2011-09-02T17:27:24Z</time>
      </trkpt>
      <trkpt lat="45.5331" lon="5.93125">
        <ele>746.12</ele>
        <time>2011-09-02T17:27:38Z</time>
      </trkpt>
      <trkpt lat="45.53325" lon="5.93134">
        <ele>747.56</ele>
        <time>2011-09-02T17:27:49Z</time>
      </trkpt>
      <trkpt lat="45.53326" lon="5.93135">
        <ele>747.56</ele>
        <time>2011-09-02T17:27:50Z</time>
      </trkpt>
      <trkpt lat="45.53327" lon="5.93135">
        <ele>748.52</ele>
        <time>2011-09-02T17:27:51Z</time>
      </trkpt>
      <trkpt lat="45.53328" lon="5.93137">
        <ele>748.52</ele>
        <time>2011-09-02T17:27:52Z</time>
      </trkpt>
      <trkpt lat="45.5333" lon="5.93138">
        <ele>748.52</ele>
        <time>2011-09-02T17:27:53Z</time>
      </trkpt>
      <trkpt lat="45.53332" lon="5.93138">
        <ele>748.52</ele>
        <time>2011-09-02T17:27:54Z</time>
      </trkpt>
      <trkpt lat="45.53333" lon="5.93138">
        <ele>749</ele>
        <time>2011-09-02T17:27:55Z</time>
      </trkpt>
      <trkpt lat="45.53335" lon="5.93138">
        <ele>749</ele>
        <time>2011-09-02T17:27:56Z</time>
      </trkpt>
      <trkpt lat="45.53337" lon="5.93138">
        <ele>749</ele>
        <time>2011-09-02T17:27:57Z</time>
      </trkpt>
      <trkpt lat="45.53352" lon="5.93131">
        <ele>750.93</ele>
        <time>2011-09-02T17:28:07Z</time>
      </trkpt>
      <trkpt lat="45.53353" lon="5.93129">
        <ele>750.93</ele>
        <time>2011-09-02T17:28:08Z</time>
      </trkpt>
      <trkpt lat="45.5336" lon="5.931">
        <ele>753.81</ele>
        <time>2011-09-02T17:28:23Z</time>
      </trkpt>
      <trkpt lat="45.53359" lon="5.93097">
        <ele>753.33</ele>
        <time>2011-09-02T17:28:40Z</time>
      </trkpt>
      <trkpt lat="45.53359" lon="5.93097">
        <ele>753.33</ele>
        <time>2011-09-02T17:29:10Z</time>
      </trkpt>
      <trkpt lat="45.5336" lon="5.93098">
        <ele>753.33</ele>
        <time>2011-09-02T17:29:47Z</time>
      </trkpt>
      <trkpt lat="45.5336" lon="5.93098">
        <ele>753.33</ele>
        <time>2011-09-02T17:30:17Z</time>
      </trkpt>
      <trkpt lat="45.5336" lon="5.93098">
        <ele>753.33</ele>
        <time>2011-09-02T17:30:47Z</time>
      </trkpt>
      <trkpt lat="45.5336" lon="5.93098">
        <ele>753.81</ele>
        <time>2011-09-02T17:31:20Z</time>
      </trkpt>
      <trkpt lat="45.5336" lon="5.93098">
        <ele>753.81</ele>
        <time>2011-09-02T17:31:44Z</time>
      </trkpt>
      <trkpt lat="45.5336" lon="5.93098">
        <ele>753.33</ele>
        <time>2011-09-02T17:32:08Z</time>
      </trkpt>
      <trkpt lat="45.5336" lon="5.931">
        <ele>753.33</ele>
        <time>2011-09-02T17:32:31Z</time>
      </trkpt>
      <trkpt lat="45.5336" lon="5.931">
        <ele>752.85</ele>
        <time>2011-09-02T17:33:04Z</time>
      </trkpt>
      <trkpt lat="45.5336" lon="5.931">
        <ele>752.85</ele>
        <time>2011-09-02T17:33:24Z</time>
      </trkpt>
      <trkpt lat="45.5336" lon="5.931">
        <ele>752.85</ele>
        <time>2011-09-02T17:33:52Z</time>
      </trkpt>
      <trkpt lat="45.5336" lon="5.931">
        <ele>752.85</ele>
        <time>2011-09-02T17:34:26Z</time>
      </trkpt>
      <trkpt lat="45.5336" lon="5.93101">
        <ele>753.33</ele>
        <time>2011-09-02T17:34:46Z</time>
      </trkpt>
      <trkpt lat="45.53361" lon="5.93102">
        <ele>753.33</ele>
        <time>2011-09-02T17:34:47Z</time>
      </trkpt>
      <trkpt lat="45.53363" lon="5.93106">
        <ele>752.85</ele>
        <time>2011-09-02T17:34:50Z</time>
      </trkpt>
      <trkpt lat="45.53365" lon="5.93108">
        <ele>753.33</ele>
        <time>2011-09-02T17:34:51Z</time>
      </trkpt>
      <trkpt lat="45.53384" lon="5.93108">
        <ele>754.29</ele>
        <time>2011-09-02T17:35:02Z</time>
      </trkpt>
      <trkpt lat="45.53385" lon="5.9311">
        <ele>754.29</ele>
        <time>2011-09-02T17:35:03Z</time>
      </trkpt>
      <trkpt lat="45.53386" lon="5.9311">
        <ele>754.77</ele>
        <time>2011-09-02T17:35:04Z</time>
      </trkpt>
      <trkpt lat="45.53388" lon="5.9311">
        <ele>754.29</ele>
        <time>2011-09-02T17:35:05Z</time>
      </trkpt>
      <trkpt lat="45.53389" lon="5.9311">
        <ele>754.29</ele>
        <time>2011-09-02T17:35:06Z</time>
      </trkpt>
      <trkpt lat="45.53402" lon="5.93109">
        <ele>754.77</ele>
        <time>2011-09-02T17:35:14Z</time>
      </trkpt>
      <trkpt lat="45.53404" lon="5.93109">
        <ele>755.25</ele>
        <time>2011-09-02T17:35:15Z</time>
      </trkpt>
      <trkpt lat="45.53405" lon="5.93109">
        <ele>755.73</ele>
        <time>2011-09-02T17:35:16Z</time>
      </trkpt>
      <trkpt lat="45.53407" lon="5.93109">
        <ele>755.73</ele>
        <time>2011-09-02T17:35:17Z</time>
      </trkpt>
      <trkpt lat="45.53409" lon="5.93109">
        <ele>755.25</ele>
        <time>2011-09-02T17:35:18Z</time>
      </trkpt>
      <trkpt lat="45.5341" lon="5.93109">
        <ele>755.73</ele>
        <time>2011-09-02T17:35:19Z</time>
      </trkpt>
      <trkpt lat="45.53413" lon="5.93109">
        <ele>755.73</ele>
        <time>2011-09-02T17:35:20Z</time>
      </trkpt>
      <trkpt lat="45.53415" lon="5.93108">
        <ele>756.21</ele>
        <time>2011-09-02T17:35:21Z</time>
      </trkpt>
      <trkpt lat="45.53416" lon="5.93108">
        <ele>756.21</ele>
        <time>2011-09-02T17:35:22Z</time>
      </trkpt>
      <trkpt lat="45.53418" lon="5.93109">
        <ele>756.21</ele>
        <time>2011-09-02T17:35:23Z</time>
      </trkpt>
      <trkpt lat="45.5342" lon="5.93109">
        <ele>756.69</ele>
        <time>2011-09-02T17:35:24Z</time>
      </trkpt>
      <trkpt lat="45.53421" lon="5.93109">
        <ele>756.21</ele>
        <time>2011-09-02T17:35:25Z</time>
      </trkpt>
      <trkpt lat="45.53434" lon="5.93098">
        <ele>757.18</ele>
        <time>2011-09-02T17:35:33Z</time>
      </trkpt>
      <trkpt lat="45.53436" lon="5.93098">
        <ele>757.18</ele>
        <time>2011-09-02T17:35:34Z</time>
      </trkpt>
      <trkpt lat="45.53438" lon="5.93098">
        <ele>756.69</ele>
        <time>2011-09-02T17:35:35Z</time>
      </trkpt>
      <trkpt lat="45.53439" lon="5.93099">
        <ele>757.18</ele>
        <time>2011-09-02T17:35:36Z</time>
      </trkpt>
      <trkpt lat="45.53441" lon="5.931">
        <ele>757.18</ele>
        <time>2011-09-02T17:35:37Z</time>
      </trkpt>
      <trkpt lat="45.53443" lon="5.931">
        <ele>757.18</ele>
        <time>2011-09-02T17:35:38Z</time>
      </trkpt>
      <trkpt lat="45.53445" lon="5.931">
        <ele>756.69</ele>
        <time>2011-09-02T17:35:39Z</time>
      </trkpt>
      <trkpt lat="45.53447" lon="5.93099">
        <ele>756.21</ele>
        <time>2011-09-02T17:35:40Z</time>
      </trkpt>
      <trkpt lat="45.53448" lon="5.93099">
        <ele>756.21</ele>
        <time>2011-09-02T17:35:41Z</time>
      </trkpt>
      <trkpt lat="45.53468" lon="5.93097">
        <ele>753.33</ele>
        <time>2011-09-02T17:35:47Z</time>
      </trkpt>
      <trkpt lat="45.53478" lon="5.93099">
        <ele>749.49</ele>
        <time>2011-09-02T17:35:50Z</time>
      </trkpt>
      <trkpt lat="45.5349" lon="5.93118">
        <ele>746.12</ele>
        <time>2011-09-02T17:35:56Z</time>
      </trkpt>
      <trkpt lat="45.53497" lon="5.9313">
        <ele>742.28</ele>
        <time>2011-09-02T17:35:59Z</time>
      </trkpt>
      <trkpt lat="45.53503" lon="5.93142">
        <ele>739.39</ele>
        <time>2011-09-02T17:36:02Z</time>
      </trkpt>
      <trkpt lat="45.53507" lon="5.93157">
        <ele>736.03</ele>
        <time>2011-09-02T17:36:05Z</time>
      </trkpt>
      <trkpt lat="45.53508" lon="5.93178">
        <ele>731.7</ele>
        <time>2011-09-02T17:36:09Z</time>
      </trkpt>
      <trkpt lat="45.53509" lon="5.93199">
        <ele>728.34</ele>
        <time>2011-09-02T17:36:13Z</time>
      </trkpt>
      <trkpt lat="45.53514" lon="5.93213">
        <ele>724.97</ele>
        <time>2011-09-02T17:36:16Z</time>
      </trkpt>
      <trkpt lat="45.53519" lon="5.93222">
        <ele>721.61</ele>
        <time>2011-09-02T17:36:18Z</time>
      </trkpt>
      <trkpt lat="45.53528" lon="5.93233">
        <ele>718.24</ele>
        <time>2011-09-02T17:36:21Z</time>
      </trkpt>
      <trkpt lat="45.53536" lon="5.93243">
        <ele>714.88</ele>
        <time>2011-09-02T17:36:24Z</time>
      </trkpt>
      <trkpt lat="45.53542" lon="5.93253">
        <ele>711.99</ele>
        <time>2011-09-02T17:36:26Z</time>
      </trkpt>
      <trkpt lat="45.53544" lon="5.93258">
        <ele>710.07</ele>
        <time>2011-09-02T17:36:27Z</time>
      </trkpt>
      <trkpt lat="45.53547" lon="5.93276">
        <ele>706.71</ele>
        <time>2011-09-02T17:36:30Z</time>
      </trkpt>
      <trkpt lat="45.53549" lon="5.93288">
        <ele>703.34</ele>
        <time>2011-09-02T17:36:32Z</time>
      </trkpt>
      <trkpt lat="45.53552" lon="5.93299">
        <ele>699.02</ele>
        <time>2011-09-02T17:36:34Z</time>
      </trkpt>
      <trkpt lat="45.53557" lon="5.93316">
        <ele>695.17</ele>
        <time>2011-09-02T17:36:37Z</time>
      </trkpt>
      <trkpt lat="45.53561" lon="5.93327">
        <ele>691.33</ele>
        <time>2011-09-02T17:36:40Z</time>
      </trkpt>
      <trkpt lat="45.53566" lon="5.93337">
        <ele>688.92</ele>
        <time>2011-09-02T17:36:44Z</time>
      </trkpt>
      <trkpt lat="45.53564" lon="5.93335">
        <ele>688.44</ele>
        <time>2011-09-02T17:36:51Z</time>
      </trkpt>
      <trkpt lat="45.53562" lon="5.93333">
        <ele>687.96</ele>
        <time>2011-09-02T17:37:06Z</time>
      </trkpt>
      <trkpt lat="45.53562" lon="5.93333">
        <ele>687.48</ele>
        <time>2011-09-02T17:37:40Z</time>
      </trkpt>
      <trkpt lat="45.53562" lon="5.93333">
        <ele>687</ele>
        <time>2011-09-02T17:38:08Z</time>
      </trkpt>
      <trkpt lat="45.53565" lon="5.93341">
        <ele>682.67</ele>
        <time>2011-09-02T17:38:13Z</time>
      </trkpt>
      <trkpt lat="45.53568" lon="5.93346">
        <ele>682.67</ele>
        <time>2011-09-02T17:38:14Z</time>
      </trkpt>
      <trkpt lat="45.53574" lon="5.9336">
        <ele>678.83</ele>
        <time>2011-09-02T17:38:17Z</time>
      </trkpt>
      <trkpt lat="45.53581" lon="5.93375">
        <ele>675.46</ele>
        <time>2011-09-02T17:38:20Z</time>
      </trkpt>
      <trkpt lat="45.53589" lon="5.93388">
        <ele>672.1</ele>
        <time>2011-09-02T17:38:22Z</time>
      </trkpt>
      <trkpt lat="45.53599" lon="5.93407">
        <ele>668.25</ele>
        <time>2011-09-02T17:38:26Z</time>
      </trkpt>
      <trkpt lat="45.53605" lon="5.93417">
        <ele>664.89</ele>
        <time>2011-09-02T17:38:30Z</time>
      </trkpt>
      <trkpt lat="45.5361" lon="5.93427">
        <ele>661.52</ele>
        <time>2011-09-02T17:38:34Z</time>
      </trkpt>
      <trkpt lat="45.53614" lon="5.9344">
        <ele>657.68</ele>
        <time>2011-09-02T17:38:38Z</time>
      </trkpt>
      <trkpt lat="45.53621" lon="5.93449">
        <ele>654.31</ele>
        <time>2011-09-02T17:38:41Z</time>
      </trkpt>
      <trkpt lat="45.53629" lon="5.9346">
        <ele>650.95</ele>
        <time>2011-09-02T17:38:44Z</time>
      </trkpt>
      <trkpt lat="45.53633" lon="5.93468">
        <ele>647.59</ele>
        <time>2011-09-02T17:38:46Z</time>
      </trkpt>
      <trkpt lat="45.53642" lon="5.93482">
        <ele>642.78</ele>
        <time>2011-09-02T17:38:50Z</time>
      </trkpt>
      <trkpt lat="45.5365" lon="5.93496">
        <ele>640.38</ele>
        <time>2011-09-02T17:38:53Z</time>
      </trkpt>
      <trkpt lat="45.53661" lon="5.93518">
        <ele>637.01</ele>
        <time>2011-09-02T17:38:59Z</time>
      </trkpt>
      <trkpt lat="45.53665" lon="5.93519">
        <ele>636.05</ele>
        <time>2011-09-02T17:39:01Z</time>
      </trkpt>
      <trkpt lat="45.53663" lon="5.93519">
        <ele>635.09</ele>
        <time>2011-09-02T17:39:10Z</time>
      </trkpt>
      <trkpt lat="45.53671" lon="5.9352">
        <ele>631.72</ele>
        <time>2011-09-02T17:39:26Z</time>
      </trkpt>
      <trkpt lat="45.53677" lon="5.93523">
        <ele>628.36</ele>
        <time>2011-09-02T17:39:35Z</time>
      </trkpt>
      <trkpt lat="45.5368" lon="5.93527">
        <ele>625.47</ele>
        <time>2011-09-02T17:39:37Z</time>
      </trkpt>
      <trkpt lat="45.53682" lon="5.9353">
        <ele>625.47</ele>
        <time>2011-09-02T17:39:38Z</time>
      </trkpt>
      <trkpt lat="45.53685" lon="5.93534">
        <ele>626.44</ele>
        <time>2011-09-02T17:39:52Z</time>
      </trkpt>
      <trkpt lat="45.53685" lon="5.93534">
        <ele>625.96</ele>
        <time>2011-09-02T17:40:22Z</time>
      </trkpt>
      <trkpt lat="45.53685" lon="5.93534">
        <ele>625.47</ele>
        <time>2011-09-02T17:40:56Z</time>
      </trkpt>
      <trkpt lat="45.53687" lon="5.93536">
        <ele>624.99</ele>
        <time>2011-09-02T17:41:02Z</time>
      </trkpt>
      <trkpt lat="45.53689" lon="5.93537">
        <ele>624.99</ele>
        <time>2011-09-02T17:41:03Z</time>
      </trkpt>
      <trkpt lat="45.53691" lon="5.93537">
        <ele>624.99</ele>
        <time>2011-09-02T17:41:04Z</time>
      </trkpt>
      <trkpt lat="45.53693" lon="5.93537">
        <ele>624.99</ele>
        <time>2011-09-02T17:41:05Z</time>
      </trkpt>
      <trkpt lat="45.53695" lon="5.93537">
        <ele>624.99</ele>
        <time>2011-09-02T17:41:06Z</time>
      </trkpt>
      <trkpt lat="45.53696" lon="5.93537">
        <ele>625.47</ele>
        <time>2011-09-02T17:41:07Z</time>
      </trkpt>
      <trkpt lat="45.53698" lon="5.93538">
        <ele>625.47</ele>
        <time>2011-09-02T17:41:08Z</time>
      </trkpt>
      <trkpt lat="45.53699" lon="5.93538">
        <ele>625.47</ele>
        <time>2011-09-02T17:41:09Z</time>
      </trkpt>
      <trkpt lat="45.53701" lon="5.93538">
        <ele>625.96</ele>
        <time>2011-09-02T17:41:10Z</time>
      </trkpt>
      <trkpt lat="45.53702" lon="5.93537">
        <ele>625.96</ele>
        <time>2011-09-02T17:41:11Z</time>
      </trkpt>
      <trkpt lat="45.53704" lon="5.93537">
        <ele>625.96</ele>
        <time>2011-09-02T17:41:12Z</time>
      </trkpt>
      <trkpt lat="45.53706" lon="5.93536">
        <ele>626.44</ele>
        <time>2011-09-02T17:41:13Z</time>
      </trkpt>
      <trkpt lat="45.53707" lon="5.93536">
        <ele>626.44</ele>
        <time>2011-09-02T17:41:14Z</time>
      </trkpt>
      <trkpt lat="45.53712" lon="5.93538">
        <ele>626.92</ele>
        <time>2011-09-02T17:41:26Z</time>
      </trkpt>
      <trkpt lat="45.53712" lon="5.93538">
        <ele>627.4</ele>
        <time>2011-09-02T17:41:46Z</time>
      </trkpt>
      <trkpt lat="45.53719" lon="5.93548">
        <ele>630.28</ele>
        <time>2011-09-02T17:41:58Z</time>
      </trkpt>
      <trkpt lat="45.53719" lon="5.93549">
        <ele>630.76</ele>
        <time>2011-09-02T17:41:59Z</time>
      </trkpt>
      <trkpt lat="45.53719" lon="5.93551">
        <ele>630.76</ele>
        <time>2011-09-02T17:42:00Z</time>
      </trkpt>
      <trkpt lat="45.5372" lon="5.93555">
        <ele>631.24</ele>
        <time>2011-09-02T17:42:03Z</time>
      </trkpt>
      <trkpt lat="45.53728" lon="5.93559">
        <ele>634.61</ele>
        <time>2011-09-02T17:42:11Z</time>
      </trkpt>
      <trkpt lat="45.53729" lon="5.93559">
        <ele>635.09</ele>
        <time>2011-09-02T17:42:12Z</time>
      </trkpt>
      <trkpt lat="45.5373" lon="5.93559">
        <ele>634.61</ele>
        <time>2011-09-02T17:42:13Z</time>
      </trkpt>
      <trkpt lat="45.53736" lon="5.93558">
        <ele>635.09</ele>
        <time>2011-09-02T17:42:26Z</time>
      </trkpt>
      <trkpt lat="45.53736" lon="5.93558">
        <ele>634.61</ele>
        <time>2011-09-02T17:42:51Z</time>
      </trkpt>
      <trkpt lat="45.53738" lon="5.93558">
        <ele>635.09</ele>
        <time>2011-09-02T17:43:17Z</time>
      </trkpt>
      <trkpt lat="45.5374" lon="5.93559">
        <ele>634.61</ele>
        <time>2011-09-02T17:43:18Z</time>
      </trkpt>
      <trkpt lat="45.53743" lon="5.9356">
        <ele>634.13</ele>
        <time>2011-09-02T17:43:19Z</time>
      </trkpt>
      <trkpt lat="45.53745" lon="5.93561">
        <ele>634.13</ele>
        <time>2011-09-02T17:43:20Z</time>
      </trkpt>
      <trkpt lat="45.53748" lon="5.93561">
        <ele>633.17</ele>
        <time>2011-09-02T17:43:21Z</time>
      </trkpt>
      <trkpt lat="45.53754" lon="5.93567">
        <ele>630.76</ele>
        <time>2011-09-02T17:43:24Z</time>
      </trkpt>
      <trkpt lat="45.53764" lon="5.93574">
        <ele>627.4</ele>
        <time>2011-09-02T17:43:28Z</time>
      </trkpt>
      <trkpt lat="45.53774" lon="5.93579">
        <ele>624.03</ele>
        <time>2011-09-02T17:43:31Z</time>
      </trkpt>
      <trkpt lat="45.53779" lon="5.93586">
        <ele>623.55</ele>
        <time>2011-09-02T17:43:33Z</time>
      </trkpt>
      <trkpt lat="45.53785" lon="5.93609">
        <ele>626.92</ele>
        <time>2011-09-02T17:43:38Z</time>
      </trkpt>
      <trkpt lat="45.53787" lon="5.93612">
        <ele>627.4</ele>
        <time>2011-09-02T17:43:39Z</time>
      </trkpt>
      <trkpt lat="45.53787" lon="5.93633">
        <ele>629.8</ele>
        <time>2011-09-02T17:43:50Z</time>
      </trkpt>
      <trkpt lat="45.53793" lon="5.93632">
        <ele>631.72</ele>
        <time>2011-09-02T17:44:03Z</time>
      </trkpt>
      <trkpt lat="45.53795" lon="5.93627">
        <ele>633.65</ele>
        <time>2011-09-02T17:44:07Z</time>
      </trkpt>
      <trkpt lat="45.53799" lon="5.93624">
        <ele>634.61</ele>
        <time>2011-09-02T17:44:21Z</time>
      </trkpt>
      <trkpt lat="45.53802" lon="5.93625">
        <ele>634.13</ele>
        <time>2011-09-02T17:44:31Z</time>
      </trkpt>
      <trkpt lat="45.53805" lon="5.93627">
        <ele>633.65</ele>
        <time>2011-09-02T17:44:33Z</time>
      </trkpt>
      <trkpt lat="45.53809" lon="5.93629">
        <ele>633.17</ele>
        <time>2011-09-02T17:44:35Z</time>
      </trkpt>
      <trkpt lat="45.53825" lon="5.93637">
        <ele>629.8</ele>
        <time>2011-09-02T17:44:42Z</time>
      </trkpt>
      <trkpt lat="45.53838" lon="5.9365">
        <ele>627.4</ele>
        <time>2011-09-02T17:44:47Z</time>
      </trkpt>
      <trkpt lat="45.53847" lon="5.9368">
        <ele>630.28</ele>
        <time>2011-09-02T17:44:54Z</time>
      </trkpt>
      <trkpt lat="45.53855" lon="5.93692">
        <ele>633.65</ele>
        <time>2011-09-02T17:45:01Z</time>
      </trkpt>
      <trkpt lat="45.53856" lon="5.93693">
        <ele>633.65</ele>
        <time>2011-09-02T17:45:02Z</time>
      </trkpt>
      <trkpt lat="45.53862" lon="5.93699">
        <ele>635.57</ele>
        <time>2011-09-02T17:45:17Z</time>
      </trkpt>
      <trkpt lat="45.53865" lon="5.93707">
        <ele>638.93</ele>
        <time>2011-09-02T17:45:34Z</time>
      </trkpt>
      <trkpt lat="45.53868" lon="5.93716">
        <ele>640.86</ele>
        <time>2011-09-02T17:45:47Z</time>
      </trkpt>
      <trkpt lat="45.53869" lon="5.93716">
        <ele>640.86</ele>
        <time>2011-09-02T17:45:53Z</time>
      </trkpt>
      <trkpt lat="45.53877" lon="5.93716">
        <ele>640.38</ele>
        <time>2011-09-02T17:45:57Z</time>
      </trkpt>
      <trkpt lat="45.53898" lon="5.93714">
        <ele>639.89</ele>
        <time>2011-09-02T17:46:05Z</time>
      </trkpt>
      <trkpt lat="45.53923" lon="5.93724">
        <ele>639.41</ele>
        <time>2011-09-02T17:46:17Z</time>
      </trkpt>
      <trkpt lat="45.53927" lon="5.93723">
        <ele>639.41</ele>
        <time>2011-09-02T17:46:28Z</time>
      </trkpt>
      <trkpt lat="45.53929" lon="5.93723">
        <ele>638.93</ele>
        <time>2011-09-02T17:46:45Z</time>
      </trkpt>
      <trkpt lat="45.53932" lon="5.93724">
        <ele>638.93</ele>
        <time>2011-09-02T17:46:56Z</time>
      </trkpt>
      <trkpt lat="45.5393" lon="5.93733">
        <ele>638.93</ele>
        <time>2011-09-02T17:47:13Z</time>
      </trkpt>
      <trkpt lat="45.53931" lon="5.93745">
        <ele>640.86</ele>
        <time>2011-09-02T17:47:16Z</time>
      </trkpt>
      <trkpt lat="45.53949" lon="5.93779">
        <ele>637.97</ele>
        <time>2011-09-02T17:47:26Z</time>
      </trkpt>
      <trkpt lat="45.53952" lon="5.93781">
        <ele>637.97</ele>
        <time>2011-09-02T17:47:27Z</time>
      </trkpt>
      <trkpt lat="45.53986" lon="5.938">
        <ele>635.57</ele>
        <time>2011-09-02T17:47:35Z</time>
      </trkpt>
      <trkpt lat="45.53989" lon="5.93805">
        <ele>635.09</ele>
        <time>2011-09-02T17:47:36Z</time>
      </trkpt>
      <trkpt lat="45.53993" lon="5.9381">
        <ele>634.61</ele>
        <time>2011-09-02T17:47:37Z</time>
      </trkpt>
      <trkpt lat="45.54004" lon="5.93823">
        <ele>631.72</ele>
        <time>2011-09-02T17:47:40Z</time>
      </trkpt>
      <trkpt lat="45.54007" lon="5.93827">
        <ele>630.28</ele>
        <time>2011-09-02T17:47:41Z</time>
      </trkpt>
      <trkpt lat="45.54011" lon="5.9383">
        <ele>629.32</ele>
        <time>2011-09-02T17:47:42Z</time>
      </trkpt>
      <trkpt lat="45.54014" lon="5.93832">
        <ele>629.32</ele>
        <time>2011-09-02T17:47:43Z</time>
      </trkpt>
      <trkpt lat="45.54016" lon="5.93834">
        <ele>629.32</ele>
        <time>2011-09-02T17:47:44Z</time>
      </trkpt>
      <trkpt lat="45.54018" lon="5.93839">
        <ele>628.36</ele>
        <time>2011-09-02T17:47:45Z</time>
      </trkpt>
      <trkpt lat="45.5402" lon="5.93843">
        <ele>627.88</ele>
        <time>2011-09-02T17:47:46Z</time>
      </trkpt>
      <trkpt lat="45.54023" lon="5.93847">
        <ele>626.44</ele>
        <time>2011-09-02T17:47:47Z</time>
      </trkpt>
      <trkpt lat="45.54026" lon="5.9385">
        <ele>625.47</ele>
        <time>2011-09-02T17:47:48Z</time>
      </trkpt>
      <trkpt lat="45.5403" lon="5.93852">
        <ele>625.47</ele>
        <time>2011-09-02T17:47:49Z</time>
      </trkpt>
      <trkpt lat="45.54033" lon="5.93853">
        <ele>624.99</ele>
        <time>2011-09-02T17:47:50Z</time>
      </trkpt>
      <trkpt lat="45.54037" lon="5.93855">
        <ele>624.03</ele>
        <time>2011-09-02T17:47:51Z</time>
      </trkpt>
      <trkpt lat="45.54041" lon="5.93858">
        <ele>623.07</ele>
        <time>2011-09-02T17:47:52Z</time>
      </trkpt>
      <trkpt lat="45.54045" lon="5.9386">
        <ele>622.59</ele>
        <time>2011-09-02T17:47:53Z</time>
      </trkpt>
      <trkpt lat="45.54047" lon="5.93864">
        <ele>621.63</ele>
        <time>2011-09-02T17:47:54Z</time>
      </trkpt>
      <trkpt lat="45.54049" lon="5.93868">
        <ele>621.15</ele>
        <time>2011-09-02T17:47:55Z</time>
      </trkpt>
      <trkpt lat="45.5405" lon="5.93872">
        <ele>620.67</ele>
        <time>2011-09-02T17:47:56Z</time>
      </trkpt>
      <trkpt lat="45.54049" lon="5.93876">
        <ele>619.71</ele>
        <time>2011-09-02T17:47:57Z</time>
      </trkpt>
      <trkpt lat="45.54047" lon="5.93879">
        <ele>619.23</ele>
        <time>2011-09-02T17:47:58Z</time>
      </trkpt>
      <trkpt lat="45.54047" lon="5.93883">
        <ele>618.75</ele>
        <time>2011-09-02T17:47:59Z</time>
      </trkpt>
      <trkpt lat="45.54047" lon="5.93886">
        <ele>618.26</ele>
        <time>2011-09-02T17:48:00Z</time>
      </trkpt>
      <trkpt lat="45.54048" lon="5.93889">
        <ele>617.78</ele>
        <time>2011-09-02T17:48:01Z</time>
      </trkpt>
      <trkpt lat="45.54048" lon="5.93892">
        <ele>617.3</ele>
        <time>2011-09-02T17:48:02Z</time>
      </trkpt>
      <trkpt lat="45.54046" lon="5.93894">
        <ele>616.82</ele>
        <time>2011-09-02T17:48:03Z</time>
      </trkpt>
      <trkpt lat="45.54046" lon="5.93898">
        <ele>615.38</ele>
        <time>2011-09-02T17:48:05Z</time>
      </trkpt>
      <trkpt lat="45.54047" lon="5.93901">
        <ele>614.42</ele>
        <time>2011-09-02T17:48:06Z</time>
      </trkpt>
      <trkpt lat="45.54049" lon="5.93904">
        <ele>613.94</ele>
        <time>2011-09-02T17:48:07Z</time>
      </trkpt>
      <trkpt lat="45.54052" lon="5.93907">
        <ele>613.46</ele>
        <time>2011-09-02T17:48:08Z</time>
      </trkpt>
      <trkpt lat="45.54054" lon="5.93911">
        <ele>612.5</ele>
        <time>2011-09-02T17:48:09Z</time>
      </trkpt>
      <trkpt lat="45.54062" lon="5.93921">
        <ele>610.09</ele>
        <time>2011-09-02T17:48:12Z</time>
      </trkpt>
      <trkpt lat="45.54069" lon="5.93922">
        <ele>607.69</ele>
        <time>2011-09-02T17:48:15Z</time>
      </trkpt>
      <trkpt lat="45.54071" lon="5.93922">
        <ele>606.73</ele>
        <time>2011-09-02T17:48:16Z</time>
      </trkpt>
      <trkpt lat="45.54074" lon="5.93922">
        <ele>606.73</ele>
        <time>2011-09-02T17:48:17Z</time>
      </trkpt>
      <trkpt lat="45.54076" lon="5.93924">
        <ele>605.77</ele>
        <time>2011-09-02T17:48:18Z</time>
      </trkpt>
      <trkpt lat="45.54077" lon="5.93925">
        <ele>604.81</ele>
        <time>2011-09-02T17:48:19Z</time>
      </trkpt>
      <trkpt lat="45.54078" lon="5.93926">
        <ele>603.85</ele>
        <time>2011-09-02T17:48:20Z</time>
      </trkpt>
      <trkpt lat="45.5408" lon="5.93926">
        <ele>603.36</ele>
        <time>2011-09-02T17:48:21Z</time>
      </trkpt>
      <trkpt lat="45.54082" lon="5.93926">
        <ele>603.36</ele>
        <time>2011-09-02T17:48:22Z</time>
      </trkpt>
      <trkpt lat="45.54086" lon="5.93925">
        <ele>601.44</ele>
        <time>2011-09-02T17:48:26Z</time>
      </trkpt>
      <trkpt lat="45.54088" lon="5.93925">
        <ele>600.48</ele>
        <time>2011-09-02T17:48:27Z</time>
      </trkpt>
      <trkpt lat="45.54093" lon="5.93927">
        <ele>599.04</ele>
        <time>2011-09-02T17:48:28Z</time>
      </trkpt>
      <trkpt lat="45.54097" lon="5.9393">
        <ele>598.08</ele>
        <time>2011-09-02T17:48:29Z</time>
      </trkpt>
      <trkpt lat="45.541" lon="5.93935">
        <ele>597.12</ele>
        <time>2011-09-02T17:48:30Z</time>
      </trkpt>
      <trkpt lat="45.54102" lon="5.93939">
        <ele>597.12</ele>
        <time>2011-09-02T17:48:31Z</time>
      </trkpt>
      <trkpt lat="45.54105" lon="5.93943">
        <ele>595.67</ele>
        <time>2011-09-02T17:48:32Z</time>
      </trkpt>
      <trkpt lat="45.54118" lon="5.93956">
        <ele>591.83</ele>
        <time>2011-09-02T17:48:36Z</time>
      </trkpt>
      <trkpt lat="45.54121" lon="5.93956">
        <ele>591.35</ele>
        <time>2011-09-02T17:48:37Z</time>
      </trkpt>
      <trkpt lat="45.54123" lon="5.93955">
        <ele>590.87</ele>
        <time>2011-09-02T17:48:38Z</time>
      </trkpt>
      <trkpt lat="45.54126" lon="5.93954">
        <ele>590.39</ele>
        <time>2011-09-02T17:48:39Z</time>
      </trkpt>
      <trkpt lat="45.54138" lon="5.93953">
        <ele>587.02</ele>
        <time>2011-09-02T17:48:43Z</time>
      </trkpt>
      <trkpt lat="45.54142" lon="5.93956">
        <ele>587.02</ele>
        <time>2011-09-02T17:48:44Z</time>
      </trkpt>
      <trkpt lat="45.54173" lon="5.93976">
        <ele>587.02</ele>
        <time>2011-09-02T17:48:54Z</time>
      </trkpt>
      <trkpt lat="45.54173" lon="5.93976">
        <ele>587.02</ele>
        <time>2011-09-02T17:49:28Z</time>
      </trkpt>
      <trkpt lat="45.54173" lon="5.93976">
        <ele>587.02</ele>
        <time>2011-09-02T17:50:11Z</time>
      </trkpt>
      <trkpt lat="45.54173" lon="5.93976">
        <ele>586.54</ele>
        <time>2011-09-02T17:50:50Z</time>
      </trkpt>
      <trkpt lat="45.54174" lon="5.93974">
        <ele>586.54</ele>
        <time>2011-09-02T17:51:34Z</time>
      </trkpt>
      <trkpt lat="45.54174" lon="5.93974">
        <ele>586.06</ele>
        <time>2011-09-02T17:51:52Z</time>
      </trkpt>
      <trkpt lat="45.54176" lon="5.93977">
        <ele>585.58</ele>
        <time>2011-09-02T17:51:54Z</time>
      </trkpt>
      <trkpt lat="45.5418" lon="5.93982">
        <ele>584.14</ele>
        <time>2011-09-02T17:51:56Z</time>
      </trkpt>
      <trkpt lat="45.54186" lon="5.93991">
        <ele>580.77</ele>
        <time>2011-09-02T17:51:59Z</time>
      </trkpt>
      <trkpt lat="45.54194" lon="5.93993">
        <ele>578.85</ele>
        <time>2011-09-02T17:52:03Z</time>
      </trkpt>
      <trkpt lat="45.54201" lon="5.93993">
        <ele>573.56</ele>
        <time>2011-09-02T17:52:08Z</time>
      </trkpt>
      <trkpt lat="45.54206" lon="5.93996">
        <ele>572.12</ele>
        <time>2011-09-02T17:52:11Z</time>
      </trkpt>
      <trkpt lat="45.54234" lon="5.94014">
        <ele>572.6</ele>
        <time>2011-09-02T17:52:19Z</time>
      </trkpt>
      <trkpt lat="45.54242" lon="5.94023">
        <ele>571.16</ele>
        <time>2011-09-02T17:52:23Z</time>
      </trkpt>
      <trkpt lat="45.54259" lon="5.94042">
        <ele>566.83</ele>
        <time>2011-09-02T17:52:29Z</time>
      </trkpt>
      <trkpt lat="45.54271" lon="5.94051">
        <ele>563.95</ele>
        <time>2011-09-02T17:52:33Z</time>
      </trkpt>
      <trkpt lat="45.54283" lon="5.94057">
        <ele>560.11</ele>
        <time>2011-09-02T17:52:37Z</time>
      </trkpt>
      <trkpt lat="45.54305" lon="5.94068">
        <ele>557.22</ele>
        <time>2011-09-02T17:52:42Z</time>
      </trkpt>
      <trkpt lat="45.54315" lon="5.94081">
        <ele>553.38</ele>
        <time>2011-09-02T17:52:46Z</time>
      </trkpt>
      <trkpt lat="45.54318" lon="5.94084">
        <ele>553.38</ele>
        <time>2011-09-02T17:52:47Z</time>
      </trkpt>
      <trkpt lat="45.54326" lon="5.94099">
        <ele>550.01</ele>
        <time>2011-09-02T17:52:51Z</time>
      </trkpt>
      <trkpt lat="45.54327" lon="5.94105">
        <ele>549.53</ele>
        <time>2011-09-02T17:52:52Z</time>
      </trkpt>
      <trkpt lat="45.54334" lon="5.94119">
        <ele>547.61</ele>
        <time>2011-09-02T17:52:55Z</time>
      </trkpt>
      <trkpt lat="45.54343" lon="5.94126">
        <ele>546.17</ele>
        <time>2011-09-02T17:52:58Z</time>
      </trkpt>
      <trkpt lat="45.54367" lon="5.94126">
        <ele>542.8</ele>
        <time>2011-09-02T17:53:04Z</time>
      </trkpt>
      <trkpt lat="45.54377" lon="5.94123">
        <ele>539.44</ele>
        <time>2011-09-02T17:53:08Z</time>
      </trkpt>
      <trkpt lat="45.54386" lon="5.94124">
        <ele>536.07</ele>
        <time>2011-09-02T17:53:11Z</time>
      </trkpt>
      <trkpt lat="45.54389" lon="5.94125">
        <ele>536.07</ele>
        <time>2011-09-02T17:53:12Z</time>
      </trkpt>
      <trkpt lat="45.54405" lon="5.94134">
        <ele>532.23</ele>
        <time>2011-09-02T17:53:17Z</time>
      </trkpt>
      <trkpt lat="45.54411" lon="5.94136">
        <ele>530.79</ele>
        <time>2011-09-02T17:53:19Z</time>
      </trkpt>
      <trkpt lat="45.54425" lon="5.94144">
        <ele>527.42</ele>
        <time>2011-09-02T17:53:22Z</time>
      </trkpt>
      <trkpt lat="45.54431" lon="5.94152">
        <ele>524.54</ele>
        <time>2011-09-02T17:53:25Z</time>
      </trkpt>
      <trkpt lat="45.54438" lon="5.94161">
        <ele>524.06</ele>
        <time>2011-09-02T17:53:36Z</time>
      </trkpt>
      <trkpt lat="45.5444" lon="5.94164">
        <ele>524.06</ele>
        <time>2011-09-02T17:53:52Z</time>
      </trkpt>
      <trkpt lat="45.5444" lon="5.94164">
        <ele>523.58</ele>
        <time>2011-09-02T17:54:13Z</time>
      </trkpt>
      <trkpt lat="45.5444" lon="5.94164">
        <ele>523.09</ele>
        <time>2011-09-02T17:54:45Z</time>
      </trkpt>
      <trkpt lat="45.5444" lon="5.94164">
        <ele>523.09</ele>
        <time>2011-09-02T17:55:02Z</time>
      </trkpt>
      <trkpt lat="45.5444" lon="5.94164">
        <ele>523.09</ele>
        <time>2011-09-02T17:55:27Z</time>
      </trkpt>
      <trkpt lat="45.5444" lon="5.94164">
        <ele>522.61</ele>
        <time>2011-09-02T17:55:47Z</time>
      </trkpt>
      <trkpt lat="45.5444" lon="5.94164">
        <ele>522.61</ele>
        <time>2011-09-02T17:55:51Z</time>
      </trkpt>
      <trkpt lat="45.54437" lon="5.94179">
        <ele>522.13</ele>
        <time>2011-09-02T17:55:57Z</time>
      </trkpt>
      <trkpt lat="45.5444" lon="5.94218">
        <ele>518.77</ele>
        <time>2011-09-02T17:56:04Z</time>
      </trkpt>
      <trkpt lat="45.54443" lon="5.94234">
        <ele>517.33</ele>
        <time>2011-09-02T17:56:07Z</time>
      </trkpt>
      <trkpt lat="45.54486" lon="5.94247">
        <ele>513.96</ele>
        <time>2011-09-02T17:56:17Z</time>
      </trkpt>
      <trkpt lat="45.54506" lon="5.94244">
        <ele>511.56</ele>
        <time>2011-09-02T17:56:20Z</time>
      </trkpt>
      <trkpt lat="45.54513" lon="5.94242">
        <ele>510.6</ele>
        <time>2011-09-02T17:56:21Z</time>
      </trkpt>
      <trkpt lat="45.54519" lon="5.94241">
        <ele>510.12</ele>
        <time>2011-09-02T17:56:22Z</time>
      </trkpt>
      <trkpt lat="45.5453" lon="5.94237">
        <ele>508.67</ele>
        <time>2011-09-02T17:56:24Z</time>
      </trkpt>
      <trkpt lat="45.54555" lon="5.94245">
        <ele>505.31</ele>
        <time>2011-09-02T17:56:28Z</time>
      </trkpt>
      <trkpt lat="45.5457" lon="5.94251">
        <ele>502.91</ele>
        <time>2011-09-02T17:56:32Z</time>
      </trkpt>
      <trkpt lat="45.54571" lon="5.94254">
        <ele>502.43</ele>
        <time>2011-09-02T17:56:33Z</time>
      </trkpt>
      <trkpt lat="45.54569" lon="5.94257">
        <ele>501.46</ele>
        <time>2011-09-02T17:56:34Z</time>
      </trkpt>
      <trkpt lat="45.54566" lon="5.9426">
        <ele>501.46</ele>
        <time>2011-09-02T17:56:35Z</time>
      </trkpt>
      <trkpt lat="45.54562" lon="5.94264">
        <ele>500.02</ele>
        <time>2011-09-02T17:56:36Z</time>
      </trkpt>
      <trkpt lat="45.54551" lon="5.94273">
        <ele>497.62</ele>
        <time>2011-09-02T17:56:38Z</time>
      </trkpt>
      <trkpt lat="45.54548" lon="5.94278">
        <ele>495.7</ele>
        <time>2011-09-02T17:56:39Z</time>
      </trkpt>
      <trkpt lat="45.54554" lon="5.94288">
        <ele>493.77</ele>
        <time>2011-09-02T17:56:43Z</time>
      </trkpt>
      <trkpt lat="45.54558" lon="5.9429">
        <ele>492.81</ele>
        <time>2011-09-02T17:56:44Z</time>
      </trkpt>
      <trkpt lat="45.54563" lon="5.94292">
        <ele>492.33</ele>
        <time>2011-09-02T17:56:45Z</time>
      </trkpt>
      <trkpt lat="45.54568" lon="5.94293">
        <ele>491.37</ele>
        <time>2011-09-02T17:56:46Z</time>
      </trkpt>
      <trkpt lat="45.54572" lon="5.94294">
        <ele>489.93</ele>
        <time>2011-09-02T17:56:47Z</time>
      </trkpt>
      <trkpt lat="45.54576" lon="5.94294">
        <ele>489.93</ele>
        <time>2011-09-02T17:56:48Z</time>
      </trkpt>
      <trkpt lat="45.54579" lon="5.94294">
        <ele>488.97</ele>
        <time>2011-09-02T17:56:49Z</time>
      </trkpt>
      <trkpt lat="45.54583" lon="5.94294">
        <ele>488.01</ele>
        <time>2011-09-02T17:56:50Z</time>
      </trkpt>
      <trkpt lat="45.54586" lon="5.94293">
        <ele>487.53</ele>
        <time>2011-09-02T17:56:51Z</time>
      </trkpt>
      <trkpt lat="45.54589" lon="5.94292">
        <ele>486.08</ele>
        <time>2011-09-02T17:56:52Z</time>
      </trkpt>
      <trkpt lat="45.54591" lon="5.94291">
        <ele>485.12</ele>
        <time>2011-09-02T17:56:53Z</time>
      </trkpt>
      <trkpt lat="45.54603" lon="5.94293">
        <ele>481.76</ele>
        <time>2011-09-02T17:56:57Z</time>
      </trkpt>
      <trkpt lat="45.54615" lon="5.94301">
        <ele>478.39</ele>
        <time>2011-09-02T17:57:00Z</time>
      </trkpt>
      <trkpt lat="45.54618" lon="5.94305">
        <ele>478.39</ele>
        <time>2011-09-02T17:57:01Z</time>
      </trkpt>
      <trkpt lat="45.54622" lon="5.94309">
        <ele>477.91</ele>
        <time>2011-09-02T17:57:02Z</time>
      </trkpt>
      <trkpt lat="45.54627" lon="5.94316">
        <ele>476.95</ele>
        <time>2011-09-02T17:57:04Z</time>
      </trkpt>
      <trkpt lat="45.54631" lon="5.94318">
        <ele>477.43</ele>
        <time>2011-09-02T17:57:07Z</time>
      </trkpt>
      <trkpt lat="45.54631" lon="5.94318">
        <ele>476.47</ele>
        <time>2011-09-02T17:57:35Z</time>
      </trkpt>
      <trkpt lat="45.54631" lon="5.9432">
        <ele>475.99</ele>
        <time>2011-09-02T17:58:05Z</time>
      </trkpt>
      <trkpt lat="45.54633" lon="5.94321">
        <ele>475.51</ele>
        <time>2011-09-02T17:58:36Z</time>
      </trkpt>
      <trkpt lat="45.54636" lon="5.94323">
        <ele>474.55</ele>
        <time>2011-09-02T17:58:55Z</time>
      </trkpt>
      <trkpt lat="45.54646" lon="5.94335">
        <ele>471.18</ele>
        <time>2011-09-02T17:58:59Z</time>
      </trkpt>
      <trkpt lat="45.54657" lon="5.94345">
        <ele>467.82</ele>
        <time>2011-09-02T17:59:04Z</time>
      </trkpt>
      <trkpt lat="45.54661" lon="5.94352">
        <ele>465.9</ele>
        <time>2011-09-02T17:59:06Z</time>
      </trkpt>
      <trkpt lat="45.54662" lon="5.94359">
        <ele>465.9</ele>
        <time>2011-09-02T17:59:07Z</time>
      </trkpt>
      <trkpt lat="45.54662" lon="5.94365">
        <ele>465.42</ele>
        <time>2011-09-02T17:59:08Z</time>
      </trkpt>
      <trkpt lat="45.54662" lon="5.9437">
        <ele>465.42</ele>
        <time>2011-09-02T17:59:09Z</time>
      </trkpt>
      <trkpt lat="45.54663" lon="5.94372">
        <ele>464.93</ele>
        <time>2011-09-02T17:59:10Z</time>
      </trkpt>
      <trkpt lat="45.54665" lon="5.94374">
        <ele>463.97</ele>
        <time>2011-09-02T17:59:11Z</time>
      </trkpt>
      <trkpt lat="45.5468" lon="5.94379">
        <ele>460.61</ele>
        <time>2011-09-02T17:59:16Z</time>
      </trkpt>
      <trkpt lat="45.54684" lon="5.94384">
        <ele>459.17</ele>
        <time>2011-09-02T17:59:17Z</time>
      </trkpt>
      <trkpt lat="45.54689" lon="5.94391">
        <ele>458.21</ele>
        <time>2011-09-02T17:59:18Z</time>
      </trkpt>
      <trkpt lat="45.54693" lon="5.94398">
        <ele>457.24</ele>
        <time>2011-09-02T17:59:19Z</time>
      </trkpt>
      <trkpt lat="45.54698" lon="5.94405">
        <ele>456.28</ele>
        <time>2011-09-02T17:59:20Z</time>
      </trkpt>
      <trkpt lat="45.54703" lon="5.9441">
        <ele>455.32</ele>
        <time>2011-09-02T17:59:21Z</time>
      </trkpt>
      <trkpt lat="45.54706" lon="5.94414">
        <ele>454.84</ele>
        <time>2011-09-02T17:59:22Z</time>
      </trkpt>
      <trkpt lat="45.5471" lon="5.94418">
        <ele>453.4</ele>
        <time>2011-09-02T17:59:23Z</time>
      </trkpt>
      <trkpt lat="45.54713" lon="5.94423">
        <ele>452.92</ele>
        <time>2011-09-02T17:59:24Z</time>
      </trkpt>
      <trkpt lat="45.5472" lon="5.94438">
        <ele>450.03</ele>
        <time>2011-09-02T17:59:26Z</time>
      </trkpt>
      <trkpt lat="45.54723" lon="5.94443">
        <ele>449.55</ele>
        <time>2011-09-02T17:59:27Z</time>
      </trkpt>
      <trkpt lat="45.54727" lon="5.94446">
        <ele>449.07</ele>
        <time>2011-09-02T17:59:28Z</time>
      </trkpt>
      <trkpt lat="45.54737" lon="5.9445">
        <ele>445.71</ele>
        <time>2011-09-02T17:59:31Z</time>
      </trkpt>
      <trkpt lat="45.54746" lon="5.9445">
        <ele>441.86</ele>
        <time>2011-09-02T17:59:34Z</time>
      </trkpt>
      <trkpt lat="45.54757" lon="5.94442">
        <ele>439.94</ele>
        <time>2011-09-02T17:59:38Z</time>
      </trkpt>
      <trkpt lat="45.5476" lon="5.94438">
        <ele>438.98</ele>
        <time>2011-09-02T17:59:40Z</time>
      </trkpt>
      <trkpt lat="45.54763" lon="5.94435">
        <ele>437.54</ele>
        <time>2011-09-02T17:59:52Z</time>
      </trkpt>
      <trkpt lat="45.54764" lon="5.94433">
        <ele>438.02</ele>
        <time>2011-09-02T18:00:04Z</time>
      </trkpt>
      <trkpt lat="45.54763" lon="5.94431">
        <ele>438.02</ele>
        <time>2011-09-02T18:00:05Z</time>
      </trkpt>
      <trkpt lat="45.54762" lon="5.94429">
        <ele>438.02</ele>
        <time>2011-09-02T18:00:06Z</time>
      </trkpt>
      <trkpt lat="45.54761" lon="5.94428">
        <ele>438.5</ele>
        <time>2011-09-02T18:00:07Z</time>
      </trkpt>
      <trkpt lat="45.5476" lon="5.94426">
        <ele>438.5</ele>
        <time>2011-09-02T18:00:08Z</time>
      </trkpt>
      <trkpt lat="45.54757" lon="5.94422">
        <ele>438.98</ele>
        <time>2011-09-02T18:00:18Z</time>
      </trkpt>
      <trkpt lat="45.54756" lon="5.94417">
        <ele>438.98</ele>
        <time>2011-09-02T18:00:31Z</time>
      </trkpt>
      <trkpt lat="45.54756" lon="5.94417">
        <ele>438.02</ele>
        <time>2011-09-02T18:00:55Z</time>
      </trkpt>
      <trkpt lat="45.54755" lon="5.94414">
        <ele>438.02</ele>
        <time>2011-09-02T18:01:10Z</time>
      </trkpt>
      <trkpt lat="45.54754" lon="5.94413">
        <ele>438.5</ele>
        <time>2011-09-02T18:01:11Z</time>
      </trkpt>
      <trkpt lat="45.54734" lon="5.94388">
        <ele>438.98</ele>
        <time>2011-09-02T18:01:23Z</time>
      </trkpt>
      <trkpt lat="45.5471" lon="5.94347">
        <ele>439.94</ele>
        <time>2011-09-02T18:01:36Z</time>
      </trkpt>
      <trkpt lat="45.5469" lon="5.94306">
        <ele>442.34</ele>
        <time>2011-09-02T18:01:49Z</time>
      </trkpt>
      <trkpt lat="45.54672" lon="5.94266">
        <ele>443.79</ele>
        <time>2011-09-02T18:02:04Z</time>
      </trkpt>
      <trkpt lat="45.54654" lon="5.94225">
        <ele>446.67</ele>
        <time>2011-09-02T18:02:18Z</time>
      </trkpt>
      <trkpt lat="45.54641" lon="5.94188">
        <ele>447.63</ele>
        <time>2011-09-02T18:02:34Z</time>
      </trkpt>
      <trkpt lat="45.54638" lon="5.9418">
        <ele>447.63</ele>
        <time>2011-09-02T18:02:50Z</time>
      </trkpt>
      <trkpt lat="45.54638" lon="5.9418">
        <ele>447.15</ele>
        <time>2011-09-02T18:03:14Z</time>
      </trkpt>
      <trkpt lat="45.5464" lon="5.94186">
        <ele>447.15</ele>
        <time>2011-09-02T18:03:34Z</time>
      </trkpt>
      <trkpt lat="45.54641" lon="5.94187">
        <ele>447.15</ele>
        <time>2011-09-02T18:03:56Z</time>
      </trkpt>
      <trkpt lat="45.54641" lon="5.94189">
        <ele>446.67</ele>
        <time>2011-09-02T18:04:01Z</time>
      </trkpt>
      <trkpt lat="45.54641" lon="5.94191">
        <ele>447.15</ele>
        <time>2011-09-02T18:04:02Z</time>
      </trkpt>
      <trkpt lat="45.54642" lon="5.94194">
        <ele>447.15</ele>
        <time>2011-09-02T18:04:03Z</time>
      </trkpt>
      <trkpt lat="45.54654" lon="5.94234">
        <ele>446.67</ele>
        <time>2011-09-02T18:04:18Z</time>
      </trkpt>
      <trkpt lat="45.54672" lon="5.94276">
        <ele>443.31</ele>
        <time>2011-09-02T18:04:30Z</time>
      </trkpt>
      <trkpt lat="45.54698" lon="5.94333">
        <ele>440.42</ele>
        <time>2011-09-02T18:04:40Z</time>
      </trkpt>
      <trkpt lat="45.54717" lon="5.94371">
        <ele>438.5</ele>
        <time>2011-09-02T18:04:46Z</time>
      </trkpt>
      <trkpt lat="45.54751" lon="5.94417">
        <ele>437.54</ele>
        <time>2011-09-02T18:04:57Z</time>
      </trkpt>
      <trkpt lat="45.54755" lon="5.94422">
        <ele>437.06</ele>
        <time>2011-09-02T18:05:07Z</time>
      </trkpt>
      <trkpt lat="45.54759" lon="5.94426">
        <ele>436.1</ele>
        <time>2011-09-02T18:05:21Z</time>
      </trkpt>
      <trkpt lat="45.5476" lon="5.94428">
        <ele>436.1</ele>
        <time>2011-09-02T18:05:28Z</time>
      </trkpt>
      <trkpt lat="45.54762" lon="5.94428">
        <ele>436.1</ele>
        <time>2011-09-02T18:05:29Z</time>
      </trkpt>
      <trkpt lat="45.54763" lon="5.94428">
        <ele>436.1</ele>
        <time>2011-09-02T18:05:30Z</time>
      </trkpt>
      <trkpt lat="45.54765" lon="5.94428">
        <ele>435.61</ele>
        <time>2011-09-02T18:05:31Z</time>
      </trkpt>
      <trkpt lat="45.54767" lon="5.94427">
        <ele>435.61</ele>
        <time>2011-09-02T18:05:32Z</time>
      </trkpt>
      <trkpt lat="45.54769" lon="5.94426">
        <ele>435.61</ele>
        <time>2011-09-02T18:05:33Z</time>
      </trkpt>
      <trkpt lat="45.54785" lon="5.94427">
        <ele>432.73</ele>
        <time>2011-09-02T18:05:38Z</time>
      </trkpt>
      <trkpt lat="45.54791" lon="5.94431">
        <ele>431.77</ele>
        <time>2011-09-02T18:05:40Z</time>
      </trkpt>
      <trkpt lat="45.54807" lon="5.94444">
        <ele>428.4</ele>
        <time>2011-09-02T18:05:46Z</time>
      </trkpt>
      <trkpt lat="45.5481" lon="5.94467">
        <ele>425.52</ele>
        <time>2011-09-02T18:05:52Z</time>
      </trkpt>
      <trkpt lat="45.5481" lon="5.94471">
        <ele>425.52</ele>
        <time>2011-09-02T18:05:53Z</time>
      </trkpt>
      <trkpt lat="45.54813" lon="5.94481">
        <ele>424.08</ele>
        <time>2011-09-02T18:05:56Z</time>
      </trkpt>
      <trkpt lat="45.54815" lon="5.94482">
        <ele>423.12</ele>
        <time>2011-09-02T18:05:57Z</time>
      </trkpt>
      <trkpt lat="45.54817" lon="5.94482">
        <ele>423.12</ele>
        <time>2011-09-02T18:05:58Z</time>
      </trkpt>
      <trkpt lat="45.54819" lon="5.94481">
        <ele>422.64</ele>
        <time>2011-09-02T18:05:59Z</time>
      </trkpt>
      <trkpt lat="45.54821" lon="5.9448">
        <ele>422.64</ele>
        <time>2011-09-02T18:06:00Z</time>
      </trkpt>
      <trkpt lat="45.54827" lon="5.94476">
        <ele>421.68</ele>
        <time>2011-09-02T18:06:02Z</time>
      </trkpt>
      <trkpt lat="45.54839" lon="5.94463">
        <ele>418.31</ele>
        <time>2011-09-02T18:06:07Z</time>
      </trkpt>
      <trkpt lat="45.54841" lon="5.94461">
        <ele>418.31</ele>
        <time>2011-09-02T18:06:08Z</time>
      </trkpt>
      <trkpt lat="45.54847" lon="5.94453">
        <ele>416.39</ele>
        <time>2011-09-02T18:06:11Z</time>
      </trkpt>
      <trkpt lat="45.5485" lon="5.94435">
        <ele>413.02</ele>
        <time>2011-09-02T18:06:15Z</time>
      </trkpt>
      <trkpt lat="45.54849" lon="5.94422">
        <ele>411.58</ele>
        <time>2011-09-02T18:06:18Z</time>
      </trkpt>
      <trkpt lat="45.54845" lon="5.9439">
        <ele>407.26</ele>
        <time>2011-09-02T18:06:23Z</time>
      </trkpt>
      <trkpt lat="45.54843" lon="5.94367">
        <ele>405.81</ele>
        <time>2011-09-02T18:06:26Z</time>
      </trkpt>
      <trkpt lat="45.54842" lon="5.94353">
        <ele>403.89</ele>
        <time>2011-09-02T18:06:28Z</time>
      </trkpt>
      <trkpt lat="45.54841" lon="5.94347">
        <ele>403.89</ele>
        <time>2011-09-02T18:06:29Z</time>
      </trkpt>
      <trkpt lat="45.54839" lon="5.94341">
        <ele>402.45</ele>
        <time>2011-09-02T18:06:30Z</time>
      </trkpt>
      <trkpt lat="45.54831" lon="5.94314">
        <ele>399.08</ele>
        <time>2011-09-02T18:06:34Z</time>
      </trkpt>
      <trkpt lat="45.54826" lon="5.943">
        <ele>397.64</ele>
        <time>2011-09-02T18:06:37Z</time>
      </trkpt>
      <trkpt lat="45.5482" lon="5.94271">
        <ele>393.32</ele>
        <time>2011-09-02T18:06:48Z</time>
      </trkpt>
      <trkpt lat="45.54822" lon="5.94249">
        <ele>389.95</ele>
        <time>2011-09-02T18:06:53Z</time>
      </trkpt>
      <trkpt lat="45.54821" lon="5.94242">
        <ele>390.43</ele>
        <time>2011-09-02T18:06:54Z</time>
      </trkpt>
      <trkpt lat="45.54822" lon="5.94206">
        <ele>391.39</ele>
        <time>2011-09-02T18:07:06Z</time>
      </trkpt>
      <trkpt lat="45.54822" lon="5.94206">
        <ele>385.63</ele>
        <time>2011-09-02T18:07:14Z</time>
      </trkpt>
      <trkpt lat="45.54822" lon="5.94206">
        <ele>385.63</ele>
        <time>2011-09-02T18:07:15Z</time>
      </trkpt>
      <trkpt lat="45.54822" lon="5.94206">
        <ele>391.39</ele>
        <time>2011-09-02T18:07:21Z</time>
      </trkpt>
      <trkpt lat="45.54822" lon="5.94206">
        <ele>390.91</ele>
        <time>2011-09-02T18:07:22Z</time>
      </trkpt>
      <trkpt lat="45.54819" lon="5.94204">
        <ele>391.87</ele>
        <time>2011-09-02T18:07:32Z</time>
      </trkpt>
      <trkpt lat="45.54818" lon="5.94204">
        <ele>391.87</ele>
        <time>2011-09-02T18:07:33Z</time>
      </trkpt>
      <trkpt lat="45.54798" lon="5.94185">
        <ele>395.72</ele>
        <time>2011-09-02T18:07:45Z</time>
      </trkpt>
      <trkpt lat="45.54778" lon="5.94169">
        <ele>399.08</ele>
        <time>2011-09-02T18:07:57Z</time>
      </trkpt>
      <trkpt lat="45.54762" lon="5.94155">
        <ele>401.97</ele>
        <time>2011-09-02T18:08:08Z</time>
      </trkpt>
      <trkpt lat="45.54741" lon="5.94147">
        <ele>405.33</ele>
        <time>2011-09-02T18:08:23Z</time>
      </trkpt>
      <trkpt lat="45.54724" lon="5.94143">
        <ele>408.22</ele>
        <time>2011-09-02T18:08:35Z</time>
      </trkpt>
      <trkpt lat="45.54721" lon="5.94142">
        <ele>408.22</ele>
        <time>2011-09-02T18:08:37Z</time>
      </trkpt>
      <trkpt lat="45.5472" lon="5.9414">
        <ele>408.7</ele>
        <time>2011-09-02T18:08:38Z</time>
      </trkpt>
      <trkpt lat="45.54705" lon="5.94123">
        <ele>412.06</ele>
        <time>2011-09-02T18:08:52Z</time>
      </trkpt>
      <trkpt lat="45.54696" lon="5.94101">
        <ele>413.98</ele>
        <time>2011-09-02T18:09:05Z</time>
      </trkpt>
      <trkpt lat="45.54688" lon="5.94081">
        <ele>415.91</ele>
        <time>2011-09-02T18:09:16Z</time>
      </trkpt>
      <trkpt lat="45.54688" lon="5.94078">
        <ele>415.91</ele>
        <time>2011-09-02T18:09:17Z</time>
      </trkpt>
      <trkpt lat="45.54677" lon="5.94045">
        <ele>417.83</ele>
        <time>2011-09-02T18:09:33Z</time>
      </trkpt>
      <trkpt lat="45.54665" lon="5.94013">
        <ele>419.75</ele>
        <time>2011-09-02T18:09:49Z</time>
      </trkpt>
      <trkpt lat="45.54652" lon="5.93991">
        <ele>422.16</ele>
        <time>2011-09-02T18:10:02Z</time>
      </trkpt>
      <trkpt lat="45.54651" lon="5.9399">
        <ele>422.64</ele>
        <time>2011-09-02T18:10:03Z</time>
      </trkpt>
      <trkpt lat="45.5465" lon="5.9399">
        <ele>423.12</ele>
        <time>2011-09-02T18:10:04Z</time>
      </trkpt>
      <trkpt lat="45.54649" lon="5.93989">
        <ele>423.6</ele>
        <time>2011-09-02T18:10:05Z</time>
      </trkpt>
      <trkpt lat="45.54647" lon="5.93989">
        <ele>423.6</ele>
        <time>2011-09-02T18:10:06Z</time>
      </trkpt>
      <trkpt lat="45.54646" lon="5.93988">
        <ele>423.6</ele>
        <time>2011-09-02T18:10:07Z</time>
      </trkpt>
      <trkpt lat="45.54638" lon="5.93986">
        <ele>425.52</ele>
        <time>2011-09-02T18:10:11Z</time>
      </trkpt>
      <trkpt lat="45.54637" lon="5.93985">
        <ele>426</ele>
        <time>2011-09-02T18:10:12Z</time>
      </trkpt>
      <trkpt lat="45.54633" lon="5.93982">
        <ele>426.48</ele>
        <time>2011-09-02T18:10:15Z</time>
      </trkpt>
      <trkpt lat="45.54632" lon="5.93981">
        <ele>426.48</ele>
        <time>2011-09-02T18:10:16Z</time>
      </trkpt>
      <trkpt lat="45.5463" lon="5.9398">
        <ele>426.96</ele>
        <time>2011-09-02T18:10:17Z</time>
      </trkpt>
      <trkpt lat="45.54629" lon="5.93979">
        <ele>426.96</ele>
        <time>2011-09-02T18:10:18Z</time>
      </trkpt>
      <trkpt lat="45.54628" lon="5.93979">
        <ele>427.92</ele>
        <time>2011-09-02T18:10:19Z</time>
      </trkpt>
      <trkpt lat="45.54627" lon="5.93978">
        <ele>427.44</ele>
        <time>2011-09-02T18:10:20Z</time>
      </trkpt>
      <trkpt lat="45.54625" lon="5.93977">
        <ele>427.44</ele>
        <time>2011-09-02T18:10:21Z</time>
      </trkpt>
      <trkpt lat="45.54607" lon="5.93966">
        <ele>430.33</ele>
        <time>2011-09-02T18:10:35Z</time>
      </trkpt>
      <trkpt lat="45.54588" lon="5.93952">
        <ele>431.29</ele>
        <time>2011-09-02T18:10:48Z</time>
      </trkpt>
      <trkpt lat="45.54552" lon="5.93923">
        <ele>432.25</ele>
        <time>2011-09-02T18:11:03Z</time>
      </trkpt>
      <trkpt lat="45.54522" lon="5.93895">
        <ele>433.69</ele>
        <time>2011-09-02T18:11:15Z</time>
      </trkpt>
      <trkpt lat="45.5449" lon="5.93872">
        <ele>431.77</ele>
        <time>2011-09-02T18:11:24Z</time>
      </trkpt>
      <trkpt lat="45.54487" lon="5.93868">
        <ele>432.25</ele>
        <time>2011-09-02T18:11:25Z</time>
      </trkpt>
      <trkpt lat="45.54484" lon="5.93864">
        <ele>432.25</ele>
        <time>2011-09-02T18:11:26Z</time>
      </trkpt>
      <trkpt lat="45.54453" lon="5.93827">
        <ele>433.21</ele>
        <time>2011-09-02T18:11:38Z</time>
      </trkpt>
      <trkpt lat="45.54424" lon="5.93804">
        <ele>434.17</ele>
        <time>2011-09-02T18:11:51Z</time>
      </trkpt>
      <trkpt lat="45.54424" lon="5.93802">
        <ele>434.17</ele>
        <time>2011-09-02T18:11:52Z</time>
      </trkpt>
      <trkpt lat="45.54423" lon="5.93801">
        <ele>434.17</ele>
        <time>2011-09-02T18:12:06Z</time>
      </trkpt>
      <trkpt lat="45.54423" lon="5.93801">
        <ele>434.17</ele>
        <time>2011-09-02T18:12:41Z</time>
      </trkpt>
      <trkpt lat="45.54425" lon="5.93799">
        <ele>433.21</ele>
        <time>2011-09-02T18:13:05Z</time>
      </trkpt>
      <trkpt lat="45.54427" lon="5.938">
        <ele>432.73</ele>
        <time>2011-09-02T18:13:06Z</time>
      </trkpt>
      <trkpt lat="45.54429" lon="5.93801">
        <ele>432.25</ele>
        <time>2011-09-02T18:13:07Z</time>
      </trkpt>
      <trkpt lat="45.54431" lon="5.93802">
        <ele>431.77</ele>
        <time>2011-09-02T18:13:08Z</time>
      </trkpt>
      <trkpt lat="45.54432" lon="5.93803">
        <ele>431.29</ele>
        <time>2011-09-02T18:13:09Z</time>
      </trkpt>
      <trkpt lat="45.54434" lon="5.93804">
        <ele>430.33</ele>
        <time>2011-09-02T18:13:10Z</time>
      </trkpt>
      <trkpt lat="45.54437" lon="5.93804">
        <ele>429.85</ele>
        <time>2011-09-02T18:13:11Z</time>
      </trkpt>
      <trkpt lat="45.54439" lon="5.93803">
        <ele>428.89</ele>
        <time>2011-09-02T18:13:12Z</time>
      </trkpt>
      <trkpt lat="45.54442" lon="5.938">
        <ele>427.92</ele>
        <time>2011-09-02T18:13:13Z</time>
      </trkpt>
      <trkpt lat="45.54444" lon="5.93797">
        <ele>427.92</ele>
        <time>2011-09-02T18:13:14Z</time>
      </trkpt>
      <trkpt lat="45.54444" lon="5.93778">
        <ele>424.56</ele>
        <time>2011-09-02T18:13:17Z</time>
      </trkpt>
      <trkpt lat="45.54432" lon="5.93734">
        <ele>422.64</ele>
        <time>2011-09-02T18:13:22Z</time>
      </trkpt>
      <trkpt lat="45.54424" lon="5.93711">
        <ele>420.71</ele>
        <time>2011-09-02T18:13:25Z</time>
      </trkpt>
      <trkpt lat="45.54428" lon="5.93697">
        <ele>420.71</ele>
        <time>2011-09-02T18:13:35Z</time>
      </trkpt>
      <trkpt lat="45.54435" lon="5.93701">
        <ele>421.68</ele>
        <time>2011-09-02T18:13:40Z</time>
      </trkpt>
      <trkpt lat="45.54451" lon="5.93699">
        <ele>425.52</ele>
        <time>2011-09-02T18:13:50Z</time>
      </trkpt>
      <trkpt lat="45.54455" lon="5.93698">
        <ele>426</ele>
        <time>2011-09-02T18:13:52Z</time>
      </trkpt>
      <trkpt lat="45.54464" lon="5.93694">
        <ele>428.4</ele>
        <time>2011-09-02T18:13:57Z</time>
      </trkpt>
      <trkpt lat="45.54477" lon="5.93676">
        <ele>431.77</ele>
        <time>2011-09-02T18:14:09Z</time>
      </trkpt>
      <trkpt lat="45.54484" lon="5.93656">
        <ele>433.69</ele>
        <time>2011-09-02T18:14:21Z</time>
      </trkpt>
      <trkpt lat="45.54492" lon="5.93655">
        <ele>433.69</ele>
        <time>2011-09-02T18:14:26Z</time>
      </trkpt>
      <trkpt lat="45.54548" lon="5.93654">
        <ele>431.29</ele>
        <time>2011-09-02T18:14:41Z</time>
      </trkpt>
      <trkpt lat="45.54607" lon="5.93649">
        <ele>429.85</ele>
        <time>2011-09-02T18:14:55Z</time>
      </trkpt>
      <trkpt lat="45.54649" lon="5.93646">
        <ele>431.29</ele>
        <time>2011-09-02T18:15:09Z</time>
      </trkpt>
      <trkpt lat="45.54652" lon="5.93645">
        <ele>431.29</ele>
        <time>2011-09-02T18:15:11Z</time>
      </trkpt>
      <trkpt lat="45.54653" lon="5.93645">
        <ele>431.77</ele>
        <time>2011-09-02T18:15:12Z</time>
      </trkpt>
      <trkpt lat="45.54654" lon="5.93645">
        <ele>431.29</ele>
        <time>2011-09-02T18:15:13Z</time>
      </trkpt>
      <trkpt lat="45.54656" lon="5.93645">
        <ele>431.29</ele>
        <time>2011-09-02T18:15:14Z</time>
      </trkpt>
      <trkpt lat="45.54657" lon="5.93645">
        <ele>431.29</ele>
        <time>2011-09-02T18:15:15Z</time>
      </trkpt>
      <trkpt lat="45.54659" lon="5.93646">
        <ele>431.29</ele>
        <time>2011-09-02T18:15:32Z</time>
      </trkpt>
      <trkpt lat="45.54661" lon="5.93646">
        <ele>430.81</ele>
        <time>2011-09-02T18:15:48Z</time>
      </trkpt>
      <trkpt lat="45.54665" lon="5.93647">
        <ele>430.81</ele>
        <time>2011-09-02T18:15:50Z</time>
      </trkpt>
      <trkpt lat="45.54668" lon="5.93647">
        <ele>430.81</ele>
        <time>2011-09-02T18:15:51Z</time>
      </trkpt>
      <trkpt lat="45.54672" lon="5.93648">
        <ele>431.29</ele>
        <time>2011-09-02T18:15:52Z</time>
      </trkpt>
      <trkpt lat="45.54675" lon="5.93648">
        <ele>430.81</ele>
        <time>2011-09-02T18:15:53Z</time>
      </trkpt>
      <trkpt lat="45.54679" lon="5.93648">
        <ele>430.81</ele>
        <time>2011-09-02T18:15:54Z</time>
      </trkpt>
      <trkpt lat="45.54734" lon="5.93651">
        <ele>429.37</ele>
        <time>2011-09-02T18:16:09Z</time>
      </trkpt>
      <trkpt lat="45.54738" lon="5.93652">
        <ele>429.37</ele>
        <time>2011-09-02T18:16:10Z</time>
      </trkpt>
      <trkpt lat="45.54742" lon="5.93652">
        <ele>429.37</ele>
        <time>2011-09-02T18:16:11Z</time>
      </trkpt>
      <trkpt lat="45.54746" lon="5.93651">
        <ele>429.37</ele>
        <time>2011-09-02T18:16:12Z</time>
      </trkpt>
      <trkpt lat="45.54749" lon="5.9365">
        <ele>429.85</ele>
        <time>2011-09-02T18:16:13Z</time>
      </trkpt>
      <trkpt lat="45.54752" lon="5.9365">
        <ele>430.33</ele>
        <time>2011-09-02T18:16:14Z</time>
      </trkpt>
      <trkpt lat="45.5476" lon="5.93643">
        <ele>431.77</ele>
        <time>2011-09-02T18:16:19Z</time>
      </trkpt>
      <trkpt lat="45.5476" lon="5.93641">
        <ele>432.25</ele>
        <time>2011-09-02T18:16:20Z</time>
      </trkpt>
      <trkpt lat="45.54761" lon="5.93639">
        <ele>432.25</ele>
        <time>2011-09-02T18:16:21Z</time>
      </trkpt>
      <trkpt lat="45.54773" lon="5.93619">
        <ele>435.61</ele>
        <time>2011-09-02T18:16:32Z</time>
      </trkpt>
      <trkpt lat="45.54786" lon="5.93599">
        <ele>438.98</ele>
        <time>2011-09-02T18:16:44Z</time>
      </trkpt>
      <trkpt lat="45.54792" lon="5.93586">
        <ele>440.9</ele>
        <time>2011-09-02T18:16:52Z</time>
      </trkpt>
      <trkpt lat="45.54793" lon="5.93584">
        <ele>440.9</ele>
        <time>2011-09-02T18:16:53Z</time>
      </trkpt>
      <trkpt lat="45.54794" lon="5.93582">
        <ele>441.38</ele>
        <time>2011-09-02T18:16:54Z</time>
      </trkpt>
      <trkpt lat="45.54796" lon="5.93581">
        <ele>441.38</ele>
        <time>2011-09-02T18:16:55Z</time>
      </trkpt>
      <trkpt lat="45.54797" lon="5.9358">
        <ele>441.86</ele>
        <time>2011-09-02T18:16:56Z</time>
      </trkpt>
      <trkpt lat="45.54798" lon="5.93578">
        <ele>442.34</ele>
        <time>2011-09-02T18:16:57Z</time>
      </trkpt>
      <trkpt lat="45.54816" lon="5.93556">
        <ele>445.71</ele>
        <time>2011-09-02T18:17:13Z</time>
      </trkpt>
      <trkpt lat="45.54836" lon="5.93533">
        <ele>448.59</ele>
        <time>2011-09-02T18:17:30Z</time>
      </trkpt>
      <trkpt lat="45.54852" lon="5.93511">
        <ele>451.48</ele>
        <time>2011-09-02T18:17:45Z</time>
      </trkpt>
      <trkpt lat="45.54865" lon="5.93492">
        <ele>454.36</ele>
        <time>2011-09-02T18:17:59Z</time>
      </trkpt>
      <trkpt lat="45.54879" lon="5.93473">
        <ele>456.28</ele>
        <time>2011-09-02T18:18:12Z</time>
      </trkpt>
      <trkpt lat="45.5491" lon="5.93457">
        <ele>458.21</ele>
        <time>2011-09-02T18:18:26Z</time>
      </trkpt>
      <trkpt lat="45.54945" lon="5.93444">
        <ele>458.69</ele>
        <time>2011-09-02T18:18:41Z</time>
      </trkpt>
      <trkpt lat="45.5499" lon="5.9343">
        <ele>458.69</ele>
        <time>2011-09-02T18:18:54Z</time>
      </trkpt>
      <trkpt lat="45.55028" lon="5.93417">
        <ele>462.05</ele>
        <time>2011-09-02T18:19:05Z</time>
      </trkpt>
      <trkpt lat="45.55059" lon="5.93404">
        <ele>463.49</ele>
        <time>2011-09-02T18:19:19Z</time>
      </trkpt>
      <trkpt lat="45.5507" lon="5.93407">
        <ele>459.65</ele>
        <time>2011-09-02T18:19:27Z</time>
      </trkpt>
      <trkpt lat="45.55078" lon="5.93407">
        <ele>456.76</ele>
        <time>2011-09-02T18:19:32Z</time>
      </trkpt>
      <trkpt lat="45.55081" lon="5.93408">
        <ele>455.8</ele>
        <time>2011-09-02T18:19:33Z</time>
      </trkpt>
      <trkpt lat="45.55085" lon="5.93409">
        <ele>455.32</ele>
        <time>2011-09-02T18:19:34Z</time>
      </trkpt>
      <trkpt lat="45.55088" lon="5.93409">
        <ele>454.84</ele>
        <time>2011-09-02T18:19:35Z</time>
      </trkpt>
      <trkpt lat="45.55092" lon="5.93409">
        <ele>454.36</ele>
        <time>2011-09-02T18:19:36Z</time>
      </trkpt>
      <trkpt lat="45.55096" lon="5.93408">
        <ele>453.88</ele>
        <time>2011-09-02T18:19:37Z</time>
      </trkpt>
      <trkpt lat="45.55102" lon="5.93406">
        <ele>452.92</ele>
        <time>2011-09-02T18:19:38Z</time>
      </trkpt>
      <trkpt lat="45.55115" lon="5.93401">
        <ele>452.44</ele>
        <time>2011-09-02T18:19:40Z</time>
      </trkpt>
      <trkpt lat="45.55123" lon="5.93399">
        <ele>452.44</ele>
        <time>2011-09-02T18:19:41Z</time>
      </trkpt>
      <trkpt lat="45.5513" lon="5.93398">
        <ele>451.96</ele>
        <time>2011-09-02T18:19:42Z</time>
      </trkpt>
      <trkpt lat="45.55136" lon="5.93399">
        <ele>451.96</ele>
        <time>2011-09-02T18:19:43Z</time>
      </trkpt>
      <trkpt lat="45.55141" lon="5.93401">
        <ele>450.52</ele>
        <time>2011-09-02T18:19:44Z</time>
      </trkpt>
      <trkpt lat="45.55145" lon="5.93403">
        <ele>450.52</ele>
        <time>2011-09-02T18:19:45Z</time>
      </trkpt>
      <trkpt lat="45.55163" lon="5.93426">
        <ele>446.67</ele>
        <time>2011-09-02T18:19:49Z</time>
      </trkpt>
      <trkpt lat="45.55175" lon="5.93436">
        <ele>444.75</ele>
        <time>2011-09-02T18:19:51Z</time>
      </trkpt>
      <trkpt lat="45.55192" lon="5.93449">
        <ele>441.38</ele>
        <time>2011-09-02T18:19:54Z</time>
      </trkpt>
      <trkpt lat="45.55197" lon="5.9345">
        <ele>439.94</ele>
        <time>2011-09-02T18:19:55Z</time>
      </trkpt>
      <trkpt lat="45.55201" lon="5.9345">
        <ele>439.94</ele>
        <time>2011-09-02T18:19:56Z</time>
      </trkpt>
      <trkpt lat="45.55211" lon="5.93448">
        <ele>438.02</ele>
        <time>2011-09-02T18:19:59Z</time>
      </trkpt>
      <trkpt lat="45.55214" lon="5.93449">
        <ele>437.06</ele>
        <time>2011-09-02T18:20:00Z</time>
      </trkpt>
      <trkpt lat="45.55233" lon="5.93454">
        <ele>433.21</ele>
        <time>2011-09-02T18:20:04Z</time>
      </trkpt>
      <trkpt lat="45.55238" lon="5.93456">
        <ele>432.25</ele>
        <time>2011-09-02T18:20:05Z</time>
      </trkpt>
      <trkpt lat="45.55247" lon="5.9346">
        <ele>430.81</ele>
        <time>2011-09-02T18:20:07Z</time>
      </trkpt>
      <trkpt lat="45.55261" lon="5.93471">
        <ele>426.96</ele>
        <time>2011-09-02T18:20:10Z</time>
      </trkpt>
      <trkpt lat="45.55264" lon="5.93475">
        <ele>426</ele>
        <time>2011-09-02T18:20:11Z</time>
      </trkpt>
      <trkpt lat="45.55267" lon="5.93479">
        <ele>425.52</ele>
        <time>2011-09-02T18:20:12Z</time>
      </trkpt>
      <trkpt lat="45.55269" lon="5.93483">
        <ele>424.08</ele>
        <time>2011-09-02T18:20:13Z</time>
      </trkpt>
      <trkpt lat="45.55272" lon="5.93486">
        <ele>423.6</ele>
        <time>2011-09-02T18:20:14Z</time>
      </trkpt>
      <trkpt lat="45.55277" lon="5.93489">
        <ele>423.12</ele>
        <time>2011-09-02T18:20:15Z</time>
      </trkpt>
      <trkpt lat="45.55282" lon="5.93493">
        <ele>422.16</ele>
        <time>2011-09-02T18:20:16Z</time>
      </trkpt>
      <trkpt lat="45.55291" lon="5.93497">
        <ele>420.23</ele>
        <time>2011-09-02T18:20:18Z</time>
      </trkpt>
      <trkpt lat="45.55296" lon="5.93499">
        <ele>420.23</ele>
        <time>2011-09-02T18:20:19Z</time>
      </trkpt>
      <trkpt lat="45.553" lon="5.93501">
        <ele>420.23</ele>
        <time>2011-09-02T18:20:20Z</time>
      </trkpt>
      <trkpt lat="45.55314" lon="5.93505">
        <ele>416.87</ele>
        <time>2011-09-02T18:20:24Z</time>
      </trkpt>
      <trkpt lat="45.55316" lon="5.93503">
        <ele>417.35</ele>
        <time>2011-09-02T18:20:25Z</time>
      </trkpt>
      <trkpt lat="45.55317" lon="5.93501">
        <ele>417.35</ele>
        <time>2011-09-02T18:20:26Z</time>
      </trkpt>
      <trkpt lat="45.55318" lon="5.93499">
        <ele>417.35</ele>
        <time>2011-09-02T18:20:27Z</time>
      </trkpt>
      <trkpt lat="45.55319" lon="5.93497">
        <ele>417.35</ele>
        <time>2011-09-02T18:20:28Z</time>
      </trkpt>
      <trkpt lat="45.55319" lon="5.93495">
        <ele>417.83</ele>
        <time>2011-09-02T18:20:29Z</time>
      </trkpt>
      <trkpt lat="45.55319" lon="5.93494">
        <ele>417.83</ele>
        <time>2011-09-02T18:20:30Z</time>
      </trkpt>
      <trkpt lat="45.55317" lon="5.93494">
        <ele>417.83</ele>
        <time>2011-09-02T18:20:31Z</time>
      </trkpt>
      <trkpt lat="45.55317" lon="5.93493">
        <ele>418.31</ele>
        <time>2011-09-02T18:20:32Z</time>
      </trkpt>
      <trkpt lat="45.55316" lon="5.93491">
        <ele>418.31</ele>
        <time>2011-09-02T18:20:33Z</time>
      </trkpt>
      <trkpt lat="45.55315" lon="5.9349">
        <ele>418.31</ele>
        <time>2011-09-02T18:20:34Z</time>
      </trkpt>
      <trkpt lat="45.55314" lon="5.93486">
        <ele>418.79</ele>
        <time>2011-09-02T18:20:52Z</time>
      </trkpt>
      <trkpt lat="45.55314" lon="5.93486">
        <ele>418.79</ele>
        <time>2011-09-02T18:21:29Z</time>
      </trkpt>
      <trkpt lat="45.55314" lon="5.93486">
        <ele>418.31</ele>
        <time>2011-09-02T18:21:37Z</time>
      </trkpt>
      <trkpt lat="45.55315" lon="5.93484">
        <ele>418.79</ele>
        <time>2011-09-02T18:21:38Z</time>
      </trkpt>
      <trkpt lat="45.55315" lon="5.93482">
        <ele>418.79</ele>
        <time>2011-09-02T18:21:39Z</time>
      </trkpt>
      <trkpt lat="45.55315" lon="5.93476">
        <ele>418.79</ele>
        <time>2011-09-02T18:21:42Z</time>
      </trkpt>
      <trkpt lat="45.55314" lon="5.93474">
        <ele>419.27</ele>
        <time>2011-09-02T18:21:43Z</time>
      </trkpt>
      <trkpt lat="45.55314" lon="5.93473">
        <ele>419.27</ele>
        <time>2011-09-02T18:21:44Z</time>
      </trkpt>
      <trkpt lat="45.55314" lon="5.93471">
        <ele>419.27</ele>
        <time>2011-09-02T18:21:45Z</time>
      </trkpt>
      <trkpt lat="45.55314" lon="5.93469">
        <ele>419.75</ele>
        <time>2011-09-02T18:21:46Z</time>
      </trkpt>
      <trkpt lat="45.55314" lon="5.93468">
        <ele>419.75</ele>
        <time>2011-09-02T18:21:47Z</time>
      </trkpt>
      <trkpt lat="45.55314" lon="5.93465">
        <ele>419.75</ele>
        <time>2011-09-02T18:21:48Z</time>
      </trkpt>
      <trkpt lat="45.55314" lon="5.93463">
        <ele>420.23</ele>
        <time>2011-09-02T18:21:49Z</time>
      </trkpt>
      <trkpt lat="45.55313" lon="5.93461">
        <ele>420.23</ele>
        <time>2011-09-02T18:21:50Z</time>
      </trkpt>
      <trkpt lat="45.55312" lon="5.93454">
        <ele>420.71</ele>
        <time>2011-09-02T18:21:54Z</time>
      </trkpt>
      <trkpt lat="45.5531" lon="5.93444">
        <ele>421.68</ele>
        <time>2011-09-02T18:21:59Z</time>
      </trkpt>
      <trkpt lat="45.5531" lon="5.93442">
        <ele>421.19</ele>
        <time>2011-09-02T18:22:00Z</time>
      </trkpt>
      <trkpt lat="45.55309" lon="5.9344">
        <ele>421.19</ele>
        <time>2011-09-02T18:22:01Z</time>
      </trkpt>
      <trkpt lat="45.55309" lon="5.93438">
        <ele>421.68</ele>
        <time>2011-09-02T18:22:02Z</time>
      </trkpt>
      <trkpt lat="45.55309" lon="5.93436">
        <ele>422.16</ele>
        <time>2011-09-02T18:22:03Z</time>
      </trkpt>
      <trkpt lat="45.55303" lon="5.93401">
        <ele>423.12</ele>
        <time>2011-09-02T18:22:17Z</time>
      </trkpt>
      <trkpt lat="45.55299" lon="5.93342">
        <ele>424.08</ele>
        <time>2011-09-02T18:22:33Z</time>
      </trkpt>
      <trkpt lat="45.55301" lon="5.93297">
        <ele>421.19</ele>
        <time>2011-09-02T18:22:44Z</time>
      </trkpt>
      <trkpt lat="45.55292" lon="5.93246">
        <ele>422.16</ele>
        <time>2011-09-02T18:22:57Z</time>
      </trkpt>
      <trkpt lat="45.55269" lon="5.93204">
        <ele>422.64</ele>
        <time>2011-09-02T18:23:11Z</time>
      </trkpt>
      <trkpt lat="45.55246" lon="5.93158">
        <ele>419.75</ele>
        <time>2011-09-02T18:23:21Z</time>
      </trkpt>
      <trkpt lat="45.5524" lon="5.93147">
        <ele>419.27</ele>
        <time>2011-09-02T18:23:23Z</time>
      </trkpt>
      <trkpt lat="45.55236" lon="5.93142">
        <ele>418.31</ele>
        <time>2011-09-02T18:23:24Z</time>
      </trkpt>
      <trkpt lat="45.55233" lon="5.93137">
        <ele>417.83</ele>
        <time>2011-09-02T18:23:25Z</time>
      </trkpt>
      <trkpt lat="45.5523" lon="5.93132">
        <ele>418.31</ele>
        <time>2011-09-02T18:23:26Z</time>
      </trkpt>
      <trkpt lat="45.55226" lon="5.93128">
        <ele>417.35</ele>
        <time>2011-09-02T18:23:27Z</time>
      </trkpt>
      <trkpt lat="45.55214" lon="5.93114">
        <ele>415.91</ele>
        <time>2011-09-02T18:23:30Z</time>
      </trkpt>
      <trkpt lat="45.55206" lon="5.93104">
        <ele>414.47</ele>
        <time>2011-09-02T18:23:32Z</time>
      </trkpt>
      <trkpt lat="45.55203" lon="5.931">
        <ele>414.47</ele>
        <time>2011-09-02T18:23:33Z</time>
      </trkpt>
      <trkpt lat="45.55199" lon="5.93096">
        <ele>414.47</ele>
        <time>2011-09-02T18:23:34Z</time>
      </trkpt>
      <trkpt lat="45.55194" lon="5.93093">
        <ele>413.98</ele>
        <time>2011-09-02T18:23:35Z</time>
      </trkpt>
      <trkpt lat="45.5519" lon="5.9309">
        <ele>413.5</ele>
        <time>2011-09-02T18:23:36Z</time>
      </trkpt>
      <trkpt lat="45.55185" lon="5.93087">
        <ele>413.5</ele>
        <time>2011-09-02T18:23:37Z</time>
      </trkpt>
      <trkpt lat="45.55181" lon="5.93083">
        <ele>413.5</ele>
        <time>2011-09-02T18:23:38Z</time>
      </trkpt>
      <trkpt lat="45.5515" lon="5.93046">
        <ele>411.58</ele>
        <time>2011-09-02T18:23:46Z</time>
      </trkpt>
      <trkpt lat="45.55125" lon="5.93014">
        <ele>410.62</ele>
        <time>2011-09-02T18:23:54Z</time>
      </trkpt>
      <trkpt lat="45.55119" lon="5.93007">
        <ele>412.06</ele>
        <time>2011-09-02T18:23:56Z</time>
      </trkpt>
      <trkpt lat="45.55088" lon="5.92968">
        <ele>413.02</ele>
        <time>2011-09-02T18:24:07Z</time>
      </trkpt>
      <trkpt lat="45.55071" lon="5.92933">
        <ele>413.02</ele>
        <time>2011-09-02T18:24:17Z</time>
      </trkpt>
      <trkpt lat="45.55068" lon="5.92931">
        <ele>413.02</ele>
        <time>2011-09-02T18:24:18Z</time>
      </trkpt>
      <trkpt lat="45.55066" lon="5.9293">
        <ele>412.54</ele>
        <time>2011-09-02T18:24:19Z</time>
      </trkpt>
      <trkpt lat="45.55063" lon="5.92927">
        <ele>413.5</ele>
        <time>2011-09-02T18:24:20Z</time>
      </trkpt>
      <trkpt lat="45.5506" lon="5.92926">
        <ele>413.98</ele>
        <time>2011-09-02T18:24:21Z</time>
      </trkpt>
      <trkpt lat="45.55058" lon="5.92925">
        <ele>414.47</ele>
        <time>2011-09-02T18:24:22Z</time>
      </trkpt>
      <trkpt lat="45.55056" lon="5.92924">
        <ele>414.47</ele>
        <time>2011-09-02T18:24:23Z</time>
      </trkpt>
      <trkpt lat="45.55053" lon="5.92922">
        <ele>414.47</ele>
        <time>2011-09-02T18:24:24Z</time>
      </trkpt>
      <trkpt lat="45.55051" lon="5.92921">
        <ele>414.47</ele>
        <time>2011-09-02T18:24:25Z</time>
      </trkpt>
      <trkpt lat="45.55049" lon="5.9292">
        <ele>414.95</ele>
        <time>2011-09-02T18:24:26Z</time>
      </trkpt>
      <trkpt lat="45.55031" lon="5.9291">
        <ele>416.87</ele>
        <time>2011-09-02T18:24:35Z</time>
      </trkpt>
      <trkpt lat="45.5503" lon="5.92908">
        <ele>417.83</ele>
        <time>2011-09-02T18:24:36Z</time>
      </trkpt>
      <trkpt lat="45.5503" lon="5.92905">
        <ele>417.83</ele>
        <time>2011-09-02T18:24:37Z</time>
      </trkpt>
      <trkpt lat="45.5503" lon="5.92902">
        <ele>417.83</ele>
        <time>2011-09-02T18:24:38Z</time>
      </trkpt>
      <trkpt lat="45.55031" lon="5.92901">
        <ele>418.31</ele>
        <time>2011-09-02T18:24:39Z</time>
      </trkpt>
      <trkpt lat="45.55032" lon="5.92899">
        <ele>417.83</ele>
        <time>2011-09-02T18:24:40Z</time>
      </trkpt>
      <trkpt lat="45.55034" lon="5.92897">
        <ele>418.31</ele>
        <time>2011-09-02T18:24:41Z</time>
      </trkpt>
      <trkpt lat="45.55056" lon="5.92879">
        <ele>417.83</ele>
        <time>2011-09-02T18:24:54Z</time>
      </trkpt>
      <trkpt lat="45.55095" lon="5.92882">
        <ele>416.87</ele>
        <time>2011-09-02T18:25:07Z</time>
      </trkpt>
      <trkpt lat="45.55143" lon="5.92881">
        <ele>414.95</ele>
        <time>2011-09-02T18:25:19Z</time>
      </trkpt>
      <trkpt lat="45.55216" lon="5.92878">
        <ele>413.02</ele>
        <time>2011-09-02T18:25:33Z</time>
      </trkpt>
      <trkpt lat="45.55297" lon="5.92874">
        <ele>413.5</ele>
        <time>2011-09-02T18:25:50Z</time>
      </trkpt>
      <trkpt lat="45.55351" lon="5.92869">
        <ele>412.06</ele>
        <time>2011-09-02T18:26:02Z</time>
      </trkpt>
      <trkpt lat="45.55413" lon="5.92864">
        <ele>411.58</ele>
        <time>2011-09-02T18:26:15Z</time>
      </trkpt>
      <trkpt lat="45.55483" lon="5.9284">
        <ele>409.18</ele>
        <time>2011-09-02T18:26:27Z</time>
      </trkpt>
      <trkpt lat="45.5557" lon="5.92809">
        <ele>406.29</ele>
        <time>2011-09-02T18:26:39Z</time>
      </trkpt>
      <trkpt lat="45.55631" lon="5.92799">
        <ele>404.37</ele>
        <time>2011-09-02T18:26:47Z</time>
      </trkpt>
      <trkpt lat="45.55639" lon="5.92796">
        <ele>403.89</ele>
        <time>2011-09-02T18:26:48Z</time>
      </trkpt>
      <trkpt lat="45.55647" lon="5.92793">
        <ele>403.89</ele>
        <time>2011-09-02T18:26:49Z</time>
      </trkpt>
      <trkpt lat="45.55714" lon="5.92749">
        <ele>401.49</ele>
        <time>2011-09-02T18:26:58Z</time>
      </trkpt>
      <trkpt lat="45.5573" lon="5.92737">
        <ele>401.01</ele>
        <time>2011-09-02T18:27:00Z</time>
      </trkpt>
      <trkpt lat="45.55737" lon="5.92729">
        <ele>401.01</ele>
        <time>2011-09-02T18:27:01Z</time>
      </trkpt>
      <trkpt lat="45.55742" lon="5.9272">
        <ele>400.53</ele>
        <time>2011-09-02T18:27:02Z</time>
      </trkpt>
      <trkpt lat="45.55746" lon="5.9271">
        <ele>400.53</ele>
        <time>2011-09-02T18:27:03Z</time>
      </trkpt>
      <trkpt lat="45.55749" lon="5.927">
        <ele>401.01</ele>
        <time>2011-09-02T18:27:04Z</time>
      </trkpt>
      <trkpt lat="45.55753" lon="5.9269">
        <ele>401.49</ele>
        <time>2011-09-02T18:27:05Z</time>
      </trkpt>
      <trkpt lat="45.55755" lon="5.92682">
        <ele>401.97</ele>
        <time>2011-09-02T18:27:06Z</time>
      </trkpt>
      <trkpt lat="45.55765" lon="5.92653">
        <ele>402.93</ele>
        <time>2011-09-02T18:27:10Z</time>
      </trkpt>
      <trkpt lat="45.55768" lon="5.92647">
        <ele>402.93</ele>
        <time>2011-09-02T18:27:11Z</time>
      </trkpt>
      <trkpt lat="45.55771" lon="5.92641">
        <ele>402.93</ele>
        <time>2011-09-02T18:27:12Z</time>
      </trkpt>
      <trkpt lat="45.55775" lon="5.92636">
        <ele>402.93</ele>
        <time>2011-09-02T18:27:13Z</time>
      </trkpt>
      <trkpt lat="45.55779" lon="5.92631">
        <ele>402.45</ele>
        <time>2011-09-02T18:27:14Z</time>
      </trkpt>
      <trkpt lat="45.55811" lon="5.92575">
        <ele>400.53</ele>
        <time>2011-09-02T18:27:22Z</time>
      </trkpt>
      <trkpt lat="45.55813" lon="5.92566">
        <ele>401.01</ele>
        <time>2011-09-02T18:27:23Z</time>
      </trkpt>
      <trkpt lat="45.55818" lon="5.92549">
        <ele>401.49</ele>
        <time>2011-09-02T18:27:25Z</time>
      </trkpt>
      <trkpt lat="45.55821" lon="5.92542">
        <ele>400.53</ele>
        <time>2011-09-02T18:27:26Z</time>
      </trkpt>
      <trkpt lat="45.55827" lon="5.92528">
        <ele>401.01</ele>
        <time>2011-09-02T18:27:28Z</time>
      </trkpt>
      <trkpt lat="45.55827" lon="5.9252">
        <ele>401.01</ele>
        <time>2011-09-02T18:27:29Z</time>
      </trkpt>
      <trkpt lat="45.55825" lon="5.92513">
        <ele>401.01</ele>
        <time>2011-09-02T18:27:30Z</time>
      </trkpt>
      <trkpt lat="45.55822" lon="5.92508">
        <ele>401.49</ele>
        <time>2011-09-02T18:27:31Z</time>
      </trkpt>
      <trkpt lat="45.55818" lon="5.92505">
        <ele>401.49</ele>
        <time>2011-09-02T18:27:32Z</time>
      </trkpt>
      <trkpt lat="45.55814" lon="5.92503">
        <ele>401.97</ele>
        <time>2011-09-02T18:27:33Z</time>
      </trkpt>
      <trkpt lat="45.55811" lon="5.92502">
        <ele>401.97</ele>
        <time>2011-09-02T18:27:34Z</time>
      </trkpt>
      <trkpt lat="45.55808" lon="5.92501">
        <ele>402.45</ele>
        <time>2011-09-02T18:27:35Z</time>
      </trkpt>
      <trkpt lat="45.55806" lon="5.925">
        <ele>402.45</ele>
        <time>2011-09-02T18:27:36Z</time>
      </trkpt>
      <trkpt lat="45.55803" lon="5.925">
        <ele>402.93</ele>
        <time>2011-09-02T18:27:37Z</time>
      </trkpt>
      <trkpt lat="45.55801" lon="5.925">
        <ele>403.41</ele>
        <time>2011-09-02T18:27:38Z</time>
      </trkpt>
      <trkpt lat="45.55772" lon="5.92499">
        <ele>406.77</ele>
        <time>2011-09-02T18:27:48Z</time>
      </trkpt>
      <trkpt lat="45.55745" lon="5.92498">
        <ele>410.14</ele>
        <time>2011-09-02T18:27:59Z</time>
      </trkpt>
      <trkpt lat="45.55712" lon="5.92497">
        <ele>412.54</ele>
        <time>2011-09-02T18:28:14Z</time>
      </trkpt>
      <trkpt lat="45.55709" lon="5.92494">
        <ele>412.54</ele>
        <time>2011-09-02T18:28:16Z</time>
      </trkpt>
      <trkpt lat="45.55708" lon="5.92493">
        <ele>412.54</ele>
        <time>2011-09-02T18:28:17Z</time>
      </trkpt>
      <trkpt lat="45.55707" lon="5.92491">
        <ele>412.54</ele>
        <time>2011-09-02T18:28:18Z</time>
      </trkpt>
      <trkpt lat="45.55706" lon="5.92489">
        <ele>412.54</ele>
        <time>2011-09-02T18:28:19Z</time>
      </trkpt>
      <trkpt lat="45.55706" lon="5.92487">
        <ele>412.54</ele>
        <time>2011-09-02T18:28:20Z</time>
      </trkpt>
      <trkpt lat="45.55706" lon="5.92485">
        <ele>412.54</ele>
        <time>2011-09-02T18:28:21Z</time>
      </trkpt>
      <trkpt lat="45.55699" lon="5.92433">
        <ele>411.1</ele>
        <time>2011-09-02T18:28:35Z</time>
      </trkpt>
      <trkpt lat="45.55676" lon="5.92394">
        <ele>408.7</ele>
        <time>2011-09-02T18:28:47Z</time>
      </trkpt>
      <trkpt lat="45.55664" lon="5.92385">
        <ele>406.77</ele>
        <time>2011-09-02T18:28:50Z</time>
      </trkpt>
      <trkpt lat="45.5566" lon="5.92382">
        <ele>405.33</ele>
        <time>2011-09-02T18:28:51Z</time>
      </trkpt>
      <trkpt lat="45.55655" lon="5.92379">
        <ele>404.85</ele>
        <time>2011-09-02T18:28:52Z</time>
      </trkpt>
      <trkpt lat="45.55637" lon="5.92369">
        <ele>401.01</ele>
        <time>2011-09-02T18:28:55Z</time>
      </trkpt>
      <trkpt lat="45.55616" lon="5.92353">
        <ele>397.16</ele>
        <time>2011-09-02T18:28:58Z</time>
      </trkpt>
      <trkpt lat="45.55607" lon="5.92344">
        <ele>396.2</ele>
        <time>2011-09-02T18:28:59Z</time>
      </trkpt>
      <trkpt lat="45.55598" lon="5.92333">
        <ele>394.76</ele>
        <time>2011-09-02T18:29:00Z</time>
      </trkpt>
      <trkpt lat="45.55579" lon="5.9231">
        <ele>391.39</ele>
        <time>2011-09-02T18:29:02Z</time>
      </trkpt>
      <trkpt lat="45.5557" lon="5.92298">
        <ele>391.39</ele>
        <time>2011-09-02T18:29:03Z</time>
      </trkpt>
      <trkpt lat="45.5556" lon="5.92287">
        <ele>390.91</ele>
        <time>2011-09-02T18:29:04Z</time>
      </trkpt>
      <trkpt lat="45.5555" lon="5.92278">
        <ele>390.43</ele>
        <time>2011-09-02T18:29:05Z</time>
      </trkpt>
      <trkpt lat="45.55541" lon="5.92271">
        <ele>390.91</ele>
        <time>2011-09-02T18:29:06Z</time>
      </trkpt>
      <trkpt lat="45.55477" lon="5.92235">
        <ele>392.36</ele>
        <time>2011-09-02T18:29:14Z</time>
      </trkpt>
      <trkpt lat="45.55472" lon="5.9223">
        <ele>392.84</ele>
        <time>2011-09-02T18:29:15Z</time>
      </trkpt>
      <trkpt lat="45.55468" lon="5.92225">
        <ele>392.36</ele>
        <time>2011-09-02T18:29:16Z</time>
      </trkpt>
      <trkpt lat="45.55465" lon="5.92219">
        <ele>392.36</ele>
        <time>2011-09-02T18:29:17Z</time>
      </trkpt>
      <trkpt lat="45.55463" lon="5.92212">
        <ele>392.36</ele>
        <time>2011-09-02T18:29:18Z</time>
      </trkpt>
      <trkpt lat="45.55462" lon="5.92205">
        <ele>391.87</ele>
        <time>2011-09-02T18:29:19Z</time>
      </trkpt>
      <trkpt lat="45.55462" lon="5.92198">
        <ele>391.87</ele>
        <time>2011-09-02T18:29:20Z</time>
      </trkpt>
      <trkpt lat="45.55465" lon="5.92177">
        <ele>391.39</ele>
        <time>2011-09-02T18:29:25Z</time>
      </trkpt>
      <trkpt lat="45.55465" lon="5.92176">
        <ele>391.39</ele>
        <time>2011-09-02T18:29:38Z</time>
      </trkpt>
      <trkpt lat="45.55465" lon="5.92176">
        <ele>390.91</ele>
        <time>2011-09-02T18:30:12Z</time>
      </trkpt>
      <trkpt lat="45.55464" lon="5.92175">
        <ele>390.91</ele>
        <time>2011-09-02T18:30:47Z</time>
      </trkpt>
      <trkpt lat="45.55464" lon="5.92175">
        <ele>391.39</ele>
        <time>2011-09-02T18:31:19Z</time>
      </trkpt>
      <trkpt lat="45.55463" lon="5.92165">
        <ele>391.39</ele>
        <time>2011-09-02T18:31:33Z</time>
      </trkpt>
      <trkpt lat="45.55461" lon="5.92163">
        <ele>390.91</ele>
        <time>2011-09-02T18:31:34Z</time>
      </trkpt>
      <trkpt lat="45.55458" lon="5.92163">
        <ele>391.39</ele>
        <time>2011-09-02T18:31:35Z</time>
      </trkpt>
      <trkpt lat="45.55455" lon="5.92163">
        <ele>391.39</ele>
        <time>2011-09-02T18:31:36Z</time>
      </trkpt>
      <trkpt lat="45.55452" lon="5.92163">
        <ele>391.87</ele>
        <time>2011-09-02T18:31:37Z</time>
      </trkpt>
      <trkpt lat="45.5545" lon="5.92163">
        <ele>391.87</ele>
        <time>2011-09-02T18:31:38Z</time>
      </trkpt>
      <trkpt lat="45.55402" lon="5.92163">
        <ele>394.76</ele>
        <time>2011-09-02T18:31:55Z</time>
      </trkpt>
      <trkpt lat="45.55362" lon="5.92161">
        <ele>397.16</ele>
        <time>2011-09-02T18:32:10Z</time>
      </trkpt>
      <trkpt lat="45.55336" lon="5.92127">
        <ele>400.05</ele>
        <time>2011-09-02T18:32:25Z</time>
      </trkpt>
      <trkpt lat="45.5532" lon="5.92096">
        <ele>401.97</ele>
        <time>2011-09-02T18:32:37Z</time>
      </trkpt>
      <trkpt lat="45.5529" lon="5.92075">
        <ele>404.85</ele>
        <time>2011-09-02T18:32:52Z</time>
      </trkpt>
      <trkpt lat="45.55261" lon="5.92057">
        <ele>408.22</ele>
        <time>2011-09-02T18:33:08Z</time>
      </trkpt>
      <trkpt lat="45.55229" lon="5.92046">
        <ele>411.1</ele>
        <time>2011-09-02T18:33:25Z</time>
      </trkpt>
      <trkpt lat="45.55198" lon="5.92035">
        <ele>414.47</ele>
        <time>2011-09-02T18:33:41Z</time>
      </trkpt>
      <trkpt lat="45.5517" lon="5.92029">
        <ele>417.35</ele>
        <time>2011-09-02T18:33:56Z</time>
      </trkpt>
      <trkpt lat="45.55138" lon="5.92028">
        <ele>419.75</ele>
        <time>2011-09-02T18:34:13Z</time>
      </trkpt>
      <trkpt lat="45.55107" lon="5.92023">
        <ele>422.64</ele>
        <time>2011-09-02T18:34:30Z</time>
      </trkpt>
      <trkpt lat="45.55113" lon="5.91991">
        <ele>424.56</ele>
        <time>2011-09-02T18:34:43Z</time>
      </trkpt>
      <trkpt lat="45.55151" lon="5.91983">
        <ele>425.52</ele>
        <time>2011-09-02T18:34:58Z</time>
      </trkpt>
      <trkpt lat="45.55192" lon="5.91945">
        <ele>427.44</ele>
        <time>2011-09-02T18:35:16Z</time>
      </trkpt>
      <trkpt lat="45.5523" lon="5.91917">
        <ele>429.37</ele>
        <time>2011-09-02T18:35:31Z</time>
      </trkpt>
      <trkpt lat="45.55287" lon="5.91896">
        <ele>431.29</ele>
        <time>2011-09-02T18:35:51Z</time>
      </trkpt>
      <trkpt lat="45.55344" lon="5.91894">
        <ele>431.77</ele>
        <time>2011-09-02T18:36:08Z</time>
      </trkpt>
      <trkpt lat="45.55405" lon="5.91891">
        <ele>431.77</ele>
        <time>2011-09-02T18:36:25Z</time>
      </trkpt>
      <trkpt lat="45.55412" lon="5.9188">
        <ele>431.77</ele>
        <time>2011-09-02T18:36:28Z</time>
      </trkpt>
      <trkpt lat="45.55412" lon="5.91876">
        <ele>432.73</ele>
        <time>2011-09-02T18:36:29Z</time>
      </trkpt>
      <trkpt lat="45.55412" lon="5.91872">
        <ele>433.21</ele>
        <time>2011-09-02T18:36:30Z</time>
      </trkpt>
      <trkpt lat="45.5542" lon="5.91818">
        <ele>435.13</ele>
        <time>2011-09-02T18:36:45Z</time>
      </trkpt>
      <trkpt lat="45.55421" lon="5.91737">
        <ele>434.17</ele>
        <time>2011-09-02T18:37:01Z</time>
      </trkpt>
      <trkpt lat="45.55422" lon="5.91724">
        <ele>433.21</ele>
        <time>2011-09-02T18:37:03Z</time>
      </trkpt>
      <trkpt lat="45.55423" lon="5.91718">
        <ele>433.21</ele>
        <time>2011-09-02T18:37:04Z</time>
      </trkpt>
      <trkpt lat="45.55425" lon="5.91712">
        <ele>432.73</ele>
        <time>2011-09-02T18:37:05Z</time>
      </trkpt>
      <trkpt lat="45.55426" lon="5.91707">
        <ele>432.73</ele>
        <time>2011-09-02T18:37:06Z</time>
      </trkpt>
      <trkpt lat="45.55397" lon="5.9168">
        <ele>430.33</ele>
        <time>2011-09-02T18:37:16Z</time>
      </trkpt>
      <trkpt lat="45.55377" lon="5.91676">
        <ele>429.37</ele>
        <time>2011-09-02T18:37:21Z</time>
      </trkpt>
      <trkpt lat="45.55354" lon="5.91672">
        <ele>428.4</ele>
        <time>2011-09-02T18:37:26Z</time>
      </trkpt>
      <trkpt lat="45.55299" lon="5.91671">
        <ele>425.04</ele>
        <time>2011-09-02T18:37:35Z</time>
      </trkpt>
      <trkpt lat="45.55214" lon="5.91663">
        <ele>425.52</ele>
        <time>2011-09-02T18:37:49Z</time>
      </trkpt>
      <trkpt lat="45.55209" lon="5.91655">
        <ele>424.56</ele>
        <time>2011-09-02T18:37:51Z</time>
      </trkpt>
      <trkpt lat="45.55209" lon="5.91649">
        <ele>424.08</ele>
        <time>2011-09-02T18:37:52Z</time>
      </trkpt>
      <trkpt lat="45.5521" lon="5.91642">
        <ele>423.6</ele>
        <time>2011-09-02T18:37:53Z</time>
      </trkpt>
      <trkpt lat="45.55214" lon="5.91635">
        <ele>423.12</ele>
        <time>2011-09-02T18:37:54Z</time>
      </trkpt>
      <trkpt lat="45.5522" lon="5.91629">
        <ele>421.68</ele>
        <time>2011-09-02T18:37:55Z</time>
      </trkpt>
      <trkpt lat="45.55227" lon="5.91622">
        <ele>420.71</ele>
        <time>2011-09-02T18:37:56Z</time>
      </trkpt>
      <trkpt lat="45.55246" lon="5.91599">
        <ele>417.35</ele>
        <time>2011-09-02T18:37:59Z</time>
      </trkpt>
      <trkpt lat="45.5527" lon="5.91569">
        <ele>413.5</ele>
        <time>2011-09-02T18:38:03Z</time>
      </trkpt>
      <trkpt lat="45.55279" lon="5.91557">
        <ele>411.1</ele>
        <time>2011-09-02T18:38:05Z</time>
      </trkpt>
      <trkpt lat="45.55282" lon="5.91552">
        <ele>410.14</ele>
        <time>2011-09-02T18:38:06Z</time>
      </trkpt>
      <trkpt lat="45.55285" lon="5.91548">
        <ele>409.66</ele>
        <time>2011-09-02T18:38:07Z</time>
      </trkpt>
      <trkpt lat="45.55285" lon="5.91543">
        <ele>408.7</ele>
        <time>2011-09-02T18:38:08Z</time>
      </trkpt>
      <trkpt lat="45.55285" lon="5.91539">
        <ele>408.7</ele>
        <time>2011-09-02T18:38:09Z</time>
      </trkpt>
      <trkpt lat="45.55285" lon="5.91536">
        <ele>408.7</ele>
        <time>2011-09-02T18:38:10Z</time>
      </trkpt>
      <trkpt lat="45.55286" lon="5.91533">
        <ele>408.7</ele>
        <time>2011-09-02T18:38:11Z</time>
      </trkpt>
      <trkpt lat="45.55293" lon="5.9152">
        <ele>406.29</ele>
        <time>2011-09-02T18:38:14Z</time>
      </trkpt>
      <trkpt lat="45.55295" lon="5.91515">
        <ele>405.81</ele>
        <time>2011-09-02T18:38:15Z</time>
      </trkpt>
      <trkpt lat="45.55297" lon="5.91509">
        <ele>405.81</ele>
        <time>2011-09-02T18:38:16Z</time>
      </trkpt>
      <trkpt lat="45.55298" lon="5.91504">
        <ele>405.33</ele>
        <time>2011-09-02T18:38:17Z</time>
      </trkpt>
      <trkpt lat="45.55299" lon="5.915">
        <ele>404.85</ele>
        <time>2011-09-02T18:38:18Z</time>
      </trkpt>
      <trkpt lat="45.55301" lon="5.91498">
        <ele>404.85</ele>
        <time>2011-09-02T18:38:19Z</time>
      </trkpt>
      <trkpt lat="45.55303" lon="5.91498">
        <ele>405.33</ele>
        <time>2011-09-02T18:38:20Z</time>
      </trkpt>
      <trkpt lat="45.55305" lon="5.91498">
        <ele>404.85</ele>
        <time>2011-09-02T18:38:21Z</time>
      </trkpt>
      <trkpt lat="45.55307" lon="5.91498">
        <ele>404.37</ele>
        <time>2011-09-02T18:38:22Z</time>
      </trkpt>
      <trkpt lat="45.55331" lon="5.91509">
        <ele>402.45</ele>
        <time>2011-09-02T18:38:31Z</time>
      </trkpt>
      <trkpt lat="45.55367" lon="5.91514">
        <ele>401.49</ele>
        <time>2011-09-02T18:38:42Z</time>
      </trkpt>
      <trkpt lat="45.55368" lon="5.91514">
        <ele>400.53</ele>
        <time>2011-09-02T18:38:56Z</time>
      </trkpt>
      <trkpt lat="45.55368" lon="5.91514">
        <ele>400.53</ele>
        <time>2011-09-02T18:39:33Z</time>
      </trkpt>
      <trkpt lat="45.55368" lon="5.91514">
        <ele>400.05</ele>
        <time>2011-09-02T18:39:37Z</time>
      </trkpt>
    </trkseg>
  </trk>
</gpx>